<?xml version="1.0" encoding="UTF-8" standalone="no" ?>
<gpx xmlns="http://www.topografix.com/GPX/1/1" xmlns:xsi="http://www.w3.org/2001/XMLSchema-instance" xsi:schemaLocation="http://www.topografix.com/GPX/1/1 http://www.topografix.com/GPX/1/1/gpx.xsd" version="1.1" creator="VisuGPX - https://www.visugpx.com">
  <metadata>
    <name>Sortie du 10-12-2015</name>
    <desc><![CDATA[Sortie du 10-12-2015]]></desc>
  </metadata>
  <trk>
    <name><![CDATA[Sortie 10-12-2015]]></name>
    <trkseg>
      <trkpt lat="47.78968" lon="2.20736">
        <ele>108.40000152588</ele>
        <time>2015-12-10T07:09:46.000Z</time>
      </trkpt>
      <trkpt lat="47.78968" lon="2.20736">
        <ele>108.40000152588</ele>
        <time>2015-12-10T07:09:47.000Z</time>
      </trkpt>
      <trkpt lat="47.7897" lon="2.20735">
        <ele>108.40000152588</ele>
        <time>2015-12-10T07:09:53.000Z</time>
      </trkpt>
      <trkpt lat="47.78977" lon="2.20741">
        <ele>108.40000152588</ele>
        <time>2015-12-10T07:09:57.000Z</time>
      </trkpt>
      <trkpt lat="47.79015" lon="2.20777">
        <ele>108.59999847412</ele>
        <time>2015-12-10T07:10:12.000Z</time>
      </trkpt>
      <trkpt lat="47.79062" lon="2.20732">
        <ele>109.59999847412</ele>
        <time>2015-12-10T07:10:25.000Z</time>
      </trkpt>
      <trkpt lat="47.79077" lon="2.20713">
        <ele>110.19999694824</ele>
        <time>2015-12-10T07:10:30.000Z</time>
      </trkpt>
      <trkpt lat="47.79064" lon="2.2072">
        <ele>109.80000305176</ele>
        <time>2015-12-10T07:10:36.000Z</time>
      </trkpt>
      <trkpt lat="47.79017" lon="2.20766">
        <ele>108.40000152588</ele>
        <time>2015-12-10T07:10:50.000Z</time>
      </trkpt>
      <trkpt lat="47.79002" lon="2.20767">
        <ele>108.19999694824</ele>
        <time>2015-12-10T07:10:54.000Z</time>
      </trkpt>
      <trkpt lat="47.78995" lon="2.20761">
        <ele>108.40000152588</ele>
        <time>2015-12-10T07:10:56.000Z</time>
      </trkpt>
      <trkpt lat="47.78973" lon="2.20733">
        <ele>108.40000152588</ele>
        <time>2015-12-10T07:11:03.000Z</time>
      </trkpt>
      <trkpt lat="47.78969" lon="2.20733">
        <ele>108.40000152588</ele>
        <time>2015-12-10T07:11:06.000Z</time>
      </trkpt>
      <trkpt lat="47.78972" lon="2.20736">
        <ele>108.40000152588</ele>
        <time>2015-12-10T07:12:58.000Z</time>
      </trkpt>
      <trkpt lat="47.78982" lon="2.20748">
        <ele>108.40000152588</ele>
        <time>2015-12-10T07:13:03.000Z</time>
      </trkpt>
      <trkpt lat="47.79004" lon="2.20778">
        <ele>108.40000152588</ele>
        <time>2015-12-10T07:13:12.000Z</time>
      </trkpt>
      <trkpt lat="47.79025" lon="2.20767">
        <ele>108.59999847412</ele>
        <time>2015-12-10T07:13:18.000Z</time>
      </trkpt>
      <trkpt lat="47.7907" lon="2.20722">
        <ele>109.80000305176</ele>
        <time>2015-12-10T07:13:31.000Z</time>
      </trkpt>
      <trkpt lat="47.79114" lon="2.20673">
        <ele>111.19999694824</ele>
        <time>2015-12-10T07:13:44.000Z</time>
      </trkpt>
      <trkpt lat="47.79157" lon="2.20619">
        <ele>111.40000152588</ele>
        <time>2015-12-10T07:13:57.000Z</time>
      </trkpt>
      <trkpt lat="47.79199" lon="2.20565">
        <ele>110.59999847412</ele>
        <time>2015-12-10T07:14:10.000Z</time>
      </trkpt>
      <trkpt lat="47.79238" lon="2.20517">
        <ele>110</ele>
        <time>2015-12-10T07:14:22.000Z</time>
      </trkpt>
      <trkpt lat="47.79253" lon="2.20499">
        <ele>110</ele>
        <time>2015-12-10T07:14:27.000Z</time>
      </trkpt>
      <trkpt lat="47.79298" lon="2.20446">
        <ele>111</ele>
        <time>2015-12-10T07:14:39.000Z</time>
      </trkpt>
      <trkpt lat="47.79345" lon="2.20395">
        <ele>110</ele>
        <time>2015-12-10T07:14:51.000Z</time>
      </trkpt>
      <trkpt lat="47.7939" lon="2.20344">
        <ele>110</ele>
        <time>2015-12-10T07:15:03.000Z</time>
      </trkpt>
      <trkpt lat="47.79434" lon="2.20295">
        <ele>109.40000152588</ele>
        <time>2015-12-10T07:15:15.000Z</time>
      </trkpt>
      <trkpt lat="47.79439" lon="2.20285">
        <ele>109.19999694824</ele>
        <time>2015-12-10T07:15:17.000Z</time>
      </trkpt>
      <trkpt lat="47.7943" lon="2.20257">
        <ele>109</ele>
        <time>2015-12-10T07:15:22.000Z</time>
      </trkpt>
      <trkpt lat="47.79389" lon="2.20205">
        <ele>109</ele>
        <time>2015-12-10T07:15:34.000Z</time>
      </trkpt>
      <trkpt lat="47.79368" lon="2.20179">
        <ele>109</ele>
        <time>2015-12-10T07:15:40.000Z</time>
      </trkpt>
      <trkpt lat="47.79359" lon="2.20149">
        <ele>109.19999694824</ele>
        <time>2015-12-10T07:15:45.000Z</time>
      </trkpt>
      <trkpt lat="47.79348" lon="2.2007">
        <ele>110</ele>
        <time>2015-12-10T07:15:57.000Z</time>
      </trkpt>
      <trkpt lat="47.79336" lon="2.19992">
        <ele>111</ele>
        <time>2015-12-10T07:16:09.000Z</time>
      </trkpt>
      <trkpt lat="47.79323" lon="2.19907">
        <ele>110.19999694824</ele>
        <time>2015-12-10T07:16:22.000Z</time>
      </trkpt>
      <trkpt lat="47.79314" lon="2.19825">
        <ele>110.40000152588</ele>
        <time>2015-12-10T07:16:38.000Z</time>
      </trkpt>
      <trkpt lat="47.79309" lon="2.19745">
        <ele>111.40000152588</ele>
        <time>2015-12-10T07:16:50.000Z</time>
      </trkpt>
      <trkpt lat="47.79304" lon="2.19665">
        <ele>111</ele>
        <time>2015-12-10T07:17:02.000Z</time>
      </trkpt>
      <trkpt lat="47.79301" lon="2.19621">
        <ele>111</ele>
        <time>2015-12-10T07:17:10.000Z</time>
      </trkpt>
      <trkpt lat="47.79311" lon="2.19568">
        <ele>110.40000152588</ele>
        <time>2015-12-10T07:17:18.000Z</time>
      </trkpt>
      <trkpt lat="47.79333" lon="2.19515">
        <ele>110.80000305176</ele>
        <time>2015-12-10T07:17:27.000Z</time>
      </trkpt>
      <trkpt lat="47.79363" lon="2.19444">
        <ele>111.40000152588</ele>
        <time>2015-12-10T07:17:39.000Z</time>
      </trkpt>
      <trkpt lat="47.79394" lon="2.19371">
        <ele>111.19999694824</ele>
        <time>2015-12-10T07:17:51.000Z</time>
      </trkpt>
      <trkpt lat="47.79419" lon="2.19299">
        <ele>109</ele>
        <time>2015-12-10T07:18:04.000Z</time>
      </trkpt>
      <trkpt lat="47.79423" lon="2.19293">
        <ele>109</ele>
        <time>2015-12-10T07:18:06.000Z</time>
      </trkpt>
      <trkpt lat="47.79444" lon="2.19264">
        <ele>109</ele>
        <time>2015-12-10T07:18:17.000Z</time>
      </trkpt>
      <trkpt lat="47.7946" lon="2.19267">
        <ele>109.19999694824</ele>
        <time>2015-12-10T07:18:21.000Z</time>
      </trkpt>
      <trkpt lat="47.79509" lon="2.19278">
        <ele>109.59999847412</ele>
        <time>2015-12-10T07:18:32.000Z</time>
      </trkpt>
      <trkpt lat="47.79555" lon="2.19278">
        <ele>108.80000305176</ele>
        <time>2015-12-10T07:18:43.000Z</time>
      </trkpt>
      <trkpt lat="47.7956" lon="2.19254">
        <ele>109.59999847412</ele>
        <time>2015-12-10T07:18:47.000Z</time>
      </trkpt>
      <trkpt lat="47.79565" lon="2.1922">
        <ele>110.19999694824</ele>
        <time>2015-12-10T07:18:52.000Z</time>
      </trkpt>
      <trkpt lat="47.79588" lon="2.1914">
        <ele>110</ele>
        <time>2015-12-10T07:19:04.000Z</time>
      </trkpt>
      <trkpt lat="47.79605" lon="2.19087">
        <ele>109.59999847412</ele>
        <time>2015-12-10T07:19:12.000Z</time>
      </trkpt>
      <trkpt lat="47.79626" lon="2.19013">
        <ele>109</ele>
        <time>2015-12-10T07:19:23.000Z</time>
      </trkpt>
      <trkpt lat="47.7963" lon="2.19">
        <ele>109</ele>
        <time>2015-12-10T07:19:25.000Z</time>
      </trkpt>
      <trkpt lat="47.79641" lon="2.1896">
        <ele>108.59999847412</ele>
        <time>2015-12-10T07:19:31.000Z</time>
      </trkpt>
      <trkpt lat="47.79667" lon="2.18881">
        <ele>106.80000305176</ele>
        <time>2015-12-10T07:19:42.000Z</time>
      </trkpt>
      <trkpt lat="47.79693" lon="2.18832">
        <ele>105.19999694824</ele>
        <time>2015-12-10T07:19:48.000Z</time>
      </trkpt>
      <trkpt lat="47.79744" lon="2.18802">
        <ele>106</ele>
        <time>2015-12-10T07:19:56.000Z</time>
      </trkpt>
      <trkpt lat="47.79758" lon="2.18776">
        <ele>106</ele>
        <time>2015-12-10T07:20:00.000Z</time>
      </trkpt>
      <trkpt lat="47.79787" lon="2.18702">
        <ele>107.59999847412</ele>
        <time>2015-12-10T07:20:11.000Z</time>
      </trkpt>
      <trkpt lat="47.79816" lon="2.18628">
        <ele>110.19999694824</ele>
        <time>2015-12-10T07:20:23.000Z</time>
      </trkpt>
      <trkpt lat="47.79819" lon="2.18622">
        <ele>110.19999694824</ele>
        <time>2015-12-10T07:20:24.000Z</time>
      </trkpt>
      <trkpt lat="47.79849" lon="2.18554">
        <ele>109.40000152588</ele>
        <time>2015-12-10T07:20:37.000Z</time>
      </trkpt>
      <trkpt lat="47.7988" lon="2.18482">
        <ele>108.40000152588</ele>
        <time>2015-12-10T07:20:49.000Z</time>
      </trkpt>
      <trkpt lat="47.79899" lon="2.18407">
        <ele>108.40000152588</ele>
        <time>2015-12-10T07:21:00.000Z</time>
      </trkpt>
      <trkpt lat="47.79915" lon="2.18337">
        <ele>109</ele>
        <time>2015-12-10T07:21:10.000Z</time>
      </trkpt>
      <trkpt lat="47.79933" lon="2.18258">
        <ele>107.80000305176</ele>
        <time>2015-12-10T07:21:21.000Z</time>
      </trkpt>
      <trkpt lat="47.79943" lon="2.18216">
        <ele>108</ele>
        <time>2015-12-10T07:21:27.000Z</time>
      </trkpt>
      <trkpt lat="47.79959" lon="2.18144">
        <ele>108</ele>
        <time>2015-12-10T07:21:37.000Z</time>
      </trkpt>
      <trkpt lat="47.79976" lon="2.18067">
        <ele>108.80000305176</ele>
        <time>2015-12-10T07:21:46.000Z</time>
      </trkpt>
      <trkpt lat="47.79996" lon="2.17995">
        <ele>106.59999847412</ele>
        <time>2015-12-10T07:21:56.000Z</time>
      </trkpt>
      <trkpt lat="47.80002" lon="2.17967">
        <ele>106.80000305176</ele>
        <time>2015-12-10T07:22:00.000Z</time>
      </trkpt>
      <trkpt lat="47.80017" lon="2.17903">
        <ele>107.80000305176</ele>
        <time>2015-12-10T07:22:09.000Z</time>
      </trkpt>
      <trkpt lat="47.80021" lon="2.17889">
        <ele>108</ele>
        <time>2015-12-10T07:22:11.000Z</time>
      </trkpt>
      <trkpt lat="47.80025" lon="2.17861">
        <ele>108.80000305176</ele>
        <time>2015-12-10T07:22:15.000Z</time>
      </trkpt>
      <trkpt lat="47.80029" lon="2.17848">
        <ele>109</ele>
        <time>2015-12-10T07:22:17.000Z</time>
      </trkpt>
      <trkpt lat="47.80038" lon="2.17825">
        <ele>108</ele>
        <time>2015-12-10T07:22:21.000Z</time>
      </trkpt>
      <trkpt lat="47.80049" lon="2.17793">
        <ele>107.59999847412</ele>
        <time>2015-12-10T07:22:26.000Z</time>
      </trkpt>
      <trkpt lat="47.80059" lon="2.1777">
        <ele>107.59999847412</ele>
        <time>2015-12-10T07:22:30.000Z</time>
      </trkpt>
      <trkpt lat="47.80069" lon="2.17754">
        <ele>107.40000152588</ele>
        <time>2015-12-10T07:22:33.000Z</time>
      </trkpt>
      <trkpt lat="47.80089" lon="2.17728">
        <ele>106.80000305176</ele>
        <time>2015-12-10T07:22:38.000Z</time>
      </trkpt>
      <trkpt lat="47.80108" lon="2.17701">
        <ele>107.40000152588</ele>
        <time>2015-12-10T07:22:43.000Z</time>
      </trkpt>
      <trkpt lat="47.80115" lon="2.17683">
        <ele>107.80000305176</ele>
        <time>2015-12-10T07:22:46.000Z</time>
      </trkpt>
      <trkpt lat="47.80127" lon="2.17649">
        <ele>107.40000152588</ele>
        <time>2015-12-10T07:22:51.000Z</time>
      </trkpt>
      <trkpt lat="47.80131" lon="2.17635">
        <ele>107.19999694824</ele>
        <time>2015-12-10T07:22:53.000Z</time>
      </trkpt>
      <trkpt lat="47.80137" lon="2.17599">
        <ele>107.59999847412</ele>
        <time>2015-12-10T07:22:58.000Z</time>
      </trkpt>
      <trkpt lat="47.8014" lon="2.17579">
        <ele>107.80000305176</ele>
        <time>2015-12-10T07:23:01.000Z</time>
      </trkpt>
      <trkpt lat="47.80144" lon="2.17517">
        <ele>108.40000152588</ele>
        <time>2015-12-10T07:23:09.000Z</time>
      </trkpt>
      <trkpt lat="47.80149" lon="2.17436">
        <ele>106.80000305176</ele>
        <time>2015-12-10T07:23:19.000Z</time>
      </trkpt>
      <trkpt lat="47.8015" lon="2.17427">
        <ele>106.40000152588</ele>
        <time>2015-12-10T07:23:20.000Z</time>
      </trkpt>
      <trkpt lat="47.80161" lon="2.17355">
        <ele>106.19999694824</ele>
        <time>2015-12-10T07:23:29.000Z</time>
      </trkpt>
      <trkpt lat="47.80165" lon="2.17316">
        <ele>106.59999847412</ele>
        <time>2015-12-10T07:23:34.000Z</time>
      </trkpt>
      <trkpt lat="47.80172" lon="2.1727">
        <ele>106.59999847412</ele>
        <time>2015-12-10T07:23:40.000Z</time>
      </trkpt>
      <trkpt lat="47.80187" lon="2.17188">
        <ele>106.80000305176</ele>
        <time>2015-12-10T07:23:50.000Z</time>
      </trkpt>
      <trkpt lat="47.80197" lon="2.17107">
        <ele>107.19999694824</ele>
        <time>2015-12-10T07:24:00.000Z</time>
      </trkpt>
      <trkpt lat="47.80208" lon="2.17042">
        <ele>106.80000305176</ele>
        <time>2015-12-10T07:24:08.000Z</time>
      </trkpt>
      <trkpt lat="47.80216" lon="2.16984">
        <ele>107.40000152588</ele>
        <time>2015-12-10T07:24:15.000Z</time>
      </trkpt>
      <trkpt lat="47.80219" lon="2.16929">
        <ele>107.59999847412</ele>
        <time>2015-12-10T07:24:21.000Z</time>
      </trkpt>
      <trkpt lat="47.80232" lon="2.16905">
        <ele>107.19999694824</ele>
        <time>2015-12-10T07:24:25.000Z</time>
      </trkpt>
      <trkpt lat="47.80237" lon="2.16894">
        <ele>106.80000305176</ele>
        <time>2015-12-10T07:24:27.000Z</time>
      </trkpt>
      <trkpt lat="47.8025" lon="2.16863">
        <ele>107.19999694824</ele>
        <time>2015-12-10T07:24:33.000Z</time>
      </trkpt>
      <trkpt lat="47.80276" lon="2.16787">
        <ele>107</ele>
        <time>2015-12-10T07:24:48.000Z</time>
      </trkpt>
      <trkpt lat="47.80289" lon="2.16749">
        <ele>106.40000152588</ele>
        <time>2015-12-10T07:24:55.000Z</time>
      </trkpt>
      <trkpt lat="47.80293" lon="2.16737">
        <ele>106.40000152588</ele>
        <time>2015-12-10T07:24:57.000Z</time>
      </trkpt>
      <trkpt lat="47.80301" lon="2.16697">
        <ele>106.80000305176</ele>
        <time>2015-12-10T07:25:03.000Z</time>
      </trkpt>
      <trkpt lat="47.80312" lon="2.16653">
        <ele>106.80000305176</ele>
        <time>2015-12-10T07:25:09.000Z</time>
      </trkpt>
      <trkpt lat="47.80316" lon="2.16639">
        <ele>106.40000152588</ele>
        <time>2015-12-10T07:25:11.000Z</time>
      </trkpt>
      <trkpt lat="47.80326" lon="2.16594">
        <ele>107.59999847412</ele>
        <time>2015-12-10T07:25:17.000Z</time>
      </trkpt>
      <trkpt lat="47.80332" lon="2.16572">
        <ele>108.19999694824</ele>
        <time>2015-12-10T07:25:20.000Z</time>
      </trkpt>
      <trkpt lat="47.80334" lon="2.16557">
        <ele>108.59999847412</ele>
        <time>2015-12-10T07:25:22.000Z</time>
      </trkpt>
      <trkpt lat="47.80349" lon="2.1649">
        <ele>109.19999694824</ele>
        <time>2015-12-10T07:25:31.000Z</time>
      </trkpt>
      <trkpt lat="47.80357" lon="2.16443">
        <ele>108.59999847412</ele>
        <time>2015-12-10T07:25:37.000Z</time>
      </trkpt>
      <trkpt lat="47.80366" lon="2.16375">
        <ele>107.80000305176</ele>
        <time>2015-12-10T07:25:46.000Z</time>
      </trkpt>
      <trkpt lat="47.80376" lon="2.16293">
        <ele>107.19999694824</ele>
        <time>2015-12-10T07:26:01.000Z</time>
      </trkpt>
      <trkpt lat="47.80387" lon="2.16222">
        <ele>106.40000152588</ele>
        <time>2015-12-10T07:26:12.000Z</time>
      </trkpt>
      <trkpt lat="47.80393" lon="2.16204">
        <ele>106.59999847412</ele>
        <time>2015-12-10T07:26:15.000Z</time>
      </trkpt>
      <trkpt lat="47.80404" lon="2.16168">
        <ele>107</ele>
        <time>2015-12-10T07:26:21.000Z</time>
      </trkpt>
      <trkpt lat="47.80409" lon="2.16123">
        <ele>107.80000305176</ele>
        <time>2015-12-10T07:26:28.000Z</time>
      </trkpt>
      <trkpt lat="47.8042" lon="2.16039">
        <ele>109</ele>
        <time>2015-12-10T07:26:40.000Z</time>
      </trkpt>
      <trkpt lat="47.80429" lon="2.16004">
        <ele>109.19999694824</ele>
        <time>2015-12-10T07:26:45.000Z</time>
      </trkpt>
      <trkpt lat="47.80436" lon="2.15976">
        <ele>108.80000305176</ele>
        <time>2015-12-10T07:26:49.000Z</time>
      </trkpt>
      <trkpt lat="47.80459" lon="2.15898">
        <ele>107.80000305176</ele>
        <time>2015-12-10T07:26:59.000Z</time>
      </trkpt>
      <trkpt lat="47.80465" lon="2.15861">
        <ele>107</ele>
        <time>2015-12-10T07:27:03.000Z</time>
      </trkpt>
      <trkpt lat="47.8047" lon="2.15844">
        <ele>107</ele>
        <time>2015-12-10T07:27:05.000Z</time>
      </trkpt>
      <trkpt lat="47.805" lon="2.15797">
        <ele>105.40000152588</ele>
        <time>2015-12-10T07:27:13.000Z</time>
      </trkpt>
      <trkpt lat="47.80506" lon="2.1575">
        <ele>105</ele>
        <time>2015-12-10T07:27:19.000Z</time>
      </trkpt>
      <trkpt lat="47.80507" lon="2.15742">
        <ele>105</ele>
        <time>2015-12-10T07:27:20.000Z</time>
      </trkpt>
      <trkpt lat="47.8051" lon="2.15694">
        <ele>104.80000305176</ele>
        <time>2015-12-10T07:27:27.000Z</time>
      </trkpt>
      <trkpt lat="47.80516" lon="2.15657">
        <ele>104.59999847412</ele>
        <time>2015-12-10T07:27:38.000Z</time>
      </trkpt>
      <trkpt lat="47.80504" lon="2.15575">
        <ele>104</ele>
        <time>2015-12-10T07:27:51.000Z</time>
      </trkpt>
      <trkpt lat="47.80498" lon="2.15538">
        <ele>103.80000305176</ele>
        <time>2015-12-10T07:27:57.000Z</time>
      </trkpt>
      <trkpt lat="47.80486" lon="2.15454">
        <ele>104</ele>
        <time>2015-12-10T07:28:09.000Z</time>
      </trkpt>
      <trkpt lat="47.8048" lon="2.15375">
        <ele>103.40000152588</ele>
        <time>2015-12-10T07:28:20.000Z</time>
      </trkpt>
      <trkpt lat="47.80482" lon="2.15293">
        <ele>102.19999694824</ele>
        <time>2015-12-10T07:28:31.000Z</time>
      </trkpt>
      <trkpt lat="47.80485" lon="2.1521">
        <ele>102</ele>
        <time>2015-12-10T07:28:42.000Z</time>
      </trkpt>
      <trkpt lat="47.80488" lon="2.15128">
        <ele>102</ele>
        <time>2015-12-10T07:28:53.000Z</time>
      </trkpt>
      <trkpt lat="47.80491" lon="2.1504">
        <ele>101.59999847412</ele>
        <time>2015-12-10T07:29:05.000Z</time>
      </trkpt>
      <trkpt lat="47.80495" lon="2.1496">
        <ele>101.59999847412</ele>
        <time>2015-12-10T07:29:16.000Z</time>
      </trkpt>
      <trkpt lat="47.80498" lon="2.1491">
        <ele>102</ele>
        <time>2015-12-10T07:29:24.000Z</time>
      </trkpt>
      <trkpt lat="47.80504" lon="2.14822">
        <ele>102</ele>
        <time>2015-12-10T07:29:36.000Z</time>
      </trkpt>
      <trkpt lat="47.8051" lon="2.14737">
        <ele>100.19999694824</ele>
        <time>2015-12-10T07:29:47.000Z</time>
      </trkpt>
      <trkpt lat="47.80518" lon="2.14655">
        <ele>101.19999694824</ele>
        <time>2015-12-10T07:29:58.000Z</time>
      </trkpt>
      <trkpt lat="47.80526" lon="2.1457">
        <ele>101.80000305176</ele>
        <time>2015-12-10T07:30:09.000Z</time>
      </trkpt>
      <trkpt lat="47.80536" lon="2.14488">
        <ele>102</ele>
        <time>2015-12-10T07:30:20.000Z</time>
      </trkpt>
      <trkpt lat="47.80545" lon="2.14408">
        <ele>102</ele>
        <time>2015-12-10T07:30:31.000Z</time>
      </trkpt>
      <trkpt lat="47.80551" lon="2.14328">
        <ele>101.40000152588</ele>
        <time>2015-12-10T07:30:42.000Z</time>
      </trkpt>
      <trkpt lat="47.80549" lon="2.14309">
        <ele>101.19999694824</ele>
        <time>2015-12-10T07:30:45.000Z</time>
      </trkpt>
      <trkpt lat="47.80502" lon="2.1426">
        <ele>101.19999694824</ele>
        <time>2015-12-10T07:30:57.000Z</time>
      </trkpt>
      <trkpt lat="47.80489" lon="2.14247">
        <ele>101.40000152588</ele>
        <time>2015-12-10T07:31:00.000Z</time>
      </trkpt>
      <trkpt lat="47.80443" lon="2.142">
        <ele>102</ele>
        <time>2015-12-10T07:31:11.000Z</time>
      </trkpt>
      <trkpt lat="47.80435" lon="2.14193">
        <ele>102</ele>
        <time>2015-12-10T07:31:13.000Z</time>
      </trkpt>
      <trkpt lat="47.80389" lon="2.14147">
        <ele>103.19999694824</ele>
        <time>2015-12-10T07:31:26.000Z</time>
      </trkpt>
      <trkpt lat="47.80345" lon="2.14113">
        <ele>105</ele>
        <time>2015-12-10T07:31:39.000Z</time>
      </trkpt>
      <trkpt lat="47.80363" lon="2.14089">
        <ele>105.19999694824</ele>
        <time>2015-12-10T07:31:46.000Z</time>
      </trkpt>
      <trkpt lat="47.80375" lon="2.14079">
        <ele>105.40000152588</ele>
        <time>2015-12-10T07:31:49.000Z</time>
      </trkpt>
      <trkpt lat="47.80382" lon="2.14071">
        <ele>105.59999847412</ele>
        <time>2015-12-10T07:31:51.000Z</time>
      </trkpt>
      <trkpt lat="47.8039" lon="2.14046">
        <ele>105.80000305176</ele>
        <time>2015-12-10T07:31:55.000Z</time>
      </trkpt>
      <trkpt lat="47.80404" lon="2.13967">
        <ele>105.19999694824</ele>
        <time>2015-12-10T07:32:06.000Z</time>
      </trkpt>
      <trkpt lat="47.8043" lon="2.13895">
        <ele>105</ele>
        <time>2015-12-10T07:32:17.000Z</time>
      </trkpt>
      <trkpt lat="47.80451" lon="2.13818">
        <ele>105.40000152588</ele>
        <time>2015-12-10T07:32:29.000Z</time>
      </trkpt>
      <trkpt lat="47.80469" lon="2.13741">
        <ele>104.19999694824</ele>
        <time>2015-12-10T07:32:40.000Z</time>
      </trkpt>
      <trkpt lat="47.80484" lon="2.1366">
        <ele>105.80000305176</ele>
        <time>2015-12-10T07:32:51.000Z</time>
      </trkpt>
      <trkpt lat="47.80487" lon="2.13581">
        <ele>106</ele>
        <time>2015-12-10T07:33:02.000Z</time>
      </trkpt>
      <trkpt lat="47.80494" lon="2.13505">
        <ele>105.40000152588</ele>
        <time>2015-12-10T07:33:12.000Z</time>
      </trkpt>
      <trkpt lat="47.80476" lon="2.13493">
        <ele>105.59999847412</ele>
        <time>2015-12-10T07:33:17.000Z</time>
      </trkpt>
      <trkpt lat="47.80433" lon="2.13494">
        <ele>106.80000305176</ele>
        <time>2015-12-10T07:33:27.000Z</time>
      </trkpt>
      <trkpt lat="47.80411" lon="2.1349">
        <ele>107</ele>
        <time>2015-12-10T07:33:33.000Z</time>
      </trkpt>
      <trkpt lat="47.80406" lon="2.13504">
        <ele>107</ele>
        <time>2015-12-10T07:33:42.000Z</time>
      </trkpt>
      <trkpt lat="47.80406" lon="2.13504">
        <ele>107</ele>
        <time>2015-12-10T07:33:43.000Z</time>
      </trkpt>
      <trkpt lat="47.80404" lon="2.13492">
        <ele>107.19999694824</ele>
        <time>2015-12-10T07:54:16.000Z</time>
      </trkpt>
      <trkpt lat="47.80395" lon="2.13488">
        <ele>107.19999694824</ele>
        <time>2015-12-10T07:54:20.000Z</time>
      </trkpt>
      <trkpt lat="47.80345" lon="2.13455">
        <ele>107</ele>
        <time>2015-12-10T07:54:34.000Z</time>
      </trkpt>
      <trkpt lat="47.80295" lon="2.13415">
        <ele>106.59999847412</ele>
        <time>2015-12-10T07:54:47.000Z</time>
      </trkpt>
      <trkpt lat="47.80245" lon="2.13373">
        <ele>107.19999694824</ele>
        <time>2015-12-10T07:55:01.000Z</time>
      </trkpt>
      <trkpt lat="47.80231" lon="2.13357">
        <ele>107.19999694824</ele>
        <time>2015-12-10T07:55:08.000Z</time>
      </trkpt>
      <trkpt lat="47.80199" lon="2.13395">
        <ele>108.19999694824</ele>
        <time>2015-12-10T07:55:19.000Z</time>
      </trkpt>
      <trkpt lat="47.80163" lon="2.13458">
        <ele>108.59999847412</ele>
        <time>2015-12-10T07:55:31.000Z</time>
      </trkpt>
      <trkpt lat="47.80128" lon="2.13511">
        <ele>109.19999694824</ele>
        <time>2015-12-10T07:55:43.000Z</time>
      </trkpt>
      <trkpt lat="47.80097" lon="2.13523">
        <ele>110.19999694824</ele>
        <time>2015-12-10T07:55:51.000Z</time>
      </trkpt>
      <trkpt lat="47.80079" lon="2.13588">
        <ele>111.19999694824</ele>
        <time>2015-12-10T07:56:06.000Z</time>
      </trkpt>
      <trkpt lat="47.80076" lon="2.13673">
        <ele>111</ele>
        <time>2015-12-10T07:56:15.000Z</time>
      </trkpt>
      <trkpt lat="47.8007" lon="2.13754">
        <ele>109.80000305176</ele>
        <time>2015-12-10T07:56:24.000Z</time>
      </trkpt>
      <trkpt lat="47.80067" lon="2.13836">
        <ele>108.59999847412</ele>
        <time>2015-12-10T07:56:33.000Z</time>
      </trkpt>
      <trkpt lat="47.80066" lon="2.13897">
        <ele>108.40000152588</ele>
        <time>2015-12-10T07:56:40.000Z</time>
      </trkpt>
      <trkpt lat="47.80055" lon="2.13929">
        <ele>108.59999847412</ele>
        <time>2015-12-10T07:56:44.000Z</time>
      </trkpt>
      <trkpt lat="47.80037" lon="2.14008">
        <ele>108.40000152588</ele>
        <time>2015-12-10T07:56:54.000Z</time>
      </trkpt>
      <trkpt lat="47.80016" lon="2.14085">
        <ele>109.80000305176</ele>
        <time>2015-12-10T07:57:04.000Z</time>
      </trkpt>
      <trkpt lat="47.79996" lon="2.14165">
        <ele>108.80000305176</ele>
        <time>2015-12-10T07:57:14.000Z</time>
      </trkpt>
      <trkpt lat="47.79981" lon="2.14248">
        <ele>108.80000305176</ele>
        <time>2015-12-10T07:57:24.000Z</time>
      </trkpt>
      <trkpt lat="47.79967" lon="2.1433">
        <ele>108</ele>
        <time>2015-12-10T07:57:34.000Z</time>
      </trkpt>
      <trkpt lat="47.79952" lon="2.14411">
        <ele>107.40000152588</ele>
        <time>2015-12-10T07:57:44.000Z</time>
      </trkpt>
      <trkpt lat="47.79935" lon="2.14494">
        <ele>108.80000305176</ele>
        <time>2015-12-10T07:57:55.000Z</time>
      </trkpt>
      <trkpt lat="47.79913" lon="2.14569">
        <ele>109.80000305176</ele>
        <time>2015-12-10T07:58:06.000Z</time>
      </trkpt>
      <trkpt lat="47.79904" lon="2.14594">
        <ele>109.59999847412</ele>
        <time>2015-12-10T07:58:10.000Z</time>
      </trkpt>
      <trkpt lat="47.79863" lon="2.14656">
        <ele>109.80000305176</ele>
        <time>2015-12-10T07:58:22.000Z</time>
      </trkpt>
      <trkpt lat="47.79818" lon="2.1471">
        <ele>111.19999694824</ele>
        <time>2015-12-10T07:58:34.000Z</time>
      </trkpt>
      <trkpt lat="47.79773" lon="2.14759">
        <ele>113.80000305176</ele>
        <time>2015-12-10T07:58:46.000Z</time>
      </trkpt>
      <trkpt lat="47.79765" lon="2.14767">
        <ele>114.19999694824</ele>
        <time>2015-12-10T07:58:48.000Z</time>
      </trkpt>
      <trkpt lat="47.79716" lon="2.14813">
        <ele>115.80000305176</ele>
        <time>2015-12-10T07:59:01.000Z</time>
      </trkpt>
      <trkpt lat="47.79706" lon="2.14828">
        <ele>115.59999847412</ele>
        <time>2015-12-10T07:59:04.000Z</time>
      </trkpt>
      <trkpt lat="47.7969" lon="2.14857">
        <ele>115.59999847412</ele>
        <time>2015-12-10T07:59:09.000Z</time>
      </trkpt>
      <trkpt lat="47.79683" lon="2.14871">
        <ele>115</ele>
        <time>2015-12-10T07:59:11.000Z</time>
      </trkpt>
      <trkpt lat="47.79652" lon="2.1494">
        <ele>113.19999694824</ele>
        <time>2015-12-10T07:59:21.000Z</time>
      </trkpt>
      <trkpt lat="47.79602" lon="2.14974">
        <ele>115</ele>
        <time>2015-12-10T07:59:31.000Z</time>
      </trkpt>
      <trkpt lat="47.79598" lon="2.14976">
        <ele>115.19999694824</ele>
        <time>2015-12-10T07:59:32.000Z</time>
      </trkpt>
      <trkpt lat="47.7955" lon="2.15018">
        <ele>120</ele>
        <time>2015-12-10T07:59:46.000Z</time>
      </trkpt>
      <trkpt lat="47.7951" lon="2.15075">
        <ele>124.40000152588</ele>
        <time>2015-12-10T08:00:03.000Z</time>
      </trkpt>
      <trkpt lat="47.79476" lon="2.15143">
        <ele>123.80000305176</ele>
        <time>2015-12-10T08:00:19.000Z</time>
      </trkpt>
      <trkpt lat="47.79457" lon="2.1519">
        <ele>122.40000152588</ele>
        <time>2015-12-10T08:00:27.000Z</time>
      </trkpt>
      <trkpt lat="47.79443" lon="2.15239">
        <ele>122</ele>
        <time>2015-12-10T08:00:34.000Z</time>
      </trkpt>
      <trkpt lat="47.7941" lon="2.15247">
        <ele>124.19999694824</ele>
        <time>2015-12-10T08:00:43.000Z</time>
      </trkpt>
      <trkpt lat="47.79354" lon="2.15222">
        <ele>126.59999847412</ele>
        <time>2015-12-10T08:00:58.000Z</time>
      </trkpt>
      <trkpt lat="47.79307" lon="2.15179">
        <ele>129</ele>
        <time>2015-12-10T08:01:15.000Z</time>
      </trkpt>
      <trkpt lat="47.79263" lon="2.1513">
        <ele>130</ele>
        <time>2015-12-10T08:01:29.000Z</time>
      </trkpt>
      <trkpt lat="47.79221" lon="2.15078">
        <ele>132.19999694824</ele>
        <time>2015-12-10T08:01:44.000Z</time>
      </trkpt>
      <trkpt lat="47.79175" lon="2.15031">
        <ele>133.80000305176</ele>
        <time>2015-12-10T08:01:59.000Z</time>
      </trkpt>
      <trkpt lat="47.79119" lon="2.15032">
        <ele>135.19999694824</ele>
        <time>2015-12-10T08:02:17.000Z</time>
      </trkpt>
      <trkpt lat="47.79084" lon="2.15039">
        <ele>135.19999694824</ele>
        <time>2015-12-10T08:02:26.000Z</time>
      </trkpt>
      <trkpt lat="47.79053" lon="2.15049">
        <ele>135.80000305176</ele>
        <time>2015-12-10T08:02:33.000Z</time>
      </trkpt>
      <trkpt lat="47.79031" lon="2.15055">
        <ele>136.19999694824</ele>
        <time>2015-12-10T08:02:38.000Z</time>
      </trkpt>
      <trkpt lat="47.79005" lon="2.15059">
        <ele>136.60000610352</ele>
        <time>2015-12-10T08:02:44.000Z</time>
      </trkpt>
      <trkpt lat="47.78949" lon="2.15073">
        <ele>135</ele>
        <time>2015-12-10T08:02:57.000Z</time>
      </trkpt>
      <trkpt lat="47.7894" lon="2.15075">
        <ele>134.60000610352</ele>
        <time>2015-12-10T08:02:59.000Z</time>
      </trkpt>
      <trkpt lat="47.78885" lon="2.15088">
        <ele>136.19999694824</ele>
        <time>2015-12-10T08:03:13.000Z</time>
      </trkpt>
      <trkpt lat="47.78865" lon="2.15096">
        <ele>137.60000610352</ele>
        <time>2015-12-10T08:03:17.000Z</time>
      </trkpt>
      <trkpt lat="47.78812" lon="2.15111">
        <ele>141.60000610352</ele>
        <time>2015-12-10T08:03:29.000Z</time>
      </trkpt>
      <trkpt lat="47.7878" lon="2.15122">
        <ele>143</ele>
        <time>2015-12-10T08:03:36.000Z</time>
      </trkpt>
      <trkpt lat="47.78724" lon="2.15135">
        <ele>141.19999694824</ele>
        <time>2015-12-10T08:03:49.000Z</time>
      </trkpt>
      <trkpt lat="47.78696" lon="2.15147">
        <ele>140.60000610352</ele>
        <time>2015-12-10T08:03:55.000Z</time>
      </trkpt>
      <trkpt lat="47.78677" lon="2.15153">
        <ele>140.39999389648</ele>
        <time>2015-12-10T08:03:59.000Z</time>
      </trkpt>
      <trkpt lat="47.78622" lon="2.15155">
        <ele>140</ele>
        <time>2015-12-10T08:04:12.000Z</time>
      </trkpt>
      <trkpt lat="47.78566" lon="2.15157">
        <ele>141.39999389648</ele>
        <time>2015-12-10T08:04:25.000Z</time>
      </trkpt>
      <trkpt lat="47.78535" lon="2.15154">
        <ele>143.60000610352</ele>
        <time>2015-12-10T08:04:33.000Z</time>
      </trkpt>
      <trkpt lat="47.78523" lon="2.15153">
        <ele>144.19999694824</ele>
        <time>2015-12-10T08:04:36.000Z</time>
      </trkpt>
      <trkpt lat="47.78468" lon="2.15157">
        <ele>147</ele>
        <time>2015-12-10T08:04:49.000Z</time>
      </trkpt>
      <trkpt lat="47.78416" lon="2.15153">
        <ele>148.39999389648</ele>
        <time>2015-12-10T08:05:01.000Z</time>
      </trkpt>
      <trkpt lat="47.78363" lon="2.15137">
        <ele>146.19999694824</ele>
        <time>2015-12-10T08:05:13.000Z</time>
      </trkpt>
      <trkpt lat="47.78346" lon="2.15135">
        <ele>145.60000610352</ele>
        <time>2015-12-10T08:05:17.000Z</time>
      </trkpt>
      <trkpt lat="47.7829" lon="2.15121">
        <ele>144.19999694824</ele>
        <time>2015-12-10T08:05:30.000Z</time>
      </trkpt>
      <trkpt lat="47.78236" lon="2.15117">
        <ele>142.60000610352</ele>
        <time>2015-12-10T08:05:41.000Z</time>
      </trkpt>
      <trkpt lat="47.7818" lon="2.15126">
        <ele>141.60000610352</ele>
        <time>2015-12-10T08:05:52.000Z</time>
      </trkpt>
      <trkpt lat="47.78171" lon="2.15129">
        <ele>141.19999694824</ele>
        <time>2015-12-10T08:05:54.000Z</time>
      </trkpt>
      <trkpt lat="47.78138" lon="2.15138">
        <ele>141</ele>
        <time>2015-12-10T08:06:01.000Z</time>
      </trkpt>
      <trkpt lat="47.78086" lon="2.15156">
        <ele>141</ele>
        <time>2015-12-10T08:06:11.000Z</time>
      </trkpt>
      <trkpt lat="47.78068" lon="2.15162">
        <ele>141</ele>
        <time>2015-12-10T08:06:15.000Z</time>
      </trkpt>
      <trkpt lat="47.78046" lon="2.15164">
        <ele>141</ele>
        <time>2015-12-10T08:06:19.000Z</time>
      </trkpt>
      <trkpt lat="47.77996" lon="2.15162">
        <ele>140.60000610352</ele>
        <time>2015-12-10T08:06:28.000Z</time>
      </trkpt>
      <trkpt lat="47.77942" lon="2.15156">
        <ele>138.80000305176</ele>
        <time>2015-12-10T08:06:38.000Z</time>
      </trkpt>
      <trkpt lat="47.77887" lon="2.15152">
        <ele>137.39999389648</ele>
        <time>2015-12-10T08:06:47.000Z</time>
      </trkpt>
      <trkpt lat="47.7783" lon="2.15145">
        <ele>136.39999389648</ele>
        <time>2015-12-10T08:06:56.000Z</time>
      </trkpt>
      <trkpt lat="47.77789" lon="2.15139">
        <ele>136</ele>
        <time>2015-12-10T08:07:03.000Z</time>
      </trkpt>
      <trkpt lat="47.77767" lon="2.15111">
        <ele>134.60000610352</ele>
        <time>2015-12-10T08:07:08.000Z</time>
      </trkpt>
      <trkpt lat="47.77732" lon="2.15049">
        <ele>131.60000610352</ele>
        <time>2015-12-10T08:07:16.000Z</time>
      </trkpt>
      <trkpt lat="47.77707" lon="2.14998">
        <ele>129.60000610352</ele>
        <time>2015-12-10T08:07:22.000Z</time>
      </trkpt>
      <trkpt lat="47.77688" lon="2.1496">
        <ele>128.39999389648</ele>
        <time>2015-12-10T08:07:35.000Z</time>
      </trkpt>
      <trkpt lat="47.77722" lon="2.14893">
        <ele>129.60000610352</ele>
        <time>2015-12-10T08:07:50.000Z</time>
      </trkpt>
      <trkpt lat="47.77746" lon="2.14822">
        <ele>130.80000305176</ele>
        <time>2015-12-10T08:08:03.000Z</time>
      </trkpt>
      <trkpt lat="47.77766" lon="2.14764">
        <ele>129.19999694824</ele>
        <time>2015-12-10T08:08:12.000Z</time>
      </trkpt>
      <trkpt lat="47.77809" lon="2.1471">
        <ele>130.60000610352</ele>
        <time>2015-12-10T08:08:24.000Z</time>
      </trkpt>
      <trkpt lat="47.77858" lon="2.14674">
        <ele>134.39999389648</ele>
        <time>2015-12-10T08:08:40.000Z</time>
      </trkpt>
      <trkpt lat="47.77914" lon="2.14671">
        <ele>138.60000610352</ele>
        <time>2015-12-10T08:09:01.000Z</time>
      </trkpt>
      <trkpt lat="47.77969" lon="2.1467">
        <ele>140.60000610352</ele>
        <time>2015-12-10T08:09:15.000Z</time>
      </trkpt>
      <trkpt lat="47.78002" lon="2.14668">
        <ele>141.80000305176</ele>
        <time>2015-12-10T08:09:22.000Z</time>
      </trkpt>
      <trkpt lat="47.78034" lon="2.14667">
        <ele>142.80000305176</ele>
        <time>2015-12-10T08:09:29.000Z</time>
      </trkpt>
      <trkpt lat="47.78071" lon="2.14658">
        <ele>144.39999389648</ele>
        <time>2015-12-10T08:09:37.000Z</time>
      </trkpt>
      <trkpt lat="47.78112" lon="2.14635">
        <ele>145.39999389648</ele>
        <time>2015-12-10T08:09:46.000Z</time>
      </trkpt>
      <trkpt lat="47.78136" lon="2.14618">
        <ele>145.39999389648</ele>
        <time>2015-12-10T08:09:52.000Z</time>
      </trkpt>
      <trkpt lat="47.78169" lon="2.14588">
        <ele>145</ele>
        <time>2015-12-10T08:10:00.000Z</time>
      </trkpt>
      <trkpt lat="47.78183" lon="2.14577">
        <ele>144</ele>
        <time>2015-12-10T08:10:03.000Z</time>
      </trkpt>
      <trkpt lat="47.78232" lon="2.14534">
        <ele>139.19999694824</ele>
        <time>2015-12-10T08:10:14.000Z</time>
      </trkpt>
      <trkpt lat="47.78271" lon="2.14503">
        <ele>137.19999694824</ele>
        <time>2015-12-10T08:10:21.000Z</time>
      </trkpt>
      <trkpt lat="47.78322" lon="2.14462">
        <ele>135.39999389648</ele>
        <time>2015-12-10T08:10:30.000Z</time>
      </trkpt>
      <trkpt lat="47.78374" lon="2.14424">
        <ele>133.19999694824</ele>
        <time>2015-12-10T08:10:39.000Z</time>
      </trkpt>
      <trkpt lat="47.78427" lon="2.14383">
        <ele>131.19999694824</ele>
        <time>2015-12-10T08:10:48.000Z</time>
      </trkpt>
      <trkpt lat="47.78476" lon="2.14347">
        <ele>132.39999389648</ele>
        <time>2015-12-10T08:10:56.000Z</time>
      </trkpt>
      <trkpt lat="47.78487" lon="2.14338">
        <ele>132.60000610352</ele>
        <time>2015-12-10T08:10:58.000Z</time>
      </trkpt>
      <trkpt lat="47.78496" lon="2.14325">
        <ele>132.80000305176</ele>
        <time>2015-12-10T08:11:00.000Z</time>
      </trkpt>
      <trkpt lat="47.78531" lon="2.1425">
        <ele>130.19999694824</ele>
        <time>2015-12-10T08:11:08.000Z</time>
      </trkpt>
      <trkpt lat="47.78568" lon="2.14175">
        <ele>125.40000152588</ele>
        <time>2015-12-10T08:11:15.000Z</time>
      </trkpt>
      <trkpt lat="47.786" lon="2.14109">
        <ele>123</ele>
        <time>2015-12-10T08:11:21.000Z</time>
      </trkpt>
      <trkpt lat="47.78639" lon="2.14044">
        <ele>120.40000152588</ele>
        <time>2015-12-10T08:11:28.000Z</time>
      </trkpt>
      <trkpt lat="47.78676" lon="2.13983">
        <ele>121.19999694824</ele>
        <time>2015-12-10T08:11:36.000Z</time>
      </trkpt>
      <trkpt lat="47.78691" lon="2.13954">
        <ele>121.40000152588</ele>
        <time>2015-12-10T08:11:40.000Z</time>
      </trkpt>
      <trkpt lat="47.78709" lon="2.13909">
        <ele>122.40000152588</ele>
        <time>2015-12-10T08:11:47.000Z</time>
      </trkpt>
      <trkpt lat="47.78735" lon="2.13833">
        <ele>124.59999847412</ele>
        <time>2015-12-10T08:12:00.000Z</time>
      </trkpt>
      <trkpt lat="47.78757" lon="2.13756">
        <ele>127.59999847412</ele>
        <time>2015-12-10T08:12:14.000Z</time>
      </trkpt>
      <trkpt lat="47.78766" lon="2.13728">
        <ele>128</ele>
        <time>2015-12-10T08:12:19.000Z</time>
      </trkpt>
      <trkpt lat="47.78774" lon="2.13705">
        <ele>127.80000305176</ele>
        <time>2015-12-10T08:12:23.000Z</time>
      </trkpt>
      <trkpt lat="47.78803" lon="2.13637">
        <ele>127</ele>
        <time>2015-12-10T08:12:34.000Z</time>
      </trkpt>
      <trkpt lat="47.78808" lon="2.13624">
        <ele>127</ele>
        <time>2015-12-10T08:12:36.000Z</time>
      </trkpt>
      <trkpt lat="47.78812" lon="2.13594">
        <ele>126.59999847412</ele>
        <time>2015-12-10T08:12:40.000Z</time>
      </trkpt>
      <trkpt lat="47.78815" lon="2.13512">
        <ele>125.40000152588</ele>
        <time>2015-12-10T08:12:51.000Z</time>
      </trkpt>
      <trkpt lat="47.78818" lon="2.13429">
        <ele>124.19999694824</ele>
        <time>2015-12-10T08:13:02.000Z</time>
      </trkpt>
      <trkpt lat="47.78821" lon="2.13348">
        <ele>124.40000152588</ele>
        <time>2015-12-10T08:13:13.000Z</time>
      </trkpt>
      <trkpt lat="47.78823" lon="2.13306">
        <ele>124.59999847412</ele>
        <time>2015-12-10T08:13:19.000Z</time>
      </trkpt>
      <trkpt lat="47.78822" lon="2.13256">
        <ele>125.19999694824</ele>
        <time>2015-12-10T08:13:29.000Z</time>
      </trkpt>
      <trkpt lat="47.78802" lon="2.13253">
        <ele>125.80000305176</ele>
        <time>2015-12-10T08:13:35.000Z</time>
      </trkpt>
      <trkpt lat="47.78744" lon="2.13253">
        <ele>126.80000305176</ele>
        <time>2015-12-10T08:13:47.000Z</time>
      </trkpt>
      <trkpt lat="47.78689" lon="2.13253">
        <ele>126.80000305176</ele>
        <time>2015-12-10T08:13:57.000Z</time>
      </trkpt>
      <trkpt lat="47.7863" lon="2.13253">
        <ele>128</ele>
        <time>2015-12-10T08:14:07.000Z</time>
      </trkpt>
      <trkpt lat="47.78573" lon="2.13248">
        <ele>129.60000610352</ele>
        <time>2015-12-10T08:14:17.000Z</time>
      </trkpt>
      <trkpt lat="47.78514" lon="2.13238">
        <ele>131.80000305176</ele>
        <time>2015-12-10T08:14:28.000Z</time>
      </trkpt>
      <trkpt lat="47.78456" lon="2.13228">
        <ele>133.19999694824</ele>
        <time>2015-12-10T08:14:39.000Z</time>
      </trkpt>
      <trkpt lat="47.78402" lon="2.13219">
        <ele>133</ele>
        <time>2015-12-10T08:14:49.000Z</time>
      </trkpt>
      <trkpt lat="47.78347" lon="2.1321">
        <ele>132.60000610352</ele>
        <time>2015-12-10T08:14:59.000Z</time>
      </trkpt>
      <trkpt lat="47.78292" lon="2.13201">
        <ele>131.80000305176</ele>
        <time>2015-12-10T08:15:09.000Z</time>
      </trkpt>
      <trkpt lat="47.78237" lon="2.13192">
        <ele>131.39999389648</ele>
        <time>2015-12-10T08:15:19.000Z</time>
      </trkpt>
      <trkpt lat="47.78182" lon="2.13183">
        <ele>132.60000610352</ele>
        <time>2015-12-10T08:15:29.000Z</time>
      </trkpt>
      <trkpt lat="47.78126" lon="2.13175">
        <ele>133.39999389648</ele>
        <time>2015-12-10T08:15:39.000Z</time>
      </trkpt>
      <trkpt lat="47.78068" lon="2.13165">
        <ele>134.39999389648</ele>
        <time>2015-12-10T08:15:50.000Z</time>
      </trkpt>
      <trkpt lat="47.78012" lon="2.13156">
        <ele>135.80000305176</ele>
        <time>2015-12-10T08:16:01.000Z</time>
      </trkpt>
      <trkpt lat="47.77953" lon="2.13147">
        <ele>136</ele>
        <time>2015-12-10T08:16:12.000Z</time>
      </trkpt>
      <trkpt lat="47.77898" lon="2.13138">
        <ele>136</ele>
        <time>2015-12-10T08:16:22.000Z</time>
      </trkpt>
      <trkpt lat="47.77843" lon="2.13129">
        <ele>136.60000610352</ele>
        <time>2015-12-10T08:16:32.000Z</time>
      </trkpt>
      <trkpt lat="47.77785" lon="2.13119">
        <ele>141.80000305176</ele>
        <time>2015-12-10T08:16:43.000Z</time>
      </trkpt>
      <trkpt lat="47.7773" lon="2.13109">
        <ele>144.19999694824</ele>
        <time>2015-12-10T08:16:54.000Z</time>
      </trkpt>
      <trkpt lat="47.77673" lon="2.131">
        <ele>142.39999389648</ele>
        <time>2015-12-10T08:17:05.000Z</time>
      </trkpt>
      <trkpt lat="47.77615" lon="2.13093">
        <ele>141.19999694824</ele>
        <time>2015-12-10T08:17:15.000Z</time>
      </trkpt>
      <trkpt lat="47.7756" lon="2.13083">
        <ele>139.19999694824</ele>
        <time>2015-12-10T08:17:24.000Z</time>
      </trkpt>
      <trkpt lat="47.7753" lon="2.13079">
        <ele>138.60000610352</ele>
        <time>2015-12-10T08:17:29.000Z</time>
      </trkpt>
      <trkpt lat="47.77504" lon="2.13064">
        <ele>138</ele>
        <time>2015-12-10T08:17:35.000Z</time>
      </trkpt>
      <trkpt lat="47.77451" lon="2.13045">
        <ele>142.19999694824</ele>
        <time>2015-12-10T08:17:46.000Z</time>
      </trkpt>
      <trkpt lat="47.77442" lon="2.13043">
        <ele>142.80000305176</ele>
        <time>2015-12-10T08:17:48.000Z</time>
      </trkpt>
      <trkpt lat="47.77425" lon="2.13035">
        <ele>144.19999694824</ele>
        <time>2015-12-10T08:17:52.000Z</time>
      </trkpt>
      <trkpt lat="47.7737" lon="2.13008">
        <ele>144.19999694824</ele>
        <time>2015-12-10T08:18:05.000Z</time>
      </trkpt>
      <trkpt lat="47.77318" lon="2.12982">
        <ele>143.39999389648</ele>
        <time>2015-12-10T08:18:17.000Z</time>
      </trkpt>
      <trkpt lat="47.77268" lon="2.12946">
        <ele>142</ele>
        <time>2015-12-10T08:18:28.000Z</time>
      </trkpt>
      <trkpt lat="47.77259" lon="2.12939">
        <ele>141.80000305176</ele>
        <time>2015-12-10T08:18:30.000Z</time>
      </trkpt>
      <trkpt lat="47.7721" lon="2.12902">
        <ele>139.19999694824</ele>
        <time>2015-12-10T08:18:38.000Z</time>
      </trkpt>
      <trkpt lat="47.77158" lon="2.12866">
        <ele>137.19999694824</ele>
        <time>2015-12-10T08:18:47.000Z</time>
      </trkpt>
      <trkpt lat="47.77107" lon="2.1283">
        <ele>137.60000610352</ele>
        <time>2015-12-10T08:18:57.000Z</time>
      </trkpt>
      <trkpt lat="47.77102" lon="2.12826">
        <ele>137.60000610352</ele>
        <time>2015-12-10T08:18:58.000Z</time>
      </trkpt>
      <trkpt lat="47.77085" lon="2.12804">
        <ele>137.80000305176</ele>
        <time>2015-12-10T08:19:02.000Z</time>
      </trkpt>
      <trkpt lat="47.77065" lon="2.12766">
        <ele>138</ele>
        <time>2015-12-10T08:19:08.000Z</time>
      </trkpt>
      <trkpt lat="47.77033" lon="2.12708">
        <ele>139</ele>
        <time>2015-12-10T08:19:17.000Z</time>
      </trkpt>
      <trkpt lat="47.77001" lon="2.12644">
        <ele>140.39999389648</ele>
        <time>2015-12-10T08:19:27.000Z</time>
      </trkpt>
      <trkpt lat="47.76981" lon="2.12605">
        <ele>141.19999694824</ele>
        <time>2015-12-10T08:19:33.000Z</time>
      </trkpt>
      <trkpt lat="47.76949" lon="2.12538">
        <ele>141.39999389648</ele>
        <time>2015-12-10T08:19:43.000Z</time>
      </trkpt>
      <trkpt lat="47.7694" lon="2.12509">
        <ele>141.39999389648</ele>
        <time>2015-12-10T08:19:47.000Z</time>
      </trkpt>
      <trkpt lat="47.76922" lon="2.12431">
        <ele>140.19999694824</ele>
        <time>2015-12-10T08:19:57.000Z</time>
      </trkpt>
      <trkpt lat="47.769" lon="2.12354">
        <ele>137</ele>
        <time>2015-12-10T08:20:06.000Z</time>
      </trkpt>
      <trkpt lat="47.76881" lon="2.12271">
        <ele>135.19999694824</ele>
        <time>2015-12-10T08:20:16.000Z</time>
      </trkpt>
      <trkpt lat="47.76861" lon="2.12192">
        <ele>135.39999389648</ele>
        <time>2015-12-10T08:20:26.000Z</time>
      </trkpt>
      <trkpt lat="47.76854" lon="2.1217">
        <ele>135.80000305176</ele>
        <time>2015-12-10T08:20:29.000Z</time>
      </trkpt>
      <trkpt lat="47.76839" lon="2.12149">
        <ele>135.80000305176</ele>
        <time>2015-12-10T08:20:33.000Z</time>
      </trkpt>
      <trkpt lat="47.76825" lon="2.12134">
        <ele>135.39999389648</ele>
        <time>2015-12-10T08:20:36.000Z</time>
      </trkpt>
      <trkpt lat="47.76806" lon="2.12094">
        <ele>134.39999389648</ele>
        <time>2015-12-10T08:20:42.000Z</time>
      </trkpt>
      <trkpt lat="47.76802" lon="2.12079">
        <ele>134.19999694824</ele>
        <time>2015-12-10T08:20:44.000Z</time>
      </trkpt>
      <trkpt lat="47.76777" lon="2.12007">
        <ele>135.39999389648</ele>
        <time>2015-12-10T08:20:54.000Z</time>
      </trkpt>
      <trkpt lat="47.76752" lon="2.11946">
        <ele>137.19999694824</ele>
        <time>2015-12-10T08:21:03.000Z</time>
      </trkpt>
      <trkpt lat="47.76746" lon="2.11933">
        <ele>137.19999694824</ele>
        <time>2015-12-10T08:21:05.000Z</time>
      </trkpt>
      <trkpt lat="47.76733" lon="2.11907">
        <ele>137.60000610352</ele>
        <time>2015-12-10T08:21:09.000Z</time>
      </trkpt>
      <trkpt lat="47.76703" lon="2.11847">
        <ele>137.39999389648</ele>
        <time>2015-12-10T08:21:18.000Z</time>
      </trkpt>
      <trkpt lat="47.76671" lon="2.11782">
        <ele>137.60000610352</ele>
        <time>2015-12-10T08:21:28.000Z</time>
      </trkpt>
      <trkpt lat="47.76635" lon="2.11711">
        <ele>136.80000305176</ele>
        <time>2015-12-10T08:21:39.000Z</time>
      </trkpt>
      <trkpt lat="47.766" lon="2.11643">
        <ele>135.60000610352</ele>
        <time>2015-12-10T08:21:49.000Z</time>
      </trkpt>
      <trkpt lat="47.76594" lon="2.11629">
        <ele>135.60000610352</ele>
        <time>2015-12-10T08:21:51.000Z</time>
      </trkpt>
      <trkpt lat="47.76578" lon="2.11587">
        <ele>136.60000610352</ele>
        <time>2015-12-10T08:21:57.000Z</time>
      </trkpt>
      <trkpt lat="47.76571" lon="2.11565">
        <ele>137</ele>
        <time>2015-12-10T08:22:00.000Z</time>
      </trkpt>
      <trkpt lat="47.76555" lon="2.11484">
        <ele>138.19999694824</ele>
        <time>2015-12-10T08:22:10.000Z</time>
      </trkpt>
      <trkpt lat="47.76546" lon="2.11442">
        <ele>137.80000305176</ele>
        <time>2015-12-10T08:22:15.000Z</time>
      </trkpt>
      <trkpt lat="47.76532" lon="2.11363">
        <ele>137.39999389648</ele>
        <time>2015-12-10T08:22:24.000Z</time>
      </trkpt>
      <trkpt lat="47.76516" lon="2.11285">
        <ele>135.80000305176</ele>
        <time>2015-12-10T08:22:33.000Z</time>
      </trkpt>
      <trkpt lat="47.76499" lon="2.11207">
        <ele>134.39999389648</ele>
        <time>2015-12-10T08:22:42.000Z</time>
      </trkpt>
      <trkpt lat="47.76482" lon="2.11123">
        <ele>133.60000610352</ele>
        <time>2015-12-10T08:22:52.000Z</time>
      </trkpt>
      <trkpt lat="47.76467" lon="2.11041">
        <ele>133.39999389648</ele>
        <time>2015-12-10T08:23:02.000Z</time>
      </trkpt>
      <trkpt lat="47.76452" lon="2.10958">
        <ele>132</ele>
        <time>2015-12-10T08:23:13.000Z</time>
      </trkpt>
      <trkpt lat="47.76427" lon="2.10937">
        <ele>131.80000305176</ele>
        <time>2015-12-10T08:23:24.000Z</time>
      </trkpt>
      <trkpt lat="47.7638" lon="2.10982">
        <ele>132.39999389648</ele>
        <time>2015-12-10T08:23:38.000Z</time>
      </trkpt>
      <trkpt lat="47.76332" lon="2.11031">
        <ele>132.19999694824</ele>
        <time>2015-12-10T08:23:49.000Z</time>
      </trkpt>
      <trkpt lat="47.76283" lon="2.11083">
        <ele>130</ele>
        <time>2015-12-10T08:23:58.000Z</time>
      </trkpt>
      <trkpt lat="47.76236" lon="2.11133">
        <ele>127.80000305176</ele>
        <time>2015-12-10T08:24:06.000Z</time>
      </trkpt>
      <trkpt lat="47.7619" lon="2.11181">
        <ele>128.80000305176</ele>
        <time>2015-12-10T08:24:14.000Z</time>
      </trkpt>
      <trkpt lat="47.76142" lon="2.11232">
        <ele>129.19999694824</ele>
        <time>2015-12-10T08:24:24.000Z</time>
      </trkpt>
      <trkpt lat="47.761" lon="2.11274">
        <ele>129</ele>
        <time>2015-12-10T08:24:33.000Z</time>
      </trkpt>
      <trkpt lat="47.76079" lon="2.11272">
        <ele>129.39999389648</ele>
        <time>2015-12-10T08:24:37.000Z</time>
      </trkpt>
      <trkpt lat="47.76064" lon="2.11267">
        <ele>130</ele>
        <time>2015-12-10T08:24:40.000Z</time>
      </trkpt>
      <trkpt lat="47.76009" lon="2.11248">
        <ele>132.60000610352</ele>
        <time>2015-12-10T08:24:51.000Z</time>
      </trkpt>
      <trkpt lat="47.76005" lon="2.11246">
        <ele>132.80000305176</ele>
        <time>2015-12-10T08:24:52.000Z</time>
      </trkpt>
      <trkpt lat="47.75948" lon="2.11228">
        <ele>132.19999694824</ele>
        <time>2015-12-10T08:25:02.000Z</time>
      </trkpt>
      <trkpt lat="47.75892" lon="2.11209">
        <ele>131.60000610352</ele>
        <time>2015-12-10T08:25:12.000Z</time>
      </trkpt>
      <trkpt lat="47.75854" lon="2.11197">
        <ele>131.80000305176</ele>
        <time>2015-12-10T08:25:19.000Z</time>
      </trkpt>
      <trkpt lat="47.75798" lon="2.11177">
        <ele>131</ele>
        <time>2015-12-10T08:25:29.000Z</time>
      </trkpt>
      <trkpt lat="47.75742" lon="2.11161">
        <ele>130.39999389648</ele>
        <time>2015-12-10T08:25:39.000Z</time>
      </trkpt>
      <trkpt lat="47.75686" lon="2.11144">
        <ele>132</ele>
        <time>2015-12-10T08:25:49.000Z</time>
      </trkpt>
      <trkpt lat="47.75631" lon="2.11126">
        <ele>132.60000610352</ele>
        <time>2015-12-10T08:25:59.000Z</time>
      </trkpt>
      <trkpt lat="47.75581" lon="2.11109">
        <ele>133.39999389648</ele>
        <time>2015-12-10T08:26:08.000Z</time>
      </trkpt>
      <trkpt lat="47.75528" lon="2.11091">
        <ele>132.39999389648</ele>
        <time>2015-12-10T08:26:18.000Z</time>
      </trkpt>
      <trkpt lat="47.75517" lon="2.11086">
        <ele>132.19999694824</ele>
        <time>2015-12-10T08:26:20.000Z</time>
      </trkpt>
      <trkpt lat="47.75462" lon="2.11069">
        <ele>131.19999694824</ele>
        <time>2015-12-10T08:26:30.000Z</time>
      </trkpt>
      <trkpt lat="47.75408" lon="2.11051">
        <ele>131</ele>
        <time>2015-12-10T08:26:40.000Z</time>
      </trkpt>
      <trkpt lat="47.75362" lon="2.11037">
        <ele>132</ele>
        <time>2015-12-10T08:26:49.000Z</time>
      </trkpt>
      <trkpt lat="47.75307" lon="2.11019">
        <ele>133.39999389648</ele>
        <time>2015-12-10T08:27:00.000Z</time>
      </trkpt>
      <trkpt lat="47.75253" lon="2.11003">
        <ele>135.60000610352</ele>
        <time>2015-12-10T08:27:11.000Z</time>
      </trkpt>
      <trkpt lat="47.75233" lon="2.11043">
        <ele>134.80000305176</ele>
        <time>2015-12-10T08:27:18.000Z</time>
      </trkpt>
      <trkpt lat="47.7523" lon="2.11049">
        <ele>134.60000610352</ele>
        <time>2015-12-10T08:27:19.000Z</time>
      </trkpt>
      <trkpt lat="47.7522" lon="2.11082">
        <ele>133.39999389648</ele>
        <time>2015-12-10T08:27:24.000Z</time>
      </trkpt>
      <trkpt lat="47.75215" lon="2.11102">
        <ele>132.80000305176</ele>
        <time>2015-12-10T08:27:27.000Z</time>
      </trkpt>
      <trkpt lat="47.75214" lon="2.11117">
        <ele>132.60000610352</ele>
        <time>2015-12-10T08:27:29.000Z</time>
      </trkpt>
      <trkpt lat="47.75214" lon="2.11132">
        <ele>132.19999694824</ele>
        <time>2015-12-10T08:27:31.000Z</time>
      </trkpt>
      <trkpt lat="47.75221" lon="2.11171">
        <ele>131.39999389648</ele>
        <time>2015-12-10T08:27:36.000Z</time>
      </trkpt>
      <trkpt lat="47.75223" lon="2.11178">
        <ele>131.39999389648</ele>
        <time>2015-12-10T08:27:37.000Z</time>
      </trkpt>
      <trkpt lat="47.75241" lon="2.11256">
        <ele>131.19999694824</ele>
        <time>2015-12-10T08:27:46.000Z</time>
      </trkpt>
      <trkpt lat="47.75261" lon="2.11331">
        <ele>130.80000305176</ele>
        <time>2015-12-10T08:27:55.000Z</time>
      </trkpt>
      <trkpt lat="47.75275" lon="2.11377">
        <ele>129.60000610352</ele>
        <time>2015-12-10T08:28:01.000Z</time>
      </trkpt>
      <trkpt lat="47.75279" lon="2.11392">
        <ele>129.19999694824</ele>
        <time>2015-12-10T08:28:03.000Z</time>
      </trkpt>
      <trkpt lat="47.75266" lon="2.11429">
        <ele>129</ele>
        <time>2015-12-10T08:28:11.000Z</time>
      </trkpt>
      <trkpt lat="47.75239" lon="2.11438">
        <ele>129.39999389648</ele>
        <time>2015-12-10T08:28:17.000Z</time>
      </trkpt>
      <trkpt lat="47.75197" lon="2.11449">
        <ele>129.39999389648</ele>
        <time>2015-12-10T08:28:26.000Z</time>
      </trkpt>
      <trkpt lat="47.75148" lon="2.11453">
        <ele>130</ele>
        <time>2015-12-10T08:28:36.000Z</time>
      </trkpt>
      <trkpt lat="47.75134" lon="2.11455">
        <ele>130.39999389648</ele>
        <time>2015-12-10T08:28:39.000Z</time>
      </trkpt>
      <trkpt lat="47.75092" lon="2.11459">
        <ele>131</ele>
        <time>2015-12-10T08:28:48.000Z</time>
      </trkpt>
      <trkpt lat="47.75073" lon="2.1146">
        <ele>130.80000305176</ele>
        <time>2015-12-10T08:28:52.000Z</time>
      </trkpt>
      <trkpt lat="47.75059" lon="2.11458">
        <ele>130.60000610352</ele>
        <time>2015-12-10T08:28:55.000Z</time>
      </trkpt>
      <trkpt lat="47.75004" lon="2.11436">
        <ele>129.60000610352</ele>
        <time>2015-12-10T08:29:06.000Z</time>
      </trkpt>
      <trkpt lat="47.7498" lon="2.11424">
        <ele>129.80000305176</ele>
        <time>2015-12-10T08:29:11.000Z</time>
      </trkpt>
      <trkpt lat="47.74971" lon="2.11419">
        <ele>129.80000305176</ele>
        <time>2015-12-10T08:29:13.000Z</time>
      </trkpt>
      <trkpt lat="47.74956" lon="2.11411">
        <ele>130</ele>
        <time>2015-12-10T08:29:16.000Z</time>
      </trkpt>
      <trkpt lat="47.74943" lon="2.11404">
        <ele>130.19999694824</ele>
        <time>2015-12-10T08:29:19.000Z</time>
      </trkpt>
      <trkpt lat="47.74907" lon="2.11385">
        <ele>130.80000305176</ele>
        <time>2015-12-10T08:29:26.000Z</time>
      </trkpt>
      <trkpt lat="47.74854" lon="2.11371">
        <ele>131.39999389648</ele>
        <time>2015-12-10T08:29:35.000Z</time>
      </trkpt>
      <trkpt lat="47.74843" lon="2.11371">
        <ele>131.39999389648</ele>
        <time>2015-12-10T08:29:37.000Z</time>
      </trkpt>
      <trkpt lat="47.74815" lon="2.11373">
        <ele>130.19999694824</ele>
        <time>2015-12-10T08:29:42.000Z</time>
      </trkpt>
      <trkpt lat="47.74756" lon="2.11381">
        <ele>129.60000610352</ele>
        <time>2015-12-10T08:29:52.000Z</time>
      </trkpt>
      <trkpt lat="47.7474" lon="2.11383">
        <ele>129.19999694824</ele>
        <time>2015-12-10T08:29:55.000Z</time>
      </trkpt>
      <trkpt lat="47.74718" lon="2.11389">
        <ele>128.60000610352</ele>
        <time>2015-12-10T08:29:59.000Z</time>
      </trkpt>
      <trkpt lat="47.74696" lon="2.11391">
        <ele>128.19999694824</ele>
        <time>2015-12-10T08:30:03.000Z</time>
      </trkpt>
      <trkpt lat="47.74658" lon="2.11383">
        <ele>128</ele>
        <time>2015-12-10T08:30:10.000Z</time>
      </trkpt>
      <trkpt lat="47.74623" lon="2.11377">
        <ele>129</ele>
        <time>2015-12-10T08:30:17.000Z</time>
      </trkpt>
      <trkpt lat="47.74603" lon="2.11375">
        <ele>129.19999694824</ele>
        <time>2015-12-10T08:30:21.000Z</time>
      </trkpt>
      <trkpt lat="47.74564" lon="2.11369">
        <ele>130</ele>
        <time>2015-12-10T08:30:28.000Z</time>
      </trkpt>
      <trkpt lat="47.74543" lon="2.11365">
        <ele>130.60000610352</ele>
        <time>2015-12-10T08:30:32.000Z</time>
      </trkpt>
      <trkpt lat="47.74488" lon="2.11353">
        <ele>131.39999389648</ele>
        <time>2015-12-10T08:30:43.000Z</time>
      </trkpt>
      <trkpt lat="47.74434" lon="2.11343">
        <ele>131</ele>
        <time>2015-12-10T08:30:53.000Z</time>
      </trkpt>
      <trkpt lat="47.74397" lon="2.11337">
        <ele>130.19999694824</ele>
        <time>2015-12-10T08:31:00.000Z</time>
      </trkpt>
      <trkpt lat="47.74369" lon="2.11354">
        <ele>129.39999389648</ele>
        <time>2015-12-10T08:31:06.000Z</time>
      </trkpt>
      <trkpt lat="47.74365" lon="2.11357">
        <ele>129.39999389648</ele>
        <time>2015-12-10T08:31:07.000Z</time>
      </trkpt>
      <trkpt lat="47.74329" lon="2.11387">
        <ele>129.80000305176</ele>
        <time>2015-12-10T08:31:15.000Z</time>
      </trkpt>
      <trkpt lat="47.74288" lon="2.11444">
        <ele>131.39999389648</ele>
        <time>2015-12-10T08:31:26.000Z</time>
      </trkpt>
      <trkpt lat="47.7425" lon="2.11503">
        <ele>131.60000610352</ele>
        <time>2015-12-10T08:31:37.000Z</time>
      </trkpt>
      <trkpt lat="47.74213" lon="2.11563">
        <ele>128.80000305176</ele>
        <time>2015-12-10T08:31:47.000Z</time>
      </trkpt>
      <trkpt lat="47.74188" lon="2.11592">
        <ele>128.39999389648</ele>
        <time>2015-12-10T08:31:53.000Z</time>
      </trkpt>
      <trkpt lat="47.74168" lon="2.11618">
        <ele>128.39999389648</ele>
        <time>2015-12-10T08:31:58.000Z</time>
      </trkpt>
      <trkpt lat="47.74158" lon="2.11637">
        <ele>128.19999694824</ele>
        <time>2015-12-10T08:32:01.000Z</time>
      </trkpt>
      <trkpt lat="47.74151" lon="2.11657">
        <ele>128</ele>
        <time>2015-12-10T08:32:04.000Z</time>
      </trkpt>
      <trkpt lat="47.74146" lon="2.11678">
        <ele>127.59999847412</ele>
        <time>2015-12-10T08:32:07.000Z</time>
      </trkpt>
      <trkpt lat="47.74135" lon="2.11738">
        <ele>127</ele>
        <time>2015-12-10T08:32:16.000Z</time>
      </trkpt>
      <trkpt lat="47.74102" lon="2.11752">
        <ele>126.40000152588</ele>
        <time>2015-12-10T08:32:25.000Z</time>
      </trkpt>
      <trkpt lat="47.74053" lon="2.11757">
        <ele>126.59999847412</ele>
        <time>2015-12-10T08:32:35.000Z</time>
      </trkpt>
      <trkpt lat="47.74043" lon="2.11754">
        <ele>126.59999847412</ele>
        <time>2015-12-10T08:32:37.000Z</time>
      </trkpt>
      <trkpt lat="47.74018" lon="2.11747">
        <ele>126.80000305176</ele>
        <time>2015-12-10T08:32:42.000Z</time>
      </trkpt>
      <trkpt lat="47.73972" lon="2.11782">
        <ele>126.59999847412</ele>
        <time>2015-12-10T08:32:55.000Z</time>
      </trkpt>
      <trkpt lat="47.73965" lon="2.11804">
        <ele>127.19999694824</ele>
        <time>2015-12-10T08:32:59.000Z</time>
      </trkpt>
      <trkpt lat="47.73967" lon="2.11884">
        <ele>127.80000305176</ele>
        <time>2015-12-10T08:33:13.000Z</time>
      </trkpt>
      <trkpt lat="47.73954" lon="2.11961">
        <ele>127.59999847412</ele>
        <time>2015-12-10T08:33:26.000Z</time>
      </trkpt>
      <trkpt lat="47.73945" lon="2.12045">
        <ele>127.80000305176</ele>
        <time>2015-12-10T08:33:40.000Z</time>
      </trkpt>
      <trkpt lat="47.73942" lon="2.12112">
        <ele>128.60000610352</ele>
        <time>2015-12-10T08:33:48.000Z</time>
      </trkpt>
      <trkpt lat="47.7394" lon="2.12136">
        <ele>129.19999694824</ele>
        <time>2015-12-10T08:33:51.000Z</time>
      </trkpt>
      <trkpt lat="47.73926" lon="2.12175">
        <ele>130.19999694824</ele>
        <time>2015-12-10T08:33:57.000Z</time>
      </trkpt>
      <trkpt lat="47.73921" lon="2.12186">
        <ele>130.39999389648</ele>
        <time>2015-12-10T08:33:59.000Z</time>
      </trkpt>
      <trkpt lat="47.73898" lon="2.12229">
        <ele>130.39999389648</ele>
        <time>2015-12-10T08:34:07.000Z</time>
      </trkpt>
      <trkpt lat="47.73859" lon="2.12295">
        <ele>129.39999389648</ele>
        <time>2015-12-10T08:34:19.000Z</time>
      </trkpt>
      <trkpt lat="47.73848" lon="2.12327">
        <ele>129.39999389648</ele>
        <time>2015-12-10T08:34:24.000Z</time>
      </trkpt>
      <trkpt lat="47.73843" lon="2.12355">
        <ele>128.80000305176</ele>
        <time>2015-12-10T08:34:28.000Z</time>
      </trkpt>
      <trkpt lat="47.73844" lon="2.12382">
        <ele>128.60000610352</ele>
        <time>2015-12-10T08:34:32.000Z</time>
      </trkpt>
      <trkpt lat="47.73843" lon="2.12414">
        <ele>128.19999694824</ele>
        <time>2015-12-10T08:34:37.000Z</time>
      </trkpt>
      <trkpt lat="47.73832" lon="2.12493">
        <ele>128.80000305176</ele>
        <time>2015-12-10T08:34:48.000Z</time>
      </trkpt>
      <trkpt lat="47.73823" lon="2.12577">
        <ele>128.60000610352</ele>
        <time>2015-12-10T08:35:01.000Z</time>
      </trkpt>
      <trkpt lat="47.73822" lon="2.1259">
        <ele>129</ele>
        <time>2015-12-10T08:35:03.000Z</time>
      </trkpt>
      <trkpt lat="47.73809" lon="2.1265">
        <ele>130.19999694824</ele>
        <time>2015-12-10T08:35:12.000Z</time>
      </trkpt>
      <trkpt lat="47.73791" lon="2.12729">
        <ele>128.39999389648</ele>
        <time>2015-12-10T08:35:25.000Z</time>
      </trkpt>
      <trkpt lat="47.73773" lon="2.12811">
        <ele>127.80000305176</ele>
        <time>2015-12-10T08:35:37.000Z</time>
      </trkpt>
      <trkpt lat="47.7376" lon="2.12866">
        <ele>128.19999694824</ele>
        <time>2015-12-10T08:35:45.000Z</time>
      </trkpt>
      <trkpt lat="47.73745" lon="2.12949">
        <ele>129.19999694824</ele>
        <time>2015-12-10T08:35:58.000Z</time>
      </trkpt>
      <trkpt lat="47.73743" lon="2.12968">
        <ele>129.39999389648</ele>
        <time>2015-12-10T08:36:01.000Z</time>
      </trkpt>
      <trkpt lat="47.73732" lon="2.13049">
        <ele>130.19999694824</ele>
        <time>2015-12-10T08:36:14.000Z</time>
      </trkpt>
      <trkpt lat="47.73725" lon="2.13093">
        <ele>130.39999389648</ele>
        <time>2015-12-10T08:36:24.000Z</time>
      </trkpt>
      <trkpt lat="47.73724" lon="2.13098">
        <ele>130.39999389648</ele>
        <time>2015-12-10T08:38:31.000Z</time>
      </trkpt>
      <trkpt lat="47.73717" lon="2.13104">
        <ele>130.19999694824</ele>
        <time>2015-12-10T08:38:35.000Z</time>
      </trkpt>
      <trkpt lat="47.73659" lon="2.13091">
        <ele>130.19999694824</ele>
        <time>2015-12-10T08:38:52.000Z</time>
      </trkpt>
      <trkpt lat="47.73605" lon="2.13071">
        <ele>130.60000610352</ele>
        <time>2015-12-10T08:39:05.000Z</time>
      </trkpt>
      <trkpt lat="47.73552" lon="2.1305">
        <ele>130.39999389648</ele>
        <time>2015-12-10T08:39:17.000Z</time>
      </trkpt>
      <trkpt lat="47.73514" lon="2.13035">
        <ele>130.39999389648</ele>
        <time>2015-12-10T08:39:26.000Z</time>
      </trkpt>
      <trkpt lat="47.73461" lon="2.13014">
        <ele>133.80000305176</ele>
        <time>2015-12-10T08:39:38.000Z</time>
      </trkpt>
      <trkpt lat="47.73405" lon="2.12995">
        <ele>137.60000610352</ele>
        <time>2015-12-10T08:39:51.000Z</time>
      </trkpt>
      <trkpt lat="47.73348" lon="2.12981">
        <ele>139.80000305176</ele>
        <time>2015-12-10T08:40:05.000Z</time>
      </trkpt>
      <trkpt lat="47.73294" lon="2.12965">
        <ele>140.80000305176</ele>
        <time>2015-12-10T08:40:19.000Z</time>
      </trkpt>
      <trkpt lat="47.73242" lon="2.12942">
        <ele>142</ele>
        <time>2015-12-10T08:40:32.000Z</time>
      </trkpt>
      <trkpt lat="47.73208" lon="2.12926">
        <ele>143</ele>
        <time>2015-12-10T08:40:40.000Z</time>
      </trkpt>
      <trkpt lat="47.73186" lon="2.12916">
        <ele>143.60000610352</ele>
        <time>2015-12-10T08:40:45.000Z</time>
      </trkpt>
      <trkpt lat="47.73131" lon="2.12894">
        <ele>145</ele>
        <time>2015-12-10T08:40:58.000Z</time>
      </trkpt>
      <trkpt lat="47.73113" lon="2.12893">
        <ele>145.60000610352</ele>
        <time>2015-12-10T08:41:02.000Z</time>
      </trkpt>
      <trkpt lat="47.73104" lon="2.12895">
        <ele>146</ele>
        <time>2015-12-10T08:41:04.000Z</time>
      </trkpt>
      <trkpt lat="47.73091" lon="2.129">
        <ele>146.60000610352</ele>
        <time>2015-12-10T08:41:07.000Z</time>
      </trkpt>
      <trkpt lat="47.73075" lon="2.12908">
        <ele>146.60000610352</ele>
        <time>2015-12-10T08:41:11.000Z</time>
      </trkpt>
      <trkpt lat="47.73021" lon="2.12933">
        <ele>145.19999694824</ele>
        <time>2015-12-10T08:41:23.000Z</time>
      </trkpt>
      <trkpt lat="47.7297" lon="2.12959">
        <ele>144.39999389648</ele>
        <time>2015-12-10T08:41:34.000Z</time>
      </trkpt>
      <trkpt lat="47.72917" lon="2.12987">
        <ele>144</ele>
        <time>2015-12-10T08:41:45.000Z</time>
      </trkpt>
      <trkpt lat="47.72863" lon="2.13014">
        <ele>142.60000610352</ele>
        <time>2015-12-10T08:41:56.000Z</time>
      </trkpt>
      <trkpt lat="47.72811" lon="2.13039">
        <ele>141.80000305176</ele>
        <time>2015-12-10T08:42:06.000Z</time>
      </trkpt>
      <trkpt lat="47.7276" lon="2.13064">
        <ele>140</ele>
        <time>2015-12-10T08:42:15.000Z</time>
      </trkpt>
      <trkpt lat="47.72708" lon="2.1309">
        <ele>140.19999694824</ele>
        <time>2015-12-10T08:42:24.000Z</time>
      </trkpt>
      <trkpt lat="47.72653" lon="2.13116">
        <ele>140.60000610352</ele>
        <time>2015-12-10T08:42:34.000Z</time>
      </trkpt>
      <trkpt lat="47.726" lon="2.13141">
        <ele>141.60000610352</ele>
        <time>2015-12-10T08:42:44.000Z</time>
      </trkpt>
      <trkpt lat="47.72559" lon="2.1316">
        <ele>140.39999389648</ele>
        <time>2015-12-10T08:42:54.000Z</time>
      </trkpt>
      <trkpt lat="47.72548" lon="2.13138">
        <ele>139.60000610352</ele>
        <time>2015-12-10T08:43:00.000Z</time>
      </trkpt>
      <trkpt lat="47.72538" lon="2.1312">
        <ele>139</ele>
        <time>2015-12-10T08:43:04.000Z</time>
      </trkpt>
      <trkpt lat="47.72521" lon="2.13108">
        <ele>138</ele>
        <time>2015-12-10T08:43:08.000Z</time>
      </trkpt>
      <trkpt lat="47.72513" lon="2.13086">
        <ele>137.60000610352</ele>
        <time>2015-12-10T08:43:12.000Z</time>
      </trkpt>
      <trkpt lat="47.72511" lon="2.1308">
        <ele>137.39999389648</ele>
        <time>2015-12-10T08:43:13.000Z</time>
      </trkpt>
      <trkpt lat="47.72507" lon="2.13055">
        <ele>137.19999694824</ele>
        <time>2015-12-10T08:43:17.000Z</time>
      </trkpt>
      <trkpt lat="47.72486" lon="2.13002">
        <ele>137</ele>
        <time>2015-12-10T08:43:28.000Z</time>
      </trkpt>
      <trkpt lat="47.72433" lon="2.12968">
        <ele>138</ele>
        <time>2015-12-10T08:43:41.000Z</time>
      </trkpt>
      <trkpt lat="47.72395" lon="2.12931">
        <ele>137.80000305176</ele>
        <time>2015-12-10T08:43:52.000Z</time>
      </trkpt>
      <trkpt lat="47.7239" lon="2.1292">
        <ele>137.80000305176</ele>
        <time>2015-12-10T08:43:54.000Z</time>
      </trkpt>
      <trkpt lat="47.72371" lon="2.12846">
        <ele>138.19999694824</ele>
        <time>2015-12-10T08:44:08.000Z</time>
      </trkpt>
      <trkpt lat="47.72366" lon="2.12808">
        <ele>138.19999694824</ele>
        <time>2015-12-10T08:44:16.000Z</time>
      </trkpt>
      <trkpt lat="47.72328" lon="2.12789">
        <ele>137</ele>
        <time>2015-12-10T08:44:26.000Z</time>
      </trkpt>
      <trkpt lat="47.72301" lon="2.12793">
        <ele>135.19999694824</ele>
        <time>2015-12-10T08:44:32.000Z</time>
      </trkpt>
      <trkpt lat="47.72244" lon="2.12779">
        <ele>132.80000305176</ele>
        <time>2015-12-10T08:44:45.000Z</time>
      </trkpt>
      <trkpt lat="47.72205" lon="2.12761">
        <ele>132.39999389648</ele>
        <time>2015-12-10T08:44:55.000Z</time>
      </trkpt>
      <trkpt lat="47.72181" lon="2.12747">
        <ele>132.19999694824</ele>
        <time>2015-12-10T08:45:01.000Z</time>
      </trkpt>
      <trkpt lat="47.72171" lon="2.12743">
        <ele>132</ele>
        <time>2015-12-10T08:45:03.000Z</time>
      </trkpt>
      <trkpt lat="47.72162" lon="2.12739">
        <ele>132.19999694824</ele>
        <time>2015-12-10T08:45:05.000Z</time>
      </trkpt>
      <trkpt lat="47.72139" lon="2.12733">
        <ele>132.19999694824</ele>
        <time>2015-12-10T08:45:10.000Z</time>
      </trkpt>
      <trkpt lat="47.72093" lon="2.12717">
        <ele>132.60000610352</ele>
        <time>2015-12-10T08:45:20.000Z</time>
      </trkpt>
      <trkpt lat="47.72084" lon="2.12713">
        <ele>132.80000305176</ele>
        <time>2015-12-10T08:45:22.000Z</time>
      </trkpt>
      <trkpt lat="47.72036" lon="2.12696">
        <ele>132.60000610352</ele>
        <time>2015-12-10T08:45:33.000Z</time>
      </trkpt>
      <trkpt lat="47.72013" lon="2.12688">
        <ele>132.80000305176</ele>
        <time>2015-12-10T08:45:38.000Z</time>
      </trkpt>
      <trkpt lat="47.71967" lon="2.12676">
        <ele>131.60000610352</ele>
        <time>2015-12-10T08:45:47.000Z</time>
      </trkpt>
      <trkpt lat="47.71912" lon="2.12675">
        <ele>130.60000610352</ele>
        <time>2015-12-10T08:45:59.000Z</time>
      </trkpt>
      <trkpt lat="47.71858" lon="2.12671">
        <ele>130.39999389648</ele>
        <time>2015-12-10T08:46:16.000Z</time>
      </trkpt>
      <trkpt lat="47.71804" lon="2.12665">
        <ele>130.19999694824</ele>
        <time>2015-12-10T08:46:31.000Z</time>
      </trkpt>
      <trkpt lat="47.71748" lon="2.12657">
        <ele>130</ele>
        <time>2015-12-10T08:46:44.000Z</time>
      </trkpt>
      <trkpt lat="47.71694" lon="2.12643">
        <ele>129.80000305176</ele>
        <time>2015-12-10T08:46:57.000Z</time>
      </trkpt>
      <trkpt lat="47.71639" lon="2.12622">
        <ele>129.19999694824</ele>
        <time>2015-12-10T08:47:10.000Z</time>
      </trkpt>
      <trkpt lat="47.7161" lon="2.12619">
        <ele>129</ele>
        <time>2015-12-10T08:47:18.000Z</time>
      </trkpt>
      <trkpt lat="47.71593" lon="2.1262">
        <ele>129</ele>
        <time>2015-12-10T08:47:22.000Z</time>
      </trkpt>
      <trkpt lat="47.71539" lon="2.12618">
        <ele>130</ele>
        <time>2015-12-10T08:47:37.000Z</time>
      </trkpt>
      <trkpt lat="47.71493" lon="2.12616">
        <ele>130.60000610352</ele>
        <time>2015-12-10T08:47:47.000Z</time>
      </trkpt>
      <trkpt lat="47.71484" lon="2.12618">
        <ele>130.80000305176</ele>
        <time>2015-12-10T08:47:49.000Z</time>
      </trkpt>
      <trkpt lat="47.71453" lon="2.12618">
        <ele>130.80000305176</ele>
        <time>2015-12-10T08:47:57.000Z</time>
      </trkpt>
      <trkpt lat="47.71396" lon="2.12618">
        <ele>129.60000610352</ele>
        <time>2015-12-10T08:48:10.000Z</time>
      </trkpt>
      <trkpt lat="47.71355" lon="2.12612">
        <ele>128.39999389648</ele>
        <time>2015-12-10T08:48:20.000Z</time>
      </trkpt>
      <trkpt lat="47.71338" lon="2.12611">
        <ele>128</ele>
        <time>2015-12-10T08:48:24.000Z</time>
      </trkpt>
      <trkpt lat="47.71312" lon="2.12609">
        <ele>128</ele>
        <time>2015-12-10T08:48:30.000Z</time>
      </trkpt>
      <trkpt lat="47.71258" lon="2.12598">
        <ele>127.80000305176</ele>
        <time>2015-12-10T08:48:42.000Z</time>
      </trkpt>
      <trkpt lat="47.71205" lon="2.12582">
        <ele>128.60000610352</ele>
        <time>2015-12-10T08:48:55.000Z</time>
      </trkpt>
      <trkpt lat="47.71148" lon="2.12573">
        <ele>129.19999694824</ele>
        <time>2015-12-10T08:49:09.000Z</time>
      </trkpt>
      <trkpt lat="47.711" lon="2.12557">
        <ele>129.80000305176</ele>
        <time>2015-12-10T08:49:20.000Z</time>
      </trkpt>
      <trkpt lat="47.71081" lon="2.12552">
        <ele>129.60000610352</ele>
        <time>2015-12-10T08:49:24.000Z</time>
      </trkpt>
      <trkpt lat="47.71025" lon="2.12545">
        <ele>127.40000152588</ele>
        <time>2015-12-10T08:49:38.000Z</time>
      </trkpt>
      <trkpt lat="47.70999" lon="2.12546">
        <ele>126.80000305176</ele>
        <time>2015-12-10T08:49:48.000Z</time>
      </trkpt>
      <trkpt lat="47.7099" lon="2.12545">
        <ele>126.59999847412</ele>
        <time>2015-12-10T08:51:42.000Z</time>
      </trkpt>
      <trkpt lat="47.70937" lon="2.12524">
        <ele>124.40000152588</ele>
        <time>2015-12-10T08:52:00.000Z</time>
      </trkpt>
      <trkpt lat="47.70933" lon="2.12521">
        <ele>124.19999694824</ele>
        <time>2015-12-10T08:52:01.000Z</time>
      </trkpt>
      <trkpt lat="47.70877" lon="2.12521">
        <ele>123.40000152588</ele>
        <time>2015-12-10T08:52:12.000Z</time>
      </trkpt>
      <trkpt lat="47.70857" lon="2.1253">
        <ele>123</ele>
        <time>2015-12-10T08:52:16.000Z</time>
      </trkpt>
      <trkpt lat="47.70837" lon="2.12517">
        <ele>122</ele>
        <time>2015-12-10T08:52:20.000Z</time>
      </trkpt>
      <trkpt lat="47.70787" lon="2.12472">
        <ele>122.19999694824</ele>
        <time>2015-12-10T08:52:30.000Z</time>
      </trkpt>
      <trkpt lat="47.70773" lon="2.1246">
        <ele>122.40000152588</ele>
        <time>2015-12-10T08:52:33.000Z</time>
      </trkpt>
      <trkpt lat="47.70749" lon="2.12481">
        <ele>122.19999694824</ele>
        <time>2015-12-10T08:52:39.000Z</time>
      </trkpt>
      <trkpt lat="47.70742" lon="2.12491">
        <ele>122</ele>
        <time>2015-12-10T08:52:41.000Z</time>
      </trkpt>
      <trkpt lat="47.70695" lon="2.12484">
        <ele>121.59999847412</ele>
        <time>2015-12-10T08:52:51.000Z</time>
      </trkpt>
      <trkpt lat="47.70671" lon="2.12466">
        <ele>121.59999847412</ele>
        <time>2015-12-10T08:52:57.000Z</time>
      </trkpt>
      <trkpt lat="47.70654" lon="2.12459">
        <ele>121.80000305176</ele>
        <time>2015-12-10T08:53:01.000Z</time>
      </trkpt>
      <trkpt lat="47.70616" lon="2.12442">
        <ele>122.19999694824</ele>
        <time>2015-12-10T08:53:09.000Z</time>
      </trkpt>
      <trkpt lat="47.70586" lon="2.12411">
        <ele>123</ele>
        <time>2015-12-10T08:53:17.000Z</time>
      </trkpt>
      <trkpt lat="47.70561" lon="2.1239">
        <ele>123.19999694824</ele>
        <time>2015-12-10T08:53:24.000Z</time>
      </trkpt>
      <trkpt lat="47.70511" lon="2.1235">
        <ele>123.40000152588</ele>
        <time>2015-12-10T08:53:37.000Z</time>
      </trkpt>
      <trkpt lat="47.70454" lon="2.12358">
        <ele>122.80000305176</ele>
        <time>2015-12-10T08:53:54.000Z</time>
      </trkpt>
      <trkpt lat="47.70399" lon="2.12367">
        <ele>122.59999847412</ele>
        <time>2015-12-10T08:54:08.000Z</time>
      </trkpt>
      <trkpt lat="47.70355" lon="2.12384">
        <ele>122.40000152588</ele>
        <time>2015-12-10T08:54:17.000Z</time>
      </trkpt>
      <trkpt lat="47.70301" lon="2.12407">
        <ele>122</ele>
        <time>2015-12-10T08:54:31.000Z</time>
      </trkpt>
      <trkpt lat="47.70253" lon="2.1242">
        <ele>122.80000305176</ele>
        <time>2015-12-10T08:54:46.000Z</time>
      </trkpt>
      <trkpt lat="47.70251" lon="2.12395">
        <ele>123.19999694824</ele>
        <time>2015-12-10T08:54:51.000Z</time>
      </trkpt>
      <trkpt lat="47.70252" lon="2.12311">
        <ele>124.80000305176</ele>
        <time>2015-12-10T08:55:06.000Z</time>
      </trkpt>
      <trkpt lat="47.70253" lon="2.12229">
        <ele>123.80000305176</ele>
        <time>2015-12-10T08:55:20.000Z</time>
      </trkpt>
      <trkpt lat="47.70253" lon="2.12202">
        <ele>123.40000152588</ele>
        <time>2015-12-10T08:55:26.000Z</time>
      </trkpt>
      <trkpt lat="47.70272" lon="2.1218">
        <ele>124.40000152588</ele>
        <time>2015-12-10T08:55:35.000Z</time>
      </trkpt>
      <trkpt lat="47.70288" lon="2.1218">
        <ele>125.19999694824</ele>
        <time>2015-12-10T08:55:40.000Z</time>
      </trkpt>
      <trkpt lat="47.70276" lon="2.12158">
        <ele>124.40000152588</ele>
        <time>2015-12-10T08:55:47.000Z</time>
      </trkpt>
      <trkpt lat="47.70232" lon="2.12105">
        <ele>122.40000152588</ele>
        <time>2015-12-10T08:56:01.000Z</time>
      </trkpt>
      <trkpt lat="47.70189" lon="2.12055">
        <ele>121.80000305176</ele>
        <time>2015-12-10T08:56:14.000Z</time>
      </trkpt>
      <trkpt lat="47.70145" lon="2.12004">
        <ele>121.80000305176</ele>
        <time>2015-12-10T08:56:28.000Z</time>
      </trkpt>
      <trkpt lat="47.70099" lon="2.11952">
        <ele>123</ele>
        <time>2015-12-10T08:56:42.000Z</time>
      </trkpt>
      <trkpt lat="47.70089" lon="2.11935">
        <ele>123.40000152588</ele>
        <time>2015-12-10T08:56:48.000Z</time>
      </trkpt>
      <trkpt lat="47.70084" lon="2.11912">
        <ele>124</ele>
        <time>2015-12-10T08:56:53.000Z</time>
      </trkpt>
      <trkpt lat="47.70068" lon="2.11832">
        <ele>124.40000152588</ele>
        <time>2015-12-10T08:57:08.000Z</time>
      </trkpt>
      <trkpt lat="47.70052" lon="2.11753">
        <ele>124.40000152588</ele>
        <time>2015-12-10T08:57:24.000Z</time>
      </trkpt>
      <trkpt lat="47.70035" lon="2.11671">
        <ele>126.19999694824</ele>
        <time>2015-12-10T08:57:39.000Z</time>
      </trkpt>
      <trkpt lat="47.70019" lon="2.11592">
        <ele>127</ele>
        <time>2015-12-10T08:57:54.000Z</time>
      </trkpt>
      <trkpt lat="47.70003" lon="2.11513">
        <ele>127.80000305176</ele>
        <time>2015-12-10T08:58:09.000Z</time>
      </trkpt>
      <trkpt lat="47.69986" lon="2.11434">
        <ele>128</ele>
        <time>2015-12-10T08:58:27.000Z</time>
      </trkpt>
      <trkpt lat="47.69978" lon="2.11402">
        <ele>128.39999389648</ele>
        <time>2015-12-10T08:58:33.000Z</time>
      </trkpt>
      <trkpt lat="47.69975" lon="2.11383">
        <ele>128.60000610352</ele>
        <time>2015-12-10T08:58:37.000Z</time>
      </trkpt>
      <trkpt lat="47.69961" lon="2.11306">
        <ele>129.19999694824</ele>
        <time>2015-12-10T08:58:51.000Z</time>
      </trkpt>
      <trkpt lat="47.6995" lon="2.11254">
        <ele>129.60000610352</ele>
        <time>2015-12-10T08:59:02.000Z</time>
      </trkpt>
      <trkpt lat="47.69947" lon="2.11236">
        <ele>129.80000305176</ele>
        <time>2015-12-10T08:59:06.000Z</time>
      </trkpt>
      <trkpt lat="47.6992" lon="2.11166">
        <ele>130</ele>
        <time>2015-12-10T08:59:23.000Z</time>
      </trkpt>
      <trkpt lat="47.6988" lon="2.11116">
        <ele>130.39999389648</ele>
        <time>2015-12-10T08:59:39.000Z</time>
      </trkpt>
      <trkpt lat="47.69842" lon="2.1105">
        <ele>130.19999694824</ele>
        <time>2015-12-10T08:59:54.000Z</time>
      </trkpt>
      <trkpt lat="47.6981" lon="2.1098">
        <ele>128.39999389648</ele>
        <time>2015-12-10T09:00:07.000Z</time>
      </trkpt>
      <trkpt lat="47.69778" lon="2.10941">
        <ele>127.59999847412</ele>
        <time>2015-12-10T09:00:17.000Z</time>
      </trkpt>
      <trkpt lat="47.69745" lon="2.10925">
        <ele>127</ele>
        <time>2015-12-10T09:00:25.000Z</time>
      </trkpt>
      <trkpt lat="47.69693" lon="2.10904">
        <ele>127</ele>
        <time>2015-12-10T09:00:38.000Z</time>
      </trkpt>
      <trkpt lat="47.6964" lon="2.10883">
        <ele>127.80000305176</ele>
        <time>2015-12-10T09:00:53.000Z</time>
      </trkpt>
      <trkpt lat="47.69586" lon="2.10866">
        <ele>130.80000305176</ele>
        <time>2015-12-10T09:01:06.000Z</time>
      </trkpt>
      <trkpt lat="47.69563" lon="2.10863">
        <ele>130.19999694824</ele>
        <time>2015-12-10T09:01:11.000Z</time>
      </trkpt>
      <trkpt lat="47.69554" lon="2.10862">
        <ele>130</ele>
        <time>2015-12-10T09:01:13.000Z</time>
      </trkpt>
      <trkpt lat="47.695" lon="2.10861">
        <ele>127</ele>
        <time>2015-12-10T09:01:25.000Z</time>
      </trkpt>
      <trkpt lat="47.69445" lon="2.10861">
        <ele>126.40000152588</ele>
        <time>2015-12-10T09:01:39.000Z</time>
      </trkpt>
      <trkpt lat="47.69391" lon="2.10863">
        <ele>126.80000305176</ele>
        <time>2015-12-10T09:01:54.000Z</time>
      </trkpt>
      <trkpt lat="47.69336" lon="2.10862">
        <ele>126.59999847412</ele>
        <time>2015-12-10T09:02:09.000Z</time>
      </trkpt>
      <trkpt lat="47.69281" lon="2.10861">
        <ele>126</ele>
        <time>2015-12-10T09:02:25.000Z</time>
      </trkpt>
      <trkpt lat="47.69224" lon="2.10861">
        <ele>126</ele>
        <time>2015-12-10T09:02:40.000Z</time>
      </trkpt>
      <trkpt lat="47.69167" lon="2.10861">
        <ele>126.40000152588</ele>
        <time>2015-12-10T09:02:55.000Z</time>
      </trkpt>
      <trkpt lat="47.69111" lon="2.10862">
        <ele>126.80000305176</ele>
        <time>2015-12-10T09:03:10.000Z</time>
      </trkpt>
      <trkpt lat="47.69056" lon="2.10863">
        <ele>125.40000152588</ele>
        <time>2015-12-10T09:03:24.000Z</time>
      </trkpt>
      <trkpt lat="47.69002" lon="2.10864">
        <ele>125</ele>
        <time>2015-12-10T09:03:37.000Z</time>
      </trkpt>
      <trkpt lat="47.68944" lon="2.10864">
        <ele>127.80000305176</ele>
        <time>2015-12-10T09:03:51.000Z</time>
      </trkpt>
      <trkpt lat="47.68906" lon="2.1086">
        <ele>129.39999389648</ele>
        <time>2015-12-10T09:04:05.000Z</time>
      </trkpt>
      <trkpt lat="47.68907" lon="2.10842">
        <ele>129.39999389648</ele>
        <time>2015-12-10T09:04:10.000Z</time>
      </trkpt>
      <trkpt lat="47.68916" lon="2.10758">
        <ele>128.19999694824</ele>
        <time>2015-12-10T09:04:27.000Z</time>
      </trkpt>
      <trkpt lat="47.68924" lon="2.10673">
        <ele>127</ele>
        <time>2015-12-10T09:04:41.000Z</time>
      </trkpt>
      <trkpt lat="47.68925" lon="2.10666">
        <ele>126.80000305176</ele>
        <time>2015-12-10T09:04:42.000Z</time>
      </trkpt>
      <trkpt lat="47.68934" lon="2.10583">
        <ele>126.59999847412</ele>
        <time>2015-12-10T09:04:54.000Z</time>
      </trkpt>
      <trkpt lat="47.68943" lon="2.10497">
        <ele>127</ele>
        <time>2015-12-10T09:05:06.000Z</time>
      </trkpt>
      <trkpt lat="47.68946" lon="2.1047">
        <ele>126.80000305176</ele>
        <time>2015-12-10T09:05:10.000Z</time>
      </trkpt>
      <trkpt lat="47.68948" lon="2.10446">
        <ele>126.59999847412</ele>
        <time>2015-12-10T09:05:14.000Z</time>
      </trkpt>
      <trkpt lat="47.6895" lon="2.10391">
        <ele>126.19999694824</ele>
        <time>2015-12-10T09:05:25.000Z</time>
      </trkpt>
      <trkpt lat="47.68893" lon="2.10392">
        <ele>128.39999389648</ele>
        <time>2015-12-10T09:05:44.000Z</time>
      </trkpt>
      <trkpt lat="47.68843" lon="2.10394">
        <ele>129.60000610352</ele>
        <time>2015-12-10T09:05:56.000Z</time>
      </trkpt>
      <trkpt lat="47.68786" lon="2.10395">
        <ele>129.80000305176</ele>
        <time>2015-12-10T09:06:10.000Z</time>
      </trkpt>
      <trkpt lat="47.68728" lon="2.10399">
        <ele>129.39999389648</ele>
        <time>2015-12-10T09:06:23.000Z</time>
      </trkpt>
      <trkpt lat="47.68719" lon="2.10399">
        <ele>129.39999389648</ele>
        <time>2015-12-10T09:06:25.000Z</time>
      </trkpt>
      <trkpt lat="47.68697" lon="2.104">
        <ele>129.60000610352</ele>
        <time>2015-12-10T09:06:30.000Z</time>
      </trkpt>
      <trkpt lat="47.68643" lon="2.10401">
        <ele>130.39999389648</ele>
        <time>2015-12-10T09:06:43.000Z</time>
      </trkpt>
      <trkpt lat="47.68621" lon="2.104">
        <ele>130.80000305176</ele>
        <time>2015-12-10T09:06:48.000Z</time>
      </trkpt>
      <trkpt lat="47.68563" lon="2.10402">
        <ele>131.19999694824</ele>
        <time>2015-12-10T09:07:02.000Z</time>
      </trkpt>
      <trkpt lat="47.68506" lon="2.10386">
        <ele>131.60000610352</ele>
        <time>2015-12-10T09:07:15.000Z</time>
      </trkpt>
      <trkpt lat="47.68475" lon="2.10366">
        <ele>132.19999694824</ele>
        <time>2015-12-10T09:07:22.000Z</time>
      </trkpt>
      <trkpt lat="47.68437" lon="2.10342">
        <ele>132.80000305176</ele>
        <time>2015-12-10T09:07:31.000Z</time>
      </trkpt>
      <trkpt lat="47.68404" lon="2.10322">
        <ele>133</ele>
        <time>2015-12-10T09:07:39.000Z</time>
      </trkpt>
      <trkpt lat="47.6838" lon="2.10307">
        <ele>132.80000305176</ele>
        <time>2015-12-10T09:07:45.000Z</time>
      </trkpt>
      <trkpt lat="47.68356" lon="2.10292">
        <ele>132.60000610352</ele>
        <time>2015-12-10T09:07:51.000Z</time>
      </trkpt>
      <trkpt lat="47.68307" lon="2.10253">
        <ele>132.80000305176</ele>
        <time>2015-12-10T09:08:03.000Z</time>
      </trkpt>
      <trkpt lat="47.68257" lon="2.10208">
        <ele>132.80000305176</ele>
        <time>2015-12-10T09:08:15.000Z</time>
      </trkpt>
      <trkpt lat="47.68232" lon="2.10188">
        <ele>133</ele>
        <time>2015-12-10T09:08:21.000Z</time>
      </trkpt>
      <trkpt lat="47.68181" lon="2.10147">
        <ele>133.39999389648</ele>
        <time>2015-12-10T09:08:33.000Z</time>
      </trkpt>
      <trkpt lat="47.68173" lon="2.1014">
        <ele>133.39999389648</ele>
        <time>2015-12-10T09:08:35.000Z</time>
      </trkpt>
      <trkpt lat="47.68123" lon="2.101">
        <ele>135.19999694824</ele>
        <time>2015-12-10T09:08:47.000Z</time>
      </trkpt>
      <trkpt lat="47.68105" lon="2.10088">
        <ele>136</ele>
        <time>2015-12-10T09:08:51.000Z</time>
      </trkpt>
      <trkpt lat="47.68056" lon="2.10051">
        <ele>136.19999694824</ele>
        <time>2015-12-10T09:09:03.000Z</time>
      </trkpt>
      <trkpt lat="47.68007" lon="2.10012">
        <ele>135.19999694824</ele>
        <time>2015-12-10T09:09:15.000Z</time>
      </trkpt>
      <trkpt lat="47.67956" lon="2.09973">
        <ele>135.60000610352</ele>
        <time>2015-12-10T09:09:27.000Z</time>
      </trkpt>
      <trkpt lat="47.67936" lon="2.09959">
        <ele>136</ele>
        <time>2015-12-10T09:09:32.000Z</time>
      </trkpt>
      <trkpt lat="47.67923" lon="2.0995">
        <ele>136.19999694824</ele>
        <time>2015-12-10T09:09:35.000Z</time>
      </trkpt>
      <trkpt lat="47.67871" lon="2.09916">
        <ele>134.60000610352</ele>
        <time>2015-12-10T09:09:47.000Z</time>
      </trkpt>
      <trkpt lat="47.67836" lon="2.09894">
        <ele>133.19999694824</ele>
        <time>2015-12-10T09:09:55.000Z</time>
      </trkpt>
      <trkpt lat="47.67813" lon="2.09881">
        <ele>133.39999389648</ele>
        <time>2015-12-10T09:10:00.000Z</time>
      </trkpt>
      <trkpt lat="47.67809" lon="2.09879">
        <ele>133.60000610352</ele>
        <time>2015-12-10T09:10:01.000Z</time>
      </trkpt>
      <trkpt lat="47.67755" lon="2.09851">
        <ele>133.60000610352</ele>
        <time>2015-12-10T09:10:15.000Z</time>
      </trkpt>
      <trkpt lat="47.67704" lon="2.09821">
        <ele>132.80000305176</ele>
        <time>2015-12-10T09:10:30.000Z</time>
      </trkpt>
      <trkpt lat="47.67652" lon="2.09795">
        <ele>131.60000610352</ele>
        <time>2015-12-10T09:10:44.000Z</time>
      </trkpt>
      <trkpt lat="47.67607" lon="2.09754">
        <ele>130.19999694824</ele>
        <time>2015-12-10T09:10:56.000Z</time>
      </trkpt>
      <trkpt lat="47.67588" lon="2.09676">
        <ele>128.39999389648</ele>
        <time>2015-12-10T09:11:08.000Z</time>
      </trkpt>
      <trkpt lat="47.67576" lon="2.09597">
        <ele>128</ele>
        <time>2015-12-10T09:11:19.000Z</time>
      </trkpt>
      <trkpt lat="47.67573" lon="2.09567">
        <ele>128.39999389648</ele>
        <time>2015-12-10T09:11:25.000Z</time>
      </trkpt>
      <trkpt lat="47.67564" lon="2.09481">
        <ele>130.60000610352</ele>
        <time>2015-12-10T09:11:38.000Z</time>
      </trkpt>
      <trkpt lat="47.67556" lon="2.09398">
        <ele>132.19999694824</ele>
        <time>2015-12-10T09:11:50.000Z</time>
      </trkpt>
      <trkpt lat="47.67554" lon="2.09384">
        <ele>132</ele>
        <time>2015-12-10T09:11:52.000Z</time>
      </trkpt>
      <trkpt lat="47.67541" lon="2.09311">
        <ele>131.19999694824</ele>
        <time>2015-12-10T09:12:02.000Z</time>
      </trkpt>
      <trkpt lat="47.6751" lon="2.09283">
        <ele>130.80000305176</ele>
        <time>2015-12-10T09:12:10.000Z</time>
      </trkpt>
      <trkpt lat="47.67454" lon="2.09269">
        <ele>129.39999389648</ele>
        <time>2015-12-10T09:12:22.000Z</time>
      </trkpt>
      <trkpt lat="47.67414" lon="2.09277">
        <ele>128.39999389648</ele>
        <time>2015-12-10T09:12:31.000Z</time>
      </trkpt>
      <trkpt lat="47.67397" lon="2.09284">
        <ele>128.19999694824</ele>
        <time>2015-12-10T09:12:35.000Z</time>
      </trkpt>
      <trkpt lat="47.67363" lon="2.09303">
        <ele>127.19999694824</ele>
        <time>2015-12-10T09:12:43.000Z</time>
      </trkpt>
      <trkpt lat="47.67312" lon="2.09336">
        <ele>126.19999694824</ele>
        <time>2015-12-10T09:12:57.000Z</time>
      </trkpt>
      <trkpt lat="47.67263" lon="2.09369">
        <ele>127.19999694824</ele>
        <time>2015-12-10T09:13:13.000Z</time>
      </trkpt>
      <trkpt lat="47.67214" lon="2.09406">
        <ele>129.19999694824</ele>
        <time>2015-12-10T09:13:34.000Z</time>
      </trkpt>
      <trkpt lat="47.67159" lon="2.09433">
        <ele>130.39999389648</ele>
        <time>2015-12-10T09:13:51.000Z</time>
      </trkpt>
      <trkpt lat="47.67106" lon="2.09462">
        <ele>131</ele>
        <time>2015-12-10T09:14:05.000Z</time>
      </trkpt>
      <trkpt lat="47.67054" lon="2.09486">
        <ele>131.19999694824</ele>
        <time>2015-12-10T09:14:18.000Z</time>
      </trkpt>
      <trkpt lat="47.67001" lon="2.09506">
        <ele>132.19999694824</ele>
        <time>2015-12-10T09:14:30.000Z</time>
      </trkpt>
      <trkpt lat="47.66952" lon="2.0952">
        <ele>133</ele>
        <time>2015-12-10T09:14:41.000Z</time>
      </trkpt>
      <trkpt lat="47.66897" lon="2.09536">
        <ele>132</ele>
        <time>2015-12-10T09:14:53.000Z</time>
      </trkpt>
      <trkpt lat="47.66844" lon="2.09551">
        <ele>132.19999694824</ele>
        <time>2015-12-10T09:15:05.000Z</time>
      </trkpt>
      <trkpt lat="47.66789" lon="2.09567">
        <ele>133</ele>
        <time>2015-12-10T09:15:17.000Z</time>
      </trkpt>
      <trkpt lat="47.66737" lon="2.09582">
        <ele>134.39999389648</ele>
        <time>2015-12-10T09:15:28.000Z</time>
      </trkpt>
      <trkpt lat="47.6668" lon="2.09599">
        <ele>135.60000610352</ele>
        <time>2015-12-10T09:15:41.000Z</time>
      </trkpt>
      <trkpt lat="47.66663" lon="2.09603">
        <ele>135.39999389648</ele>
        <time>2015-12-10T09:15:45.000Z</time>
      </trkpt>
      <trkpt lat="47.66606" lon="2.09619">
        <ele>135.60000610352</ele>
        <time>2015-12-10T09:15:58.000Z</time>
      </trkpt>
      <trkpt lat="47.6657" lon="2.0963">
        <ele>136.80000305176</ele>
        <time>2015-12-10T09:16:09.000Z</time>
      </trkpt>
      <trkpt lat="47.6657" lon="2.0963">
        <ele>136.80000305176</ele>
        <time>2015-12-10T09:16:10.000Z</time>
      </trkpt>
      <trkpt lat="47.66567" lon="2.09632">
        <ele>136.80000305176</ele>
        <time>2015-12-10T09:16:19.000Z</time>
      </trkpt>
      <trkpt lat="47.66514" lon="2.09651">
        <ele>136.39999389648</ele>
        <time>2015-12-10T09:16:37.000Z</time>
      </trkpt>
      <trkpt lat="47.66474" lon="2.09661">
        <ele>137.39999389648</ele>
        <time>2015-12-10T09:16:48.000Z</time>
      </trkpt>
      <trkpt lat="47.66419" lon="2.09677">
        <ele>139</ele>
        <time>2015-12-10T09:17:01.000Z</time>
      </trkpt>
      <trkpt lat="47.66363" lon="2.09694">
        <ele>138.80000305176</ele>
        <time>2015-12-10T09:17:14.000Z</time>
      </trkpt>
      <trkpt lat="47.66354" lon="2.09697">
        <ele>139</ele>
        <time>2015-12-10T09:17:16.000Z</time>
      </trkpt>
      <trkpt lat="47.663" lon="2.0971">
        <ele>138.80000305176</ele>
        <time>2015-12-10T09:17:27.000Z</time>
      </trkpt>
      <trkpt lat="47.66282" lon="2.09726">
        <ele>138.39999389648</ele>
        <time>2015-12-10T09:17:32.000Z</time>
      </trkpt>
      <trkpt lat="47.66243" lon="2.09764">
        <ele>138.60000610352</ele>
        <time>2015-12-10T09:17:42.000Z</time>
      </trkpt>
      <trkpt lat="47.66221" lon="2.09783">
        <ele>139</ele>
        <time>2015-12-10T09:17:47.000Z</time>
      </trkpt>
      <trkpt lat="47.66205" lon="2.09799">
        <ele>139.19999694824</ele>
        <time>2015-12-10T09:17:51.000Z</time>
      </trkpt>
      <trkpt lat="47.66156" lon="2.09842">
        <ele>139.60000610352</ele>
        <time>2015-12-10T09:18:03.000Z</time>
      </trkpt>
      <trkpt lat="47.66152" lon="2.09845">
        <ele>139.60000610352</ele>
        <time>2015-12-10T09:18:04.000Z</time>
      </trkpt>
      <trkpt lat="47.66137" lon="2.09858">
        <ele>140.19999694824</ele>
        <time>2015-12-10T09:18:08.000Z</time>
      </trkpt>
      <trkpt lat="47.66114" lon="2.0988">
        <ele>140.19999694824</ele>
        <time>2015-12-10T09:18:14.000Z</time>
      </trkpt>
      <trkpt lat="47.66087" lon="2.09905">
        <ele>140</ele>
        <time>2015-12-10T09:18:21.000Z</time>
      </trkpt>
      <trkpt lat="47.66039" lon="2.09952">
        <ele>141.39999389648</ele>
        <time>2015-12-10T09:18:33.000Z</time>
      </trkpt>
      <trkpt lat="47.66026" lon="2.09961">
        <ele>141.60000610352</ele>
        <time>2015-12-10T09:18:36.000Z</time>
      </trkpt>
      <trkpt lat="47.65981" lon="2.10005">
        <ele>143.19999694824</ele>
        <time>2015-12-10T09:18:47.000Z</time>
      </trkpt>
      <trkpt lat="47.65971" lon="2.1003">
        <ele>143.39999389648</ele>
        <time>2015-12-10T09:18:51.000Z</time>
      </trkpt>
      <trkpt lat="47.65946" lon="2.10107">
        <ele>143</ele>
        <time>2015-12-10T09:19:02.000Z</time>
      </trkpt>
      <trkpt lat="47.65926" lon="2.10147">
        <ele>142.19999694824</ele>
        <time>2015-12-10T09:19:09.000Z</time>
      </trkpt>
      <trkpt lat="47.65917" lon="2.1016">
        <ele>142.19999694824</ele>
        <time>2015-12-10T09:19:12.000Z</time>
      </trkpt>
      <trkpt lat="47.65876" lon="2.10223">
        <ele>144.60000610352</ele>
        <time>2015-12-10T09:19:25.000Z</time>
      </trkpt>
      <trkpt lat="47.65872" lon="2.10228">
        <ele>144.80000305176</ele>
        <time>2015-12-10T09:19:26.000Z</time>
      </trkpt>
      <trkpt lat="47.65855" lon="2.10252">
        <ele>146.19999694824</ele>
        <time>2015-12-10T09:19:31.000Z</time>
      </trkpt>
      <trkpt lat="47.65817" lon="2.1031">
        <ele>148</ele>
        <time>2015-12-10T09:19:43.000Z</time>
      </trkpt>
      <trkpt lat="47.65778" lon="2.1037">
        <ele>149.60000610352</ele>
        <time>2015-12-10T09:19:55.000Z</time>
      </trkpt>
      <trkpt lat="47.65738" lon="2.10432">
        <ele>152</ele>
        <time>2015-12-10T09:20:07.000Z</time>
      </trkpt>
      <trkpt lat="47.65715" lon="2.10467">
        <ele>153</ele>
        <time>2015-12-10T09:20:14.000Z</time>
      </trkpt>
      <trkpt lat="47.65676" lon="2.10526">
        <ele>150.19999694824</ele>
        <time>2015-12-10T09:20:26.000Z</time>
      </trkpt>
      <trkpt lat="47.6567" lon="2.10536">
        <ele>149.60000610352</ele>
        <time>2015-12-10T09:20:28.000Z</time>
      </trkpt>
      <trkpt lat="47.65632" lon="2.106">
        <ele>148.80000305176</ele>
        <time>2015-12-10T09:20:40.000Z</time>
      </trkpt>
      <trkpt lat="47.65604" lon="2.10646">
        <ele>147</ele>
        <time>2015-12-10T09:20:49.000Z</time>
      </trkpt>
      <trkpt lat="47.65588" lon="2.10672">
        <ele>145.80000305176</ele>
        <time>2015-12-10T09:20:54.000Z</time>
      </trkpt>
      <trkpt lat="47.65571" lon="2.10705">
        <ele>145</ele>
        <time>2015-12-10T09:21:00.000Z</time>
      </trkpt>
      <trkpt lat="47.65536" lon="2.10773">
        <ele>144.39999389648</ele>
        <time>2015-12-10T09:21:12.000Z</time>
      </trkpt>
      <trkpt lat="47.65503" lon="2.10841">
        <ele>145.60000610352</ele>
        <time>2015-12-10T09:21:24.000Z</time>
      </trkpt>
      <trkpt lat="47.6547" lon="2.10906">
        <ele>152</ele>
        <time>2015-12-10T09:21:37.000Z</time>
      </trkpt>
      <trkpt lat="47.65468" lon="2.10911">
        <ele>152.39999389648</ele>
        <time>2015-12-10T09:21:38.000Z</time>
      </trkpt>
      <trkpt lat="47.65433" lon="2.10979">
        <ele>156.60000610352</ele>
        <time>2015-12-10T09:21:52.000Z</time>
      </trkpt>
      <trkpt lat="47.65399" lon="2.11046">
        <ele>153.60000610352</ele>
        <time>2015-12-10T09:22:05.000Z</time>
      </trkpt>
      <trkpt lat="47.65366" lon="2.11114">
        <ele>147.19999694824</ele>
        <time>2015-12-10T09:22:17.000Z</time>
      </trkpt>
      <trkpt lat="47.65343" lon="2.11158">
        <ele>144.80000305176</ele>
        <time>2015-12-10T09:22:25.000Z</time>
      </trkpt>
      <trkpt lat="47.65308" lon="2.11224">
        <ele>146.80000305176</ele>
        <time>2015-12-10T09:22:37.000Z</time>
      </trkpt>
      <trkpt lat="47.65287" lon="2.11253">
        <ele>146.19999694824</ele>
        <time>2015-12-10T09:22:43.000Z</time>
      </trkpt>
      <trkpt lat="47.65261" lon="2.11284">
        <ele>145.60000610352</ele>
        <time>2015-12-10T09:22:50.000Z</time>
      </trkpt>
      <trkpt lat="47.65223" lon="2.11331">
        <ele>146.80000305176</ele>
        <time>2015-12-10T09:23:01.000Z</time>
      </trkpt>
      <trkpt lat="47.65212" lon="2.11344">
        <ele>147.19999694824</ele>
        <time>2015-12-10T09:23:04.000Z</time>
      </trkpt>
      <trkpt lat="47.65198" lon="2.11357">
        <ele>147.60000610352</ele>
        <time>2015-12-10T09:23:08.000Z</time>
      </trkpt>
      <trkpt lat="47.65146" lon="2.11398">
        <ele>147.80000305176</ele>
        <time>2015-12-10T09:23:21.000Z</time>
      </trkpt>
      <trkpt lat="47.65113" lon="2.11423">
        <ele>148.19999694824</ele>
        <time>2015-12-10T09:23:29.000Z</time>
      </trkpt>
      <trkpt lat="47.65066" lon="2.11463">
        <ele>148.39999389648</ele>
        <time>2015-12-10T09:23:45.000Z</time>
      </trkpt>
      <trkpt lat="47.65068" lon="2.11471">
        <ele>148.60000610352</ele>
        <time>2015-12-10T09:23:50.000Z</time>
      </trkpt>
      <trkpt lat="47.65061" lon="2.11469">
        <ele>148.39999389648</ele>
        <time>2015-12-10T09:24:23.000Z</time>
      </trkpt>
      <trkpt lat="47.65016" lon="2.11518">
        <ele>147.19999694824</ele>
        <time>2015-12-10T09:24:41.000Z</time>
      </trkpt>
      <trkpt lat="47.65007" lon="2.11527">
        <ele>147</ele>
        <time>2015-12-10T09:24:44.000Z</time>
      </trkpt>
      <trkpt lat="47.64989" lon="2.11547">
        <ele>146.39999389648</ele>
        <time>2015-12-10T09:24:49.000Z</time>
      </trkpt>
      <trkpt lat="47.64966" lon="2.11571">
        <ele>146.39999389648</ele>
        <time>2015-12-10T09:24:55.000Z</time>
      </trkpt>
      <trkpt lat="47.64916" lon="2.11615">
        <ele>146.39999389648</ele>
        <time>2015-12-10T09:25:08.000Z</time>
      </trkpt>
      <trkpt lat="47.64865" lon="2.11657">
        <ele>145.60000610352</ele>
        <time>2015-12-10T09:25:22.000Z</time>
      </trkpt>
      <trkpt lat="47.64815" lon="2.11695">
        <ele>145</ele>
        <time>2015-12-10T09:25:34.000Z</time>
      </trkpt>
      <trkpt lat="47.64802" lon="2.11705">
        <ele>144.80000305176</ele>
        <time>2015-12-10T09:25:37.000Z</time>
      </trkpt>
      <trkpt lat="47.64787" lon="2.11716">
        <ele>144.80000305176</ele>
        <time>2015-12-10T09:25:41.000Z</time>
      </trkpt>
      <trkpt lat="47.64775" lon="2.11727">
        <ele>144.80000305176</ele>
        <time>2015-12-10T09:25:44.000Z</time>
      </trkpt>
      <trkpt lat="47.64721" lon="2.1176">
        <ele>144.80000305176</ele>
        <time>2015-12-10T09:25:57.000Z</time>
      </trkpt>
      <trkpt lat="47.64686" lon="2.11781">
        <ele>144.80000305176</ele>
        <time>2015-12-10T09:26:05.000Z</time>
      </trkpt>
      <trkpt lat="47.64644" lon="2.11802">
        <ele>145</ele>
        <time>2015-12-10T09:26:14.000Z</time>
      </trkpt>
      <trkpt lat="47.64623" lon="2.11811">
        <ele>144.60000610352</ele>
        <time>2015-12-10T09:26:19.000Z</time>
      </trkpt>
      <trkpt lat="47.64569" lon="2.11829">
        <ele>144.19999694824</ele>
        <time>2015-12-10T09:26:31.000Z</time>
      </trkpt>
      <trkpt lat="47.6451" lon="2.11845">
        <ele>145</ele>
        <time>2015-12-10T09:26:43.000Z</time>
      </trkpt>
      <trkpt lat="47.64469" lon="2.11848">
        <ele>144.60000610352</ele>
        <time>2015-12-10T09:26:52.000Z</time>
      </trkpt>
      <trkpt lat="47.64456" lon="2.11848">
        <ele>144.39999389648</ele>
        <time>2015-12-10T09:26:55.000Z</time>
      </trkpt>
      <trkpt lat="47.64425" lon="2.11846">
        <ele>144</ele>
        <time>2015-12-10T09:27:06.000Z</time>
      </trkpt>
      <trkpt lat="47.64414" lon="2.11852">
        <ele>143.60000610352</ele>
        <time>2015-12-10T09:27:19.000Z</time>
      </trkpt>
      <trkpt lat="47.64415" lon="2.1185">
        <ele>143.60000610352</ele>
        <time>2015-12-10T09:27:34.000Z</time>
      </trkpt>
      <trkpt lat="47.64416" lon="2.1177">
        <ele>144</ele>
        <time>2015-12-10T09:27:52.000Z</time>
      </trkpt>
      <trkpt lat="47.64419" lon="2.11688">
        <ele>144</ele>
        <time>2015-12-10T09:28:04.000Z</time>
      </trkpt>
      <trkpt lat="47.64422" lon="2.11603">
        <ele>144</ele>
        <time>2015-12-10T09:28:15.000Z</time>
      </trkpt>
      <trkpt lat="47.64422" lon="2.11595">
        <ele>144</ele>
        <time>2015-12-10T09:28:16.000Z</time>
      </trkpt>
      <trkpt lat="47.64425" lon="2.11511">
        <ele>143.19999694824</ele>
        <time>2015-12-10T09:28:26.000Z</time>
      </trkpt>
      <trkpt lat="47.64427" lon="2.11427">
        <ele>143</ele>
        <time>2015-12-10T09:28:36.000Z</time>
      </trkpt>
      <trkpt lat="47.6443" lon="2.11365">
        <ele>144.39999389648</ele>
        <time>2015-12-10T09:28:48.000Z</time>
      </trkpt>
      <trkpt lat="47.64429" lon="2.11364">
        <ele>144.39999389648</ele>
        <time>2015-12-10T09:32:58.000Z</time>
      </trkpt>
      <trkpt lat="47.64432" lon="2.11284">
        <ele>144.19999694824</ele>
        <time>2015-12-10T09:33:13.000Z</time>
      </trkpt>
      <trkpt lat="47.64434" lon="2.11196">
        <ele>143.80000305176</ele>
        <time>2015-12-10T09:33:24.000Z</time>
      </trkpt>
      <trkpt lat="47.64437" lon="2.11112">
        <ele>143</ele>
        <time>2015-12-10T09:33:34.000Z</time>
      </trkpt>
      <trkpt lat="47.6444" lon="2.11026">
        <ele>142.80000305176</ele>
        <time>2015-12-10T09:33:44.000Z</time>
      </trkpt>
      <trkpt lat="47.64443" lon="2.10938">
        <ele>143.60000610352</ele>
        <time>2015-12-10T09:33:54.000Z</time>
      </trkpt>
      <trkpt lat="47.64445" lon="2.10857">
        <ele>145.19999694824</ele>
        <time>2015-12-10T09:34:03.000Z</time>
      </trkpt>
      <trkpt lat="47.64448" lon="2.10775">
        <ele>145.80000305176</ele>
        <time>2015-12-10T09:34:12.000Z</time>
      </trkpt>
      <trkpt lat="47.6445" lon="2.10694">
        <ele>146.19999694824</ele>
        <time>2015-12-10T09:34:21.000Z</time>
      </trkpt>
      <trkpt lat="47.64453" lon="2.10607">
        <ele>144.19999694824</ele>
        <time>2015-12-10T09:34:31.000Z</time>
      </trkpt>
      <trkpt lat="47.64456" lon="2.10518">
        <ele>144.39999389648</ele>
        <time>2015-12-10T09:34:41.000Z</time>
      </trkpt>
      <trkpt lat="47.64458" lon="2.10432">
        <ele>146.19999694824</ele>
        <time>2015-12-10T09:34:51.000Z</time>
      </trkpt>
      <trkpt lat="47.64461" lon="2.10345">
        <ele>146</ele>
        <time>2015-12-10T09:35:01.000Z</time>
      </trkpt>
      <trkpt lat="47.64463" lon="2.10265">
        <ele>145.60000610352</ele>
        <time>2015-12-10T09:35:10.000Z</time>
      </trkpt>
      <trkpt lat="47.64466" lon="2.10176">
        <ele>145.19999694824</ele>
        <time>2015-12-10T09:35:20.000Z</time>
      </trkpt>
      <trkpt lat="47.64469" lon="2.10089">
        <ele>146.80000305176</ele>
        <time>2015-12-10T09:35:30.000Z</time>
      </trkpt>
      <trkpt lat="47.64472" lon="2.10002">
        <ele>146.80000305176</ele>
        <time>2015-12-10T09:35:40.000Z</time>
      </trkpt>
      <trkpt lat="47.64475" lon="2.09914">
        <ele>144.80000305176</ele>
        <time>2015-12-10T09:35:50.000Z</time>
      </trkpt>
      <trkpt lat="47.64477" lon="2.09834">
        <ele>143.80000305176</ele>
        <time>2015-12-10T09:35:59.000Z</time>
      </trkpt>
      <trkpt lat="47.6448" lon="2.09747">
        <ele>143.39999389648</ele>
        <time>2015-12-10T09:36:09.000Z</time>
      </trkpt>
      <trkpt lat="47.64483" lon="2.09666">
        <ele>143.80000305176</ele>
        <time>2015-12-10T09:36:18.000Z</time>
      </trkpt>
      <trkpt lat="47.64485" lon="2.09584">
        <ele>145.60000610352</ele>
        <time>2015-12-10T09:36:27.000Z</time>
      </trkpt>
      <trkpt lat="47.64488" lon="2.09503">
        <ele>149.39999389648</ele>
        <time>2015-12-10T09:36:36.000Z</time>
      </trkpt>
      <trkpt lat="47.64489" lon="2.0942">
        <ele>152</ele>
        <time>2015-12-10T09:36:45.000Z</time>
      </trkpt>
      <trkpt lat="47.64492" lon="2.09339">
        <ele>152.60000610352</ele>
        <time>2015-12-10T09:36:54.000Z</time>
      </trkpt>
      <trkpt lat="47.64495" lon="2.09256">
        <ele>151.19999694824</ele>
        <time>2015-12-10T09:37:03.000Z</time>
      </trkpt>
      <trkpt lat="47.64498" lon="2.09173">
        <ele>148.60000610352</ele>
        <time>2015-12-10T09:37:12.000Z</time>
      </trkpt>
      <trkpt lat="47.64501" lon="2.09089">
        <ele>147.19999694824</ele>
        <time>2015-12-10T09:37:21.000Z</time>
      </trkpt>
      <trkpt lat="47.64503" lon="2.09007">
        <ele>144.39999389648</ele>
        <time>2015-12-10T09:37:30.000Z</time>
      </trkpt>
      <trkpt lat="47.64506" lon="2.08925">
        <ele>140.60000610352</ele>
        <time>2015-12-10T09:37:39.000Z</time>
      </trkpt>
      <trkpt lat="47.64509" lon="2.08842">
        <ele>139.19999694824</ele>
        <time>2015-12-10T09:37:48.000Z</time>
      </trkpt>
      <trkpt lat="47.64511" lon="2.08759">
        <ele>140</ele>
        <time>2015-12-10T09:37:57.000Z</time>
      </trkpt>
      <trkpt lat="47.64514" lon="2.08679">
        <ele>138.80000305176</ele>
        <time>2015-12-10T09:38:06.000Z</time>
      </trkpt>
      <trkpt lat="47.64517" lon="2.08591">
        <ele>138.39999389648</ele>
        <time>2015-12-10T09:38:16.000Z</time>
      </trkpt>
      <trkpt lat="47.6452" lon="2.08503">
        <ele>139.60000610352</ele>
        <time>2015-12-10T09:38:26.000Z</time>
      </trkpt>
      <trkpt lat="47.64523" lon="2.08416">
        <ele>142</ele>
        <time>2015-12-10T09:38:36.000Z</time>
      </trkpt>
      <trkpt lat="47.64526" lon="2.08336">
        <ele>141</ele>
        <time>2015-12-10T09:38:45.000Z</time>
      </trkpt>
      <trkpt lat="47.64528" lon="2.08251">
        <ele>138</ele>
        <time>2015-12-10T09:38:54.000Z</time>
      </trkpt>
      <trkpt lat="47.6453" lon="2.08166">
        <ele>139.39999389648</ele>
        <time>2015-12-10T09:39:03.000Z</time>
      </trkpt>
      <trkpt lat="47.64533" lon="2.08081">
        <ele>140.60000610352</ele>
        <time>2015-12-10T09:39:12.000Z</time>
      </trkpt>
      <trkpt lat="47.64536" lon="2.08">
        <ele>141</ele>
        <time>2015-12-10T09:39:21.000Z</time>
      </trkpt>
      <trkpt lat="47.64539" lon="2.0792">
        <ele>140.39999389648</ele>
        <time>2015-12-10T09:39:30.000Z</time>
      </trkpt>
      <trkpt lat="47.64542" lon="2.07838">
        <ele>141.80000305176</ele>
        <time>2015-12-10T09:39:39.000Z</time>
      </trkpt>
      <trkpt lat="47.64545" lon="2.07755">
        <ele>142.39999389648</ele>
        <time>2015-12-10T09:39:48.000Z</time>
      </trkpt>
      <trkpt lat="47.64547" lon="2.0767">
        <ele>141.60000610352</ele>
        <time>2015-12-10T09:39:57.000Z</time>
      </trkpt>
      <trkpt lat="47.6455" lon="2.07586">
        <ele>141.39999389648</ele>
        <time>2015-12-10T09:40:06.000Z</time>
      </trkpt>
      <trkpt lat="47.64553" lon="2.075">
        <ele>141.19999694824</ele>
        <time>2015-12-10T09:40:15.000Z</time>
      </trkpt>
      <trkpt lat="47.64555" lon="2.07411">
        <ele>141.39999389648</ele>
        <time>2015-12-10T09:40:24.000Z</time>
      </trkpt>
      <trkpt lat="47.64557" lon="2.07325">
        <ele>141.39999389648</ele>
        <time>2015-12-10T09:40:33.000Z</time>
      </trkpt>
      <trkpt lat="47.6456" lon="2.07244">
        <ele>139.80000305176</ele>
        <time>2015-12-10T09:40:42.000Z</time>
      </trkpt>
      <trkpt lat="47.64561" lon="2.07162">
        <ele>139.19999694824</ele>
        <time>2015-12-10T09:40:51.000Z</time>
      </trkpt>
      <trkpt lat="47.64564" lon="2.07079">
        <ele>140.39999389648</ele>
        <time>2015-12-10T09:41:00.000Z</time>
      </trkpt>
      <trkpt lat="47.64566" lon="2.06993">
        <ele>139</ele>
        <time>2015-12-10T09:41:09.000Z</time>
      </trkpt>
      <trkpt lat="47.64569" lon="2.06905">
        <ele>138.39999389648</ele>
        <time>2015-12-10T09:41:19.000Z</time>
      </trkpt>
      <trkpt lat="47.64571" lon="2.06822">
        <ele>139.39999389648</ele>
        <time>2015-12-10T09:41:29.000Z</time>
      </trkpt>
      <trkpt lat="47.64575" lon="2.06738">
        <ele>141.60000610352</ele>
        <time>2015-12-10T09:41:39.000Z</time>
      </trkpt>
      <trkpt lat="47.64577" lon="2.06656">
        <ele>139.80000305176</ele>
        <time>2015-12-10T09:41:48.000Z</time>
      </trkpt>
      <trkpt lat="47.64579" lon="2.06572">
        <ele>137.80000305176</ele>
        <time>2015-12-10T09:41:57.000Z</time>
      </trkpt>
      <trkpt lat="47.64581" lon="2.06487">
        <ele>137</ele>
        <time>2015-12-10T09:42:06.000Z</time>
      </trkpt>
      <trkpt lat="47.64584" lon="2.06402">
        <ele>135</ele>
        <time>2015-12-10T09:42:15.000Z</time>
      </trkpt>
      <trkpt lat="47.64586" lon="2.06321">
        <ele>135</ele>
        <time>2015-12-10T09:42:24.000Z</time>
      </trkpt>
      <trkpt lat="47.64589" lon="2.0624">
        <ele>135</ele>
        <time>2015-12-10T09:42:35.000Z</time>
      </trkpt>
      <trkpt lat="47.64591" lon="2.06155">
        <ele>135.39999389648</ele>
        <time>2015-12-10T09:42:48.000Z</time>
      </trkpt>
      <trkpt lat="47.64593" lon="2.06083">
        <ele>137.19999694824</ele>
        <time>2015-12-10T09:42:58.000Z</time>
      </trkpt>
      <trkpt lat="47.64599" lon="2.06016">
        <ele>137.80000305176</ele>
        <time>2015-12-10T09:43:07.000Z</time>
      </trkpt>
      <trkpt lat="47.64613" lon="2.05947">
        <ele>139.39999389648</ele>
        <time>2015-12-10T09:43:17.000Z</time>
      </trkpt>
      <trkpt lat="47.64601" lon="2.05863">
        <ele>139</ele>
        <time>2015-12-10T09:43:29.000Z</time>
      </trkpt>
      <trkpt lat="47.64589" lon="2.05807">
        <ele>139</ele>
        <time>2015-12-10T09:43:43.000Z</time>
      </trkpt>
      <trkpt lat="47.64591" lon="2.05803">
        <ele>139.19999694824</ele>
        <time>2015-12-10T09:43:54.000Z</time>
      </trkpt>
      <trkpt lat="47.64646" lon="2.05793">
        <ele>140.39999389648</ele>
        <time>2015-12-10T09:44:13.000Z</time>
      </trkpt>
      <trkpt lat="47.64671" lon="2.05777">
        <ele>140.39999389648</ele>
        <time>2015-12-10T09:44:20.000Z</time>
      </trkpt>
      <trkpt lat="47.64717" lon="2.05744">
        <ele>141.19999694824</ele>
        <time>2015-12-10T09:44:31.000Z</time>
      </trkpt>
      <trkpt lat="47.64755" lon="2.0573">
        <ele>141.60000610352</ele>
        <time>2015-12-10T09:44:40.000Z</time>
      </trkpt>
      <trkpt lat="47.64771" lon="2.05727">
        <ele>141.39999389648</ele>
        <time>2015-12-10T09:44:44.000Z</time>
      </trkpt>
      <trkpt lat="47.64817" lon="2.05764">
        <ele>141.39999389648</ele>
        <time>2015-12-10T09:44:59.000Z</time>
      </trkpt>
      <trkpt lat="47.64828" lon="2.05847">
        <ele>142.80000305176</ele>
        <time>2015-12-10T09:45:13.000Z</time>
      </trkpt>
      <trkpt lat="47.64832" lon="2.05871">
        <ele>143.60000610352</ele>
        <time>2015-12-10T09:45:17.000Z</time>
      </trkpt>
      <trkpt lat="47.64835" lon="2.05884">
        <ele>144</ele>
        <time>2015-12-10T09:45:19.000Z</time>
      </trkpt>
      <trkpt lat="47.64839" lon="2.05896">
        <ele>144.39999389648</ele>
        <time>2015-12-10T09:45:21.000Z</time>
      </trkpt>
      <trkpt lat="47.64849" lon="2.05913">
        <ele>144.60000610352</ele>
        <time>2015-12-10T09:45:24.000Z</time>
      </trkpt>
      <trkpt lat="47.64894" lon="2.05967">
        <ele>144.19999694824</ele>
        <time>2015-12-10T09:45:35.000Z</time>
      </trkpt>
      <trkpt lat="47.64937" lon="2.06016">
        <ele>143.80000305176</ele>
        <time>2015-12-10T09:45:45.000Z</time>
      </trkpt>
      <trkpt lat="47.6498" lon="2.06068">
        <ele>143.19999694824</ele>
        <time>2015-12-10T09:45:55.000Z</time>
      </trkpt>
      <trkpt lat="47.65023" lon="2.06119">
        <ele>144</ele>
        <time>2015-12-10T09:46:05.000Z</time>
      </trkpt>
      <trkpt lat="47.65067" lon="2.06176">
        <ele>145.60000610352</ele>
        <time>2015-12-10T09:46:16.000Z</time>
      </trkpt>
      <trkpt lat="47.65105" lon="2.06235">
        <ele>145.80000305176</ele>
        <time>2015-12-10T09:46:26.000Z</time>
      </trkpt>
      <trkpt lat="47.65147" lon="2.06295">
        <ele>146</ele>
        <time>2015-12-10T09:46:36.000Z</time>
      </trkpt>
      <trkpt lat="47.65188" lon="2.06356">
        <ele>145.80000305176</ele>
        <time>2015-12-10T09:46:46.000Z</time>
      </trkpt>
      <trkpt lat="47.65227" lon="2.06417">
        <ele>145.39999389648</ele>
        <time>2015-12-10T09:46:56.000Z</time>
      </trkpt>
      <trkpt lat="47.65263" lon="2.06473">
        <ele>146.19999694824</ele>
        <time>2015-12-10T09:47:05.000Z</time>
      </trkpt>
      <trkpt lat="47.65303" lon="2.06531">
        <ele>148.80000305176</ele>
        <time>2015-12-10T09:47:15.000Z</time>
      </trkpt>
      <trkpt lat="47.65344" lon="2.06593">
        <ele>151</ele>
        <time>2015-12-10T09:47:26.000Z</time>
      </trkpt>
      <trkpt lat="47.65385" lon="2.06654">
        <ele>150</ele>
        <time>2015-12-10T09:47:37.000Z</time>
      </trkpt>
      <trkpt lat="47.65397" lon="2.06672">
        <ele>149.19999694824</ele>
        <time>2015-12-10T09:47:40.000Z</time>
      </trkpt>
      <trkpt lat="47.65435" lon="2.06729">
        <ele>146.80000305176</ele>
        <time>2015-12-10T09:47:50.000Z</time>
      </trkpt>
      <trkpt lat="47.65476" lon="2.06788">
        <ele>145.80000305176</ele>
        <time>2015-12-10T09:48:00.000Z</time>
      </trkpt>
      <trkpt lat="47.65516" lon="2.06846">
        <ele>145.60000610352</ele>
        <time>2015-12-10T09:48:10.000Z</time>
      </trkpt>
      <trkpt lat="47.65558" lon="2.06907">
        <ele>147.19999694824</ele>
        <time>2015-12-10T09:48:20.000Z</time>
      </trkpt>
      <trkpt lat="47.65599" lon="2.06967">
        <ele>149.80000305176</ele>
        <time>2015-12-10T09:48:29.000Z</time>
      </trkpt>
      <trkpt lat="47.65643" lon="2.07029">
        <ele>147</ele>
        <time>2015-12-10T09:48:38.000Z</time>
      </trkpt>
      <trkpt lat="47.65683" lon="2.07086">
        <ele>141.39999389648</ele>
        <time>2015-12-10T09:48:46.000Z</time>
      </trkpt>
      <trkpt lat="47.65724" lon="2.07145">
        <ele>139.19999694824</ele>
        <time>2015-12-10T09:48:54.000Z</time>
      </trkpt>
      <trkpt lat="47.65766" lon="2.07205">
        <ele>138.19999694824</ele>
        <time>2015-12-10T09:49:02.000Z</time>
      </trkpt>
      <trkpt lat="47.65807" lon="2.07264">
        <ele>138</ele>
        <time>2015-12-10T09:49:10.000Z</time>
      </trkpt>
      <trkpt lat="47.65846" lon="2.07321">
        <ele>137.39999389648</ele>
        <time>2015-12-10T09:49:18.000Z</time>
      </trkpt>
      <trkpt lat="47.65888" lon="2.07382">
        <ele>136</ele>
        <time>2015-12-10T09:49:27.000Z</time>
      </trkpt>
      <trkpt lat="47.65929" lon="2.07443">
        <ele>135</ele>
        <time>2015-12-10T09:49:36.000Z</time>
      </trkpt>
      <trkpt lat="47.65971" lon="2.07502">
        <ele>135.19999694824</ele>
        <time>2015-12-10T09:49:45.000Z</time>
      </trkpt>
      <trkpt lat="47.66011" lon="2.07561">
        <ele>135.80000305176</ele>
        <time>2015-12-10T09:49:54.000Z</time>
      </trkpt>
      <trkpt lat="47.66052" lon="2.0762">
        <ele>135.39999389648</ele>
        <time>2015-12-10T09:50:03.000Z</time>
      </trkpt>
      <trkpt lat="47.66093" lon="2.07678">
        <ele>135.19999694824</ele>
        <time>2015-12-10T09:50:12.000Z</time>
      </trkpt>
      <trkpt lat="47.66132" lon="2.07735">
        <ele>135.60000610352</ele>
        <time>2015-12-10T09:50:21.000Z</time>
      </trkpt>
      <trkpt lat="47.66175" lon="2.07796">
        <ele>136.60000610352</ele>
        <time>2015-12-10T09:50:31.000Z</time>
      </trkpt>
      <trkpt lat="47.66214" lon="2.07852">
        <ele>136</ele>
        <time>2015-12-10T09:50:40.000Z</time>
      </trkpt>
      <trkpt lat="47.6625" lon="2.07916">
        <ele>134.19999694824</ele>
        <time>2015-12-10T09:50:49.000Z</time>
      </trkpt>
      <trkpt lat="47.66253" lon="2.07924">
        <ele>134.19999694824</ele>
        <time>2015-12-10T09:50:50.000Z</time>
      </trkpt>
      <trkpt lat="47.66273" lon="2.08">
        <ele>135.39999389648</ele>
        <time>2015-12-10T09:50:59.000Z</time>
      </trkpt>
      <trkpt lat="47.66288" lon="2.08086">
        <ele>137.80000305176</ele>
        <time>2015-12-10T09:51:09.000Z</time>
      </trkpt>
      <trkpt lat="47.66301" lon="2.08167">
        <ele>136.39999389648</ele>
        <time>2015-12-10T09:51:19.000Z</time>
      </trkpt>
      <trkpt lat="47.66315" lon="2.08248">
        <ele>136.19999694824</ele>
        <time>2015-12-10T09:51:29.000Z</time>
      </trkpt>
      <trkpt lat="47.6633" lon="2.08333">
        <ele>136</ele>
        <time>2015-12-10T09:51:40.000Z</time>
      </trkpt>
      <trkpt lat="47.66343" lon="2.08417">
        <ele>136.39999389648</ele>
        <time>2015-12-10T09:51:51.000Z</time>
      </trkpt>
      <trkpt lat="47.66357" lon="2.08501">
        <ele>137.80000305176</ele>
        <time>2015-12-10T09:52:02.000Z</time>
      </trkpt>
      <trkpt lat="47.66372" lon="2.08585">
        <ele>136.60000610352</ele>
        <time>2015-12-10T09:52:13.000Z</time>
      </trkpt>
      <trkpt lat="47.66386" lon="2.0867">
        <ele>134.80000305176</ele>
        <time>2015-12-10T09:52:24.000Z</time>
      </trkpt>
      <trkpt lat="47.664" lon="2.08749">
        <ele>135</ele>
        <time>2015-12-10T09:52:34.000Z</time>
      </trkpt>
      <trkpt lat="47.66413" lon="2.08834">
        <ele>134.80000305176</ele>
        <time>2015-12-10T09:52:45.000Z</time>
      </trkpt>
      <trkpt lat="47.6643" lon="2.08918">
        <ele>135.80000305176</ele>
        <time>2015-12-10T09:52:56.000Z</time>
      </trkpt>
      <trkpt lat="47.66446" lon="2.09001">
        <ele>136.80000305176</ele>
        <time>2015-12-10T09:53:06.000Z</time>
      </trkpt>
      <trkpt lat="47.6646" lon="2.09081">
        <ele>136.60000610352</ele>
        <time>2015-12-10T09:53:16.000Z</time>
      </trkpt>
      <trkpt lat="47.66475" lon="2.09161">
        <ele>137.39999389648</ele>
        <time>2015-12-10T09:53:26.000Z</time>
      </trkpt>
      <trkpt lat="47.66489" lon="2.09246">
        <ele>137.80000305176</ele>
        <time>2015-12-10T09:53:37.000Z</time>
      </trkpt>
      <trkpt lat="47.66502" lon="2.09323">
        <ele>138</ele>
        <time>2015-12-10T09:53:47.000Z</time>
      </trkpt>
      <trkpt lat="47.66515" lon="2.09401">
        <ele>139</ele>
        <time>2015-12-10T09:53:57.000Z</time>
      </trkpt>
      <trkpt lat="47.66528" lon="2.09479">
        <ele>138.39999389648</ele>
        <time>2015-12-10T09:54:07.000Z</time>
      </trkpt>
      <trkpt lat="47.66544" lon="2.09564">
        <ele>138</ele>
        <time>2015-12-10T09:54:18.000Z</time>
      </trkpt>
      <trkpt lat="47.66556" lon="2.09636">
        <ele>137.19999694824</ele>
        <time>2015-12-10T09:54:33.000Z</time>
      </trkpt>
      <trkpt lat="47.66558" lon="2.09637">
        <ele>137</ele>
        <time>2015-12-10T09:57:42.000Z</time>
      </trkpt>
      <trkpt lat="47.66563" lon="2.09649">
        <ele>136.60000610352</ele>
        <time>2015-12-10T09:57:46.000Z</time>
      </trkpt>
      <trkpt lat="47.66581" lon="2.09729">
        <ele>134.39999389648</ele>
        <time>2015-12-10T09:58:01.000Z</time>
      </trkpt>
      <trkpt lat="47.66601" lon="2.09804">
        <ele>133.39999389648</ele>
        <time>2015-12-10T09:58:15.000Z</time>
      </trkpt>
      <trkpt lat="47.66623" lon="2.09883">
        <ele>132</ele>
        <time>2015-12-10T09:58:27.000Z</time>
      </trkpt>
      <trkpt lat="47.66645" lon="2.09957">
        <ele>131</ele>
        <time>2015-12-10T09:58:37.000Z</time>
      </trkpt>
      <trkpt lat="47.66667" lon="2.10036">
        <ele>131</ele>
        <time>2015-12-10T09:58:47.000Z</time>
      </trkpt>
      <trkpt lat="47.66688" lon="2.10113">
        <ele>130.80000305176</ele>
        <time>2015-12-10T09:58:57.000Z</time>
      </trkpt>
      <trkpt lat="47.66709" lon="2.10191">
        <ele>131.60000610352</ele>
        <time>2015-12-10T09:59:07.000Z</time>
      </trkpt>
      <trkpt lat="47.66731" lon="2.10265">
        <ele>134.80000305176</ele>
        <time>2015-12-10T09:59:17.000Z</time>
      </trkpt>
      <trkpt lat="47.66751" lon="2.10343">
        <ele>137.19999694824</ele>
        <time>2015-12-10T09:59:27.000Z</time>
      </trkpt>
      <trkpt lat="47.66769" lon="2.10423">
        <ele>142.39999389648</ele>
        <time>2015-12-10T09:59:40.000Z</time>
      </trkpt>
      <trkpt lat="47.66787" lon="2.10505">
        <ele>145.39999389648</ele>
        <time>2015-12-10T09:59:54.000Z</time>
      </trkpt>
      <trkpt lat="47.6681" lon="2.1058">
        <ele>143.19999694824</ele>
        <time>2015-12-10T10:00:04.000Z</time>
      </trkpt>
      <trkpt lat="47.66834" lon="2.1066">
        <ele>139</ele>
        <time>2015-12-10T10:00:14.000Z</time>
      </trkpt>
      <trkpt lat="47.66857" lon="2.10739">
        <ele>137.60000610352</ele>
        <time>2015-12-10T10:00:24.000Z</time>
      </trkpt>
      <trkpt lat="47.66881" lon="2.10816">
        <ele>137.19999694824</ele>
        <time>2015-12-10T10:00:34.000Z</time>
      </trkpt>
      <trkpt lat="47.66904" lon="2.10897">
        <ele>138.19999694824</ele>
        <time>2015-12-10T10:00:44.000Z</time>
      </trkpt>
      <trkpt lat="47.66926" lon="2.10974">
        <ele>138.60000610352</ele>
        <time>2015-12-10T10:00:54.000Z</time>
      </trkpt>
      <trkpt lat="47.66948" lon="2.11056">
        <ele>137.60000610352</ele>
        <time>2015-12-10T10:01:04.000Z</time>
      </trkpt>
      <trkpt lat="47.6697" lon="2.11132">
        <ele>137.39999389648</ele>
        <time>2015-12-10T10:01:13.000Z</time>
      </trkpt>
      <trkpt lat="47.66992" lon="2.11211">
        <ele>138.19999694824</ele>
        <time>2015-12-10T10:01:22.000Z</time>
      </trkpt>
      <trkpt lat="47.67015" lon="2.11289">
        <ele>137.80000305176</ele>
        <time>2015-12-10T10:01:31.000Z</time>
      </trkpt>
      <trkpt lat="47.67036" lon="2.11369">
        <ele>137.39999389648</ele>
        <time>2015-12-10T10:01:40.000Z</time>
      </trkpt>
      <trkpt lat="47.67057" lon="2.11444">
        <ele>137.39999389648</ele>
        <time>2015-12-10T10:01:49.000Z</time>
      </trkpt>
      <trkpt lat="47.67077" lon="2.11519">
        <ele>137.19999694824</ele>
        <time>2015-12-10T10:01:58.000Z</time>
      </trkpt>
      <trkpt lat="47.67099" lon="2.11597">
        <ele>136.60000610352</ele>
        <time>2015-12-10T10:02:07.000Z</time>
      </trkpt>
      <trkpt lat="47.67119" lon="2.11674">
        <ele>135.60000610352</ele>
        <time>2015-12-10T10:02:16.000Z</time>
      </trkpt>
      <trkpt lat="47.67139" lon="2.11752">
        <ele>134.19999694824</ele>
        <time>2015-12-10T10:02:25.000Z</time>
      </trkpt>
      <trkpt lat="47.67161" lon="2.11827">
        <ele>133.80000305176</ele>
        <time>2015-12-10T10:02:34.000Z</time>
      </trkpt>
      <trkpt lat="47.67183" lon="2.11903">
        <ele>133.80000305176</ele>
        <time>2015-12-10T10:02:43.000Z</time>
      </trkpt>
      <trkpt lat="47.67205" lon="2.11978">
        <ele>134.19999694824</ele>
        <time>2015-12-10T10:02:52.000Z</time>
      </trkpt>
      <trkpt lat="47.67225" lon="2.12053">
        <ele>133.19999694824</ele>
        <time>2015-12-10T10:03:01.000Z</time>
      </trkpt>
      <trkpt lat="47.67245" lon="2.12127">
        <ele>133</ele>
        <time>2015-12-10T10:03:10.000Z</time>
      </trkpt>
      <trkpt lat="47.67266" lon="2.12206">
        <ele>133.39999389648</ele>
        <time>2015-12-10T10:03:20.000Z</time>
      </trkpt>
      <trkpt lat="47.67268" lon="2.12214">
        <ele>133.39999389648</ele>
        <time>2015-12-10T10:03:21.000Z</time>
      </trkpt>
      <trkpt lat="47.67289" lon="2.12293">
        <ele>133.39999389648</ele>
        <time>2015-12-10T10:03:30.000Z</time>
      </trkpt>
      <trkpt lat="47.67309" lon="2.12375">
        <ele>133.39999389648</ele>
        <time>2015-12-10T10:03:39.000Z</time>
      </trkpt>
      <trkpt lat="47.6733" lon="2.12457">
        <ele>135.19999694824</ele>
        <time>2015-12-10T10:03:48.000Z</time>
      </trkpt>
      <trkpt lat="47.67351" lon="2.1254">
        <ele>137</ele>
        <time>2015-12-10T10:03:57.000Z</time>
      </trkpt>
      <trkpt lat="47.67373" lon="2.12618">
        <ele>136.60000610352</ele>
        <time>2015-12-10T10:04:06.000Z</time>
      </trkpt>
      <trkpt lat="47.67387" lon="2.12661">
        <ele>136.39999389648</ele>
        <time>2015-12-10T10:04:11.000Z</time>
      </trkpt>
      <trkpt lat="47.6741" lon="2.12743">
        <ele>136</ele>
        <time>2015-12-10T10:04:20.000Z</time>
      </trkpt>
      <trkpt lat="47.67431" lon="2.12819">
        <ele>132.60000610352</ele>
        <time>2015-12-10T10:04:28.000Z</time>
      </trkpt>
      <trkpt lat="47.67452" lon="2.12894">
        <ele>132</ele>
        <time>2015-12-10T10:04:36.000Z</time>
      </trkpt>
      <trkpt lat="47.67475" lon="2.12976">
        <ele>131.60000610352</ele>
        <time>2015-12-10T10:04:45.000Z</time>
      </trkpt>
      <trkpt lat="47.67498" lon="2.13056">
        <ele>131.19999694824</ele>
        <time>2015-12-10T10:04:54.000Z</time>
      </trkpt>
      <trkpt lat="47.67521" lon="2.13138">
        <ele>129.19999694824</ele>
        <time>2015-12-10T10:05:03.000Z</time>
      </trkpt>
      <trkpt lat="47.67543" lon="2.13214">
        <ele>128.39999389648</ele>
        <time>2015-12-10T10:05:12.000Z</time>
      </trkpt>
      <trkpt lat="47.67553" lon="2.13248">
        <ele>128</ele>
        <time>2015-12-10T10:05:16.000Z</time>
      </trkpt>
      <trkpt lat="47.67576" lon="2.13327">
        <ele>128</ele>
        <time>2015-12-10T10:05:25.000Z</time>
      </trkpt>
      <trkpt lat="47.67598" lon="2.13409">
        <ele>127.19999694824</ele>
        <time>2015-12-10T10:05:34.000Z</time>
      </trkpt>
      <trkpt lat="47.67619" lon="2.13489">
        <ele>130</ele>
        <time>2015-12-10T10:05:43.000Z</time>
      </trkpt>
      <trkpt lat="47.67641" lon="2.13569">
        <ele>129.19999694824</ele>
        <time>2015-12-10T10:05:52.000Z</time>
      </trkpt>
      <trkpt lat="47.67663" lon="2.13649">
        <ele>127.40000152588</ele>
        <time>2015-12-10T10:06:01.000Z</time>
      </trkpt>
      <trkpt lat="47.67685" lon="2.13728">
        <ele>127</ele>
        <time>2015-12-10T10:06:10.000Z</time>
      </trkpt>
      <trkpt lat="47.67708" lon="2.13806">
        <ele>127</ele>
        <time>2015-12-10T10:06:19.000Z</time>
      </trkpt>
      <trkpt lat="47.67731" lon="2.13887">
        <ele>127</ele>
        <time>2015-12-10T10:06:28.000Z</time>
      </trkpt>
      <trkpt lat="47.67751" lon="2.13971">
        <ele>128.39999389648</ele>
        <time>2015-12-10T10:06:37.000Z</time>
      </trkpt>
      <trkpt lat="47.67763" lon="2.14054">
        <ele>129.60000610352</ele>
        <time>2015-12-10T10:06:46.000Z</time>
      </trkpt>
      <trkpt lat="47.6777" lon="2.14104">
        <ele>129.60000610352</ele>
        <time>2015-12-10T10:06:52.000Z</time>
      </trkpt>
      <trkpt lat="47.67777" lon="2.1416">
        <ele>129</ele>
        <time>2015-12-10T10:06:59.000Z</time>
      </trkpt>
      <trkpt lat="47.67788" lon="2.14238">
        <ele>127.59999847412</ele>
        <time>2015-12-10T10:07:09.000Z</time>
      </trkpt>
      <trkpt lat="47.67792" lon="2.14276">
        <ele>127.59999847412</ele>
        <time>2015-12-10T10:07:14.000Z</time>
      </trkpt>
      <trkpt lat="47.67803" lon="2.14345">
        <ele>127</ele>
        <time>2015-12-10T10:07:23.000Z</time>
      </trkpt>
      <trkpt lat="47.67808" lon="2.14382">
        <ele>127</ele>
        <time>2015-12-10T10:07:28.000Z</time>
      </trkpt>
      <trkpt lat="47.67821" lon="2.1446">
        <ele>125.59999847412</ele>
        <time>2015-12-10T10:07:41.000Z</time>
      </trkpt>
      <trkpt lat="47.67832" lon="2.14527">
        <ele>125</ele>
        <time>2015-12-10T10:07:55.000Z</time>
      </trkpt>
      <trkpt lat="47.67846" lon="2.14542">
        <ele>124.80000305176</ele>
        <time>2015-12-10T10:07:59.000Z</time>
      </trkpt>
      <trkpt lat="47.67852" lon="2.14552">
        <ele>124.80000305176</ele>
        <time>2015-12-10T10:08:01.000Z</time>
      </trkpt>
      <trkpt lat="47.67861" lon="2.14577">
        <ele>124.80000305176</ele>
        <time>2015-12-10T10:08:05.000Z</time>
      </trkpt>
      <trkpt lat="47.67865" lon="2.14589">
        <ele>125</ele>
        <time>2015-12-10T10:08:07.000Z</time>
      </trkpt>
      <trkpt lat="47.67886" lon="2.14638">
        <ele>125.80000305176</ele>
        <time>2015-12-10T10:08:16.000Z</time>
      </trkpt>
      <trkpt lat="47.67901" lon="2.14655">
        <ele>126</ele>
        <time>2015-12-10T10:08:20.000Z</time>
      </trkpt>
      <trkpt lat="47.67924" lon="2.14675">
        <ele>126.19999694824</ele>
        <time>2015-12-10T10:08:26.000Z</time>
      </trkpt>
      <trkpt lat="47.67931" lon="2.14683">
        <ele>126.40000152588</ele>
        <time>2015-12-10T10:08:28.000Z</time>
      </trkpt>
      <trkpt lat="47.67957" lon="2.14712">
        <ele>126.80000305176</ele>
        <time>2015-12-10T10:08:36.000Z</time>
      </trkpt>
      <trkpt lat="47.68014" lon="2.1473">
        <ele>126.59999847412</ele>
        <time>2015-12-10T10:08:47.000Z</time>
      </trkpt>
      <trkpt lat="47.68068" lon="2.14747">
        <ele>125.59999847412</ele>
        <time>2015-12-10T10:08:56.000Z</time>
      </trkpt>
      <trkpt lat="47.68121" lon="2.14764">
        <ele>125.40000152588</ele>
        <time>2015-12-10T10:09:05.000Z</time>
      </trkpt>
      <trkpt lat="47.68174" lon="2.14783">
        <ele>125.19999694824</ele>
        <time>2015-12-10T10:09:14.000Z</time>
      </trkpt>
      <trkpt lat="47.68224" lon="2.14819">
        <ele>124.80000305176</ele>
        <time>2015-12-10T10:09:23.000Z</time>
      </trkpt>
      <trkpt lat="47.68273" lon="2.14855">
        <ele>125</ele>
        <time>2015-12-10T10:09:32.000Z</time>
      </trkpt>
      <trkpt lat="47.68318" lon="2.14878">
        <ele>125.80000305176</ele>
        <time>2015-12-10T10:09:40.000Z</time>
      </trkpt>
      <trkpt lat="47.68375" lon="2.14906">
        <ele>126</ele>
        <time>2015-12-10T10:09:50.000Z</time>
      </trkpt>
      <trkpt lat="47.6843" lon="2.14933">
        <ele>126</ele>
        <time>2015-12-10T10:10:00.000Z</time>
      </trkpt>
      <trkpt lat="47.68457" lon="2.14947">
        <ele>126.80000305176</ele>
        <time>2015-12-10T10:10:05.000Z</time>
      </trkpt>
      <trkpt lat="47.68512" lon="2.14968">
        <ele>128.60000610352</ele>
        <time>2015-12-10T10:10:15.000Z</time>
      </trkpt>
      <trkpt lat="47.68571" lon="2.14975">
        <ele>128.80000305176</ele>
        <time>2015-12-10T10:10:25.000Z</time>
      </trkpt>
      <trkpt lat="47.68628" lon="2.14973">
        <ele>128.39999389648</ele>
        <time>2015-12-10T10:10:34.000Z</time>
      </trkpt>
      <trkpt lat="47.68685" lon="2.14971">
        <ele>128</ele>
        <time>2015-12-10T10:10:43.000Z</time>
      </trkpt>
      <trkpt lat="47.68743" lon="2.14968">
        <ele>129</ele>
        <time>2015-12-10T10:10:52.000Z</time>
      </trkpt>
      <trkpt lat="47.68802" lon="2.14964">
        <ele>128.19999694824</ele>
        <time>2015-12-10T10:11:01.000Z</time>
      </trkpt>
      <trkpt lat="47.68861" lon="2.14962">
        <ele>127.19999694824</ele>
        <time>2015-12-10T10:11:10.000Z</time>
      </trkpt>
      <trkpt lat="47.68921" lon="2.14957">
        <ele>125.59999847412</ele>
        <time>2015-12-10T10:11:19.000Z</time>
      </trkpt>
      <trkpt lat="47.68975" lon="2.14955">
        <ele>129.19999694824</ele>
        <time>2015-12-10T10:11:28.000Z</time>
      </trkpt>
      <trkpt lat="47.68992" lon="2.14953">
        <ele>129.60000610352</ele>
        <time>2015-12-10T10:11:31.000Z</time>
      </trkpt>
      <trkpt lat="47.69046" lon="2.14941">
        <ele>130.19999694824</ele>
        <time>2015-12-10T10:11:41.000Z</time>
      </trkpt>
      <trkpt lat="47.69058" lon="2.14937">
        <ele>130</ele>
        <time>2015-12-10T10:11:43.000Z</time>
      </trkpt>
      <trkpt lat="47.6911" lon="2.14915">
        <ele>129.60000610352</ele>
        <time>2015-12-10T10:11:52.000Z</time>
      </trkpt>
      <trkpt lat="47.69166" lon="2.14885">
        <ele>132</ele>
        <time>2015-12-10T10:12:02.000Z</time>
      </trkpt>
      <trkpt lat="47.69203" lon="2.14868">
        <ele>132.19999694824</ele>
        <time>2015-12-10T10:12:09.000Z</time>
      </trkpt>
      <trkpt lat="47.69257" lon="2.14842">
        <ele>131.80000305176</ele>
        <time>2015-12-10T10:12:19.000Z</time>
      </trkpt>
      <trkpt lat="47.69313" lon="2.14813">
        <ele>131.80000305176</ele>
        <time>2015-12-10T10:12:29.000Z</time>
      </trkpt>
      <trkpt lat="47.69366" lon="2.14785">
        <ele>129.19999694824</ele>
        <time>2015-12-10T10:12:38.000Z</time>
      </trkpt>
      <trkpt lat="47.69418" lon="2.1476">
        <ele>127</ele>
        <time>2015-12-10T10:12:47.000Z</time>
      </trkpt>
      <trkpt lat="47.69469" lon="2.14734">
        <ele>127</ele>
        <time>2015-12-10T10:12:56.000Z</time>
      </trkpt>
      <trkpt lat="47.69523" lon="2.14706">
        <ele>127.40000152588</ele>
        <time>2015-12-10T10:13:06.000Z</time>
      </trkpt>
      <trkpt lat="47.69579" lon="2.14678">
        <ele>127.59999847412</ele>
        <time>2015-12-10T10:13:16.000Z</time>
      </trkpt>
      <trkpt lat="47.69634" lon="2.1465">
        <ele>128.80000305176</ele>
        <time>2015-12-10T10:13:26.000Z</time>
      </trkpt>
      <trkpt lat="47.69688" lon="2.14623">
        <ele>129</ele>
        <time>2015-12-10T10:13:36.000Z</time>
      </trkpt>
      <trkpt lat="47.69739" lon="2.14597">
        <ele>127.19999694824</ele>
        <time>2015-12-10T10:13:45.000Z</time>
      </trkpt>
      <trkpt lat="47.69792" lon="2.14571">
        <ele>126.19999694824</ele>
        <time>2015-12-10T10:13:54.000Z</time>
      </trkpt>
      <trkpt lat="47.69843" lon="2.14545">
        <ele>127</ele>
        <time>2015-12-10T10:14:03.000Z</time>
      </trkpt>
      <trkpt lat="47.699" lon="2.14516">
        <ele>129.19999694824</ele>
        <time>2015-12-10T10:14:13.000Z</time>
      </trkpt>
      <trkpt lat="47.69956" lon="2.14487">
        <ele>129.39999389648</ele>
        <time>2015-12-10T10:14:22.000Z</time>
      </trkpt>
      <trkpt lat="47.70009" lon="2.1446">
        <ele>128</ele>
        <time>2015-12-10T10:14:30.000Z</time>
      </trkpt>
      <trkpt lat="47.70061" lon="2.14433">
        <ele>126.80000305176</ele>
        <time>2015-12-10T10:14:38.000Z</time>
      </trkpt>
      <trkpt lat="47.70113" lon="2.14407">
        <ele>125.59999847412</ele>
        <time>2015-12-10T10:14:46.000Z</time>
      </trkpt>
      <trkpt lat="47.70165" lon="2.14381">
        <ele>125.19999694824</ele>
        <time>2015-12-10T10:14:54.000Z</time>
      </trkpt>
      <trkpt lat="47.70219" lon="2.14354">
        <ele>126</ele>
        <time>2015-12-10T10:15:02.000Z</time>
      </trkpt>
      <trkpt lat="47.7027" lon="2.14328">
        <ele>125.40000152588</ele>
        <time>2015-12-10T10:15:09.000Z</time>
      </trkpt>
      <trkpt lat="47.70323" lon="2.143">
        <ele>123.40000152588</ele>
        <time>2015-12-10T10:15:16.000Z</time>
      </trkpt>
      <trkpt lat="47.70376" lon="2.14273">
        <ele>122</ele>
        <time>2015-12-10T10:15:23.000Z</time>
      </trkpt>
      <trkpt lat="47.70429" lon="2.14246">
        <ele>121</ele>
        <time>2015-12-10T10:15:30.000Z</time>
      </trkpt>
      <trkpt lat="47.70481" lon="2.14219">
        <ele>121.19999694824</ele>
        <time>2015-12-10T10:15:37.000Z</time>
      </trkpt>
      <trkpt lat="47.70535" lon="2.14192">
        <ele>120.40000152588</ele>
        <time>2015-12-10T10:15:45.000Z</time>
      </trkpt>
      <trkpt lat="47.70591" lon="2.14163">
        <ele>120</ele>
        <time>2015-12-10T10:15:54.000Z</time>
      </trkpt>
      <trkpt lat="47.70643" lon="2.14138">
        <ele>120.19999694824</ele>
        <time>2015-12-10T10:16:02.000Z</time>
      </trkpt>
      <trkpt lat="47.70696" lon="2.14112">
        <ele>121</ele>
        <time>2015-12-10T10:16:10.000Z</time>
      </trkpt>
      <trkpt lat="47.70753" lon="2.14084">
        <ele>121.19999694824</ele>
        <time>2015-12-10T10:16:19.000Z</time>
      </trkpt>
      <trkpt lat="47.70808" lon="2.14056">
        <ele>121.59999847412</ele>
        <time>2015-12-10T10:16:28.000Z</time>
      </trkpt>
      <trkpt lat="47.7082" lon="2.1405">
        <ele>121.59999847412</ele>
        <time>2015-12-10T10:16:30.000Z</time>
      </trkpt>
      <trkpt lat="47.70873" lon="2.14024">
        <ele>121.19999694824</ele>
        <time>2015-12-10T10:16:39.000Z</time>
      </trkpt>
      <trkpt lat="47.70927" lon="2.13995">
        <ele>123</ele>
        <time>2015-12-10T10:16:49.000Z</time>
      </trkpt>
      <trkpt lat="47.7098" lon="2.13966">
        <ele>123.19999694824</ele>
        <time>2015-12-10T10:17:00.000Z</time>
      </trkpt>
      <trkpt lat="47.71036" lon="2.13937">
        <ele>125</ele>
        <time>2015-12-10T10:17:11.000Z</time>
      </trkpt>
      <trkpt lat="47.7109" lon="2.1391">
        <ele>125</ele>
        <time>2015-12-10T10:17:21.000Z</time>
      </trkpt>
      <trkpt lat="47.71143" lon="2.13883">
        <ele>125</ele>
        <time>2015-12-10T10:17:31.000Z</time>
      </trkpt>
      <trkpt lat="47.71197" lon="2.13855">
        <ele>125.59999847412</ele>
        <time>2015-12-10T10:17:41.000Z</time>
      </trkpt>
      <trkpt lat="47.71252" lon="2.13827">
        <ele>123</ele>
        <time>2015-12-10T10:17:51.000Z</time>
      </trkpt>
      <trkpt lat="47.71307" lon="2.13799">
        <ele>123.40000152588</ele>
        <time>2015-12-10T10:18:01.000Z</time>
      </trkpt>
      <trkpt lat="47.71359" lon="2.13773">
        <ele>125</ele>
        <time>2015-12-10T10:18:11.000Z</time>
      </trkpt>
      <trkpt lat="47.71415" lon="2.13746">
        <ele>125</ele>
        <time>2015-12-10T10:18:21.000Z</time>
      </trkpt>
      <trkpt lat="47.71471" lon="2.13717">
        <ele>125.40000152588</ele>
        <time>2015-12-10T10:18:31.000Z</time>
      </trkpt>
      <trkpt lat="47.71526" lon="2.1369">
        <ele>126</ele>
        <time>2015-12-10T10:18:41.000Z</time>
      </trkpt>
      <trkpt lat="47.71579" lon="2.13663">
        <ele>126.80000305176</ele>
        <time>2015-12-10T10:18:51.000Z</time>
      </trkpt>
      <trkpt lat="47.71633" lon="2.13636">
        <ele>127.19999694824</ele>
        <time>2015-12-10T10:19:01.000Z</time>
      </trkpt>
      <trkpt lat="47.71689" lon="2.13609">
        <ele>127.40000152588</ele>
        <time>2015-12-10T10:19:11.000Z</time>
      </trkpt>
      <trkpt lat="47.71745" lon="2.13582">
        <ele>127.19999694824</ele>
        <time>2015-12-10T10:19:21.000Z</time>
      </trkpt>
      <trkpt lat="47.71799" lon="2.13555">
        <ele>127.80000305176</ele>
        <time>2015-12-10T10:19:31.000Z</time>
      </trkpt>
      <trkpt lat="47.71852" lon="2.13529">
        <ele>128.60000610352</ele>
        <time>2015-12-10T10:19:41.000Z</time>
      </trkpt>
      <trkpt lat="47.71907" lon="2.135">
        <ele>129.80000305176</ele>
        <time>2015-12-10T10:19:52.000Z</time>
      </trkpt>
      <trkpt lat="47.71959" lon="2.13473">
        <ele>129.80000305176</ele>
        <time>2015-12-10T10:20:03.000Z</time>
      </trkpt>
      <trkpt lat="47.72015" lon="2.13444">
        <ele>127.59999847412</ele>
        <time>2015-12-10T10:20:14.000Z</time>
      </trkpt>
      <trkpt lat="47.7207" lon="2.13416">
        <ele>127</ele>
        <time>2015-12-10T10:20:24.000Z</time>
      </trkpt>
      <trkpt lat="47.72125" lon="2.13389">
        <ele>126.80000305176</ele>
        <time>2015-12-10T10:20:34.000Z</time>
      </trkpt>
      <trkpt lat="47.72182" lon="2.1336">
        <ele>127.19999694824</ele>
        <time>2015-12-10T10:20:44.000Z</time>
      </trkpt>
      <trkpt lat="47.72236" lon="2.13332">
        <ele>127.80000305176</ele>
        <time>2015-12-10T10:20:55.000Z</time>
      </trkpt>
      <trkpt lat="47.7229" lon="2.13304">
        <ele>129.80000305176</ele>
        <time>2015-12-10T10:21:06.000Z</time>
      </trkpt>
      <trkpt lat="47.72295" lon="2.13302">
        <ele>130</ele>
        <time>2015-12-10T10:21:07.000Z</time>
      </trkpt>
      <trkpt lat="47.72346" lon="2.13275">
        <ele>131.39999389648</ele>
        <time>2015-12-10T10:21:18.000Z</time>
      </trkpt>
      <trkpt lat="47.724" lon="2.13249">
        <ele>133.80000305176</ele>
        <time>2015-12-10T10:21:30.000Z</time>
      </trkpt>
      <trkpt lat="47.72404" lon="2.13247">
        <ele>134</ele>
        <time>2015-12-10T10:21:31.000Z</time>
      </trkpt>
      <trkpt lat="47.72457" lon="2.13222">
        <ele>136</ele>
        <time>2015-12-10T10:21:44.000Z</time>
      </trkpt>
      <trkpt lat="47.7251" lon="2.13195">
        <ele>138</ele>
        <time>2015-12-10T10:21:58.000Z</time>
      </trkpt>
      <trkpt lat="47.72563" lon="2.13168">
        <ele>140.60000610352</ele>
        <time>2015-12-10T10:22:12.000Z</time>
      </trkpt>
      <trkpt lat="47.7259" lon="2.13155">
        <ele>142</ele>
        <time>2015-12-10T10:22:19.000Z</time>
      </trkpt>
      <trkpt lat="47.72642" lon="2.13128">
        <ele>141</ele>
        <time>2015-12-10T10:22:32.000Z</time>
      </trkpt>
      <trkpt lat="47.72681" lon="2.13108">
        <ele>140.39999389648</ele>
        <time>2015-12-10T10:22:41.000Z</time>
      </trkpt>
      <trkpt lat="47.72736" lon="2.13081">
        <ele>140</ele>
        <time>2015-12-10T10:22:52.000Z</time>
      </trkpt>
      <trkpt lat="47.7279" lon="2.13054">
        <ele>141.19999694824</ele>
        <time>2015-12-10T10:23:03.000Z</time>
      </trkpt>
      <trkpt lat="47.72843" lon="2.13028">
        <ele>142.80000305176</ele>
        <time>2015-12-10T10:23:14.000Z</time>
      </trkpt>
      <trkpt lat="47.72895" lon="2.13002">
        <ele>143.39999389648</ele>
        <time>2015-12-10T10:23:25.000Z</time>
      </trkpt>
      <trkpt lat="47.7295" lon="2.12975">
        <ele>144.19999694824</ele>
        <time>2015-12-10T10:23:36.000Z</time>
      </trkpt>
      <trkpt lat="47.72971" lon="2.12964">
        <ele>144.39999389648</ele>
        <time>2015-12-10T10:23:40.000Z</time>
      </trkpt>
      <trkpt lat="47.73023" lon="2.12937">
        <ele>145.19999694824</ele>
        <time>2015-12-10T10:23:50.000Z</time>
      </trkpt>
      <trkpt lat="47.73039" lon="2.1293">
        <ele>145.60000610352</ele>
        <time>2015-12-10T10:23:53.000Z</time>
      </trkpt>
      <trkpt lat="47.73094" lon="2.12903">
        <ele>146.60000610352</ele>
        <time>2015-12-10T10:24:03.000Z</time>
      </trkpt>
      <trkpt lat="47.73116" lon="2.12898">
        <ele>145.60000610352</ele>
        <time>2015-12-10T10:24:07.000Z</time>
      </trkpt>
      <trkpt lat="47.73127" lon="2.12899">
        <ele>145.19999694824</ele>
        <time>2015-12-10T10:24:09.000Z</time>
      </trkpt>
      <trkpt lat="47.73143" lon="2.12903">
        <ele>144.80000305176</ele>
        <time>2015-12-10T10:24:12.000Z</time>
      </trkpt>
      <trkpt lat="47.73177" lon="2.12918">
        <ele>143.80000305176</ele>
        <time>2015-12-10T10:24:18.000Z</time>
      </trkpt>
      <trkpt lat="47.73231" lon="2.12941">
        <ele>142.19999694824</ele>
        <time>2015-12-10T10:24:27.000Z</time>
      </trkpt>
      <trkpt lat="47.73247" lon="2.12949">
        <ele>141.60000610352</ele>
        <time>2015-12-10T10:24:30.000Z</time>
      </trkpt>
      <trkpt lat="47.73303" lon="2.1297">
        <ele>140.80000305176</ele>
        <time>2015-12-10T10:24:40.000Z</time>
      </trkpt>
      <trkpt lat="47.73356" lon="2.12983">
        <ele>139.39999389648</ele>
        <time>2015-12-10T10:24:49.000Z</time>
      </trkpt>
      <trkpt lat="47.73416" lon="2.12998">
        <ele>137.39999389648</ele>
        <time>2015-12-10T10:24:58.000Z</time>
      </trkpt>
      <trkpt lat="47.73474" lon="2.1302">
        <ele>132.80000305176</ele>
        <time>2015-12-10T10:25:07.000Z</time>
      </trkpt>
      <trkpt lat="47.7353" lon="2.13042">
        <ele>130.39999389648</ele>
        <time>2015-12-10T10:25:16.000Z</time>
      </trkpt>
      <trkpt lat="47.73586" lon="2.13065">
        <ele>130.60000610352</ele>
        <time>2015-12-10T10:25:25.000Z</time>
      </trkpt>
      <trkpt lat="47.73642" lon="2.13087">
        <ele>130.39999389648</ele>
        <time>2015-12-10T10:25:34.000Z</time>
      </trkpt>
      <trkpt lat="47.73698" lon="2.13111">
        <ele>130</ele>
        <time>2015-12-10T10:25:43.000Z</time>
      </trkpt>
      <trkpt lat="47.73751" lon="2.13131">
        <ele>130.39999389648</ele>
        <time>2015-12-10T10:25:52.000Z</time>
      </trkpt>
      <trkpt lat="47.73804" lon="2.13153">
        <ele>130</ele>
        <time>2015-12-10T10:26:01.000Z</time>
      </trkpt>
      <trkpt lat="47.73862" lon="2.13177">
        <ele>129.60000610352</ele>
        <time>2015-12-10T10:26:11.000Z</time>
      </trkpt>
      <trkpt lat="47.73919" lon="2.132">
        <ele>128.60000610352</ele>
        <time>2015-12-10T10:26:21.000Z</time>
      </trkpt>
      <trkpt lat="47.73974" lon="2.1322">
        <ele>127.59999847412</ele>
        <time>2015-12-10T10:26:31.000Z</time>
      </trkpt>
      <trkpt lat="47.7399" lon="2.13225">
        <ele>127.40000152588</ele>
        <time>2015-12-10T10:26:37.000Z</time>
      </trkpt>
      <trkpt lat="47.73995" lon="2.13225">
        <ele>127.19999694824</ele>
        <time>2015-12-10T10:27:21.000Z</time>
      </trkpt>
      <trkpt lat="47.73998" lon="2.13227">
        <ele>127.19999694824</ele>
        <time>2015-12-10T10:27:24.000Z</time>
      </trkpt>
      <trkpt lat="47.73999" lon="2.13227">
        <ele>127.19999694824</ele>
        <time>2015-12-10T10:27:26.000Z</time>
      </trkpt>
      <trkpt lat="47.74054" lon="2.13238">
        <ele>127.59999847412</ele>
        <time>2015-12-10T10:27:41.000Z</time>
      </trkpt>
      <trkpt lat="47.74113" lon="2.13248">
        <ele>128.39999389648</ele>
        <time>2015-12-10T10:27:52.000Z</time>
      </trkpt>
      <trkpt lat="47.7417" lon="2.13258">
        <ele>129.19999694824</ele>
        <time>2015-12-10T10:28:02.000Z</time>
      </trkpt>
      <trkpt lat="47.74229" lon="2.13269">
        <ele>129.60000610352</ele>
        <time>2015-12-10T10:28:12.000Z</time>
      </trkpt>
      <trkpt lat="47.74283" lon="2.13281">
        <ele>130.19999694824</ele>
        <time>2015-12-10T10:28:21.000Z</time>
      </trkpt>
      <trkpt lat="47.74336" lon="2.13294">
        <ele>133.80000305176</ele>
        <time>2015-12-10T10:28:30.000Z</time>
      </trkpt>
      <trkpt lat="47.74391" lon="2.13307">
        <ele>132.60000610352</ele>
        <time>2015-12-10T10:28:39.000Z</time>
      </trkpt>
      <trkpt lat="47.74444" lon="2.13318">
        <ele>132</ele>
        <time>2015-12-10T10:28:48.000Z</time>
      </trkpt>
      <trkpt lat="47.74468" lon="2.13323">
        <ele>131.80000305176</ele>
        <time>2015-12-10T10:28:52.000Z</time>
      </trkpt>
      <trkpt lat="47.74527" lon="2.13336">
        <ele>131.60000610352</ele>
        <time>2015-12-10T10:29:02.000Z</time>
      </trkpt>
      <trkpt lat="47.7458" lon="2.13348">
        <ele>130.60000610352</ele>
        <time>2015-12-10T10:29:11.000Z</time>
      </trkpt>
      <trkpt lat="47.74637" lon="2.13367">
        <ele>131.19999694824</ele>
        <time>2015-12-10T10:29:21.000Z</time>
      </trkpt>
      <trkpt lat="47.74689" lon="2.13389">
        <ele>131</ele>
        <time>2015-12-10T10:29:31.000Z</time>
      </trkpt>
      <trkpt lat="47.74741" lon="2.13414">
        <ele>130.39999389648</ele>
        <time>2015-12-10T10:29:41.000Z</time>
      </trkpt>
      <trkpt lat="47.74794" lon="2.13445">
        <ele>132.19999694824</ele>
        <time>2015-12-10T10:29:52.000Z</time>
      </trkpt>
      <trkpt lat="47.74844" lon="2.13485">
        <ele>134.60000610352</ele>
        <time>2015-12-10T10:30:03.000Z</time>
      </trkpt>
      <trkpt lat="47.74897" lon="2.13504">
        <ele>133.80000305176</ele>
        <time>2015-12-10T10:30:13.000Z</time>
      </trkpt>
      <trkpt lat="47.74955" lon="2.13518">
        <ele>133.19999694824</ele>
        <time>2015-12-10T10:30:24.000Z</time>
      </trkpt>
      <trkpt lat="47.7501" lon="2.13532">
        <ele>132.80000305176</ele>
        <time>2015-12-10T10:30:35.000Z</time>
      </trkpt>
      <trkpt lat="47.75063" lon="2.13548">
        <ele>131</ele>
        <time>2015-12-10T10:30:46.000Z</time>
      </trkpt>
      <trkpt lat="47.75119" lon="2.13562">
        <ele>129.60000610352</ele>
        <time>2015-12-10T10:30:58.000Z</time>
      </trkpt>
      <trkpt lat="47.75177" lon="2.13575">
        <ele>129</ele>
        <time>2015-12-10T10:31:12.000Z</time>
      </trkpt>
      <trkpt lat="47.75234" lon="2.13586">
        <ele>129.19999694824</ele>
        <time>2015-12-10T10:31:22.000Z</time>
      </trkpt>
      <trkpt lat="47.75264" lon="2.13592">
        <ele>129.60000610352</ele>
        <time>2015-12-10T10:31:27.000Z</time>
      </trkpt>
      <trkpt lat="47.75319" lon="2.13579">
        <ele>130.60000610352</ele>
        <time>2015-12-10T10:31:36.000Z</time>
      </trkpt>
      <trkpt lat="47.75374" lon="2.13561">
        <ele>129.80000305176</ele>
        <time>2015-12-10T10:31:46.000Z</time>
      </trkpt>
      <trkpt lat="47.75384" lon="2.13557">
        <ele>129.39999389648</ele>
        <time>2015-12-10T10:31:48.000Z</time>
      </trkpt>
      <trkpt lat="47.75412" lon="2.13546">
        <ele>129.39999389648</ele>
        <time>2015-12-10T10:31:54.000Z</time>
      </trkpt>
      <trkpt lat="47.75457" lon="2.13533">
        <ele>129.39999389648</ele>
        <time>2015-12-10T10:32:07.000Z</time>
      </trkpt>
      <trkpt lat="47.75458" lon="2.13533">
        <ele>129.39999389648</ele>
        <time>2015-12-10T10:32:09.000Z</time>
      </trkpt>
      <trkpt lat="47.75462" lon="2.13534">
        <ele>129.39999389648</ele>
        <time>2015-12-10T10:33:51.000Z</time>
      </trkpt>
      <trkpt lat="47.75494" lon="2.13601">
        <ele>130</ele>
        <time>2015-12-10T10:34:12.000Z</time>
      </trkpt>
      <trkpt lat="47.75523" lon="2.13671">
        <ele>129.80000305176</ele>
        <time>2015-12-10T10:34:24.000Z</time>
      </trkpt>
      <trkpt lat="47.75553" lon="2.13739">
        <ele>129.19999694824</ele>
        <time>2015-12-10T10:34:35.000Z</time>
      </trkpt>
      <trkpt lat="47.75582" lon="2.13808">
        <ele>130.60000610352</ele>
        <time>2015-12-10T10:34:46.000Z</time>
      </trkpt>
      <trkpt lat="47.75612" lon="2.13877">
        <ele>132.39999389648</ele>
        <time>2015-12-10T10:34:57.000Z</time>
      </trkpt>
      <trkpt lat="47.75642" lon="2.13947">
        <ele>134</ele>
        <time>2015-12-10T10:35:08.000Z</time>
      </trkpt>
      <trkpt lat="47.75673" lon="2.14019">
        <ele>134.80000305176</ele>
        <time>2015-12-10T10:35:19.000Z</time>
      </trkpt>
      <trkpt lat="47.75703" lon="2.14091">
        <ele>134.80000305176</ele>
        <time>2015-12-10T10:35:31.000Z</time>
      </trkpt>
      <trkpt lat="47.75733" lon="2.1416">
        <ele>134.60000610352</ele>
        <time>2015-12-10T10:35:42.000Z</time>
      </trkpt>
      <trkpt lat="47.75763" lon="2.14227">
        <ele>136</ele>
        <time>2015-12-10T10:35:53.000Z</time>
      </trkpt>
      <trkpt lat="47.75793" lon="2.14298">
        <ele>136.80000305176</ele>
        <time>2015-12-10T10:36:05.000Z</time>
      </trkpt>
      <trkpt lat="47.75823" lon="2.14368">
        <ele>137.39999389648</ele>
        <time>2015-12-10T10:36:16.000Z</time>
      </trkpt>
      <trkpt lat="47.75853" lon="2.14438">
        <ele>138.19999694824</ele>
        <time>2015-12-10T10:36:27.000Z</time>
      </trkpt>
      <trkpt lat="47.75882" lon="2.14508">
        <ele>138.60000610352</ele>
        <time>2015-12-10T10:36:38.000Z</time>
      </trkpt>
      <trkpt lat="47.75913" lon="2.14581">
        <ele>139</ele>
        <time>2015-12-10T10:36:49.000Z</time>
      </trkpt>
      <trkpt lat="47.75943" lon="2.1465">
        <ele>139.60000610352</ele>
        <time>2015-12-10T10:37:00.000Z</time>
      </trkpt>
      <trkpt lat="47.75975" lon="2.14721">
        <ele>141.19999694824</ele>
        <time>2015-12-10T10:37:12.000Z</time>
      </trkpt>
      <trkpt lat="47.75993" lon="2.14767">
        <ele>142</ele>
        <time>2015-12-10T10:37:20.000Z</time>
      </trkpt>
      <trkpt lat="47.76023" lon="2.14836">
        <ele>142.80000305176</ele>
        <time>2015-12-10T10:37:33.000Z</time>
      </trkpt>
      <trkpt lat="47.76037" lon="2.14872">
        <ele>143.80000305176</ele>
        <time>2015-12-10T10:37:40.000Z</time>
      </trkpt>
      <trkpt lat="47.76052" lon="2.1491">
        <ele>145.19999694824</ele>
        <time>2015-12-10T10:37:48.000Z</time>
      </trkpt>
      <trkpt lat="47.76071" lon="2.14953">
        <ele>146.60000610352</ele>
        <time>2015-12-10T10:37:56.000Z</time>
      </trkpt>
      <trkpt lat="47.76086" lon="2.14984">
        <ele>147.80000305176</ele>
        <time>2015-12-10T10:38:02.000Z</time>
      </trkpt>
      <trkpt lat="47.76112" lon="2.15041">
        <ele>148.19999694824</ele>
        <time>2015-12-10T10:38:13.000Z</time>
      </trkpt>
      <trkpt lat="47.76122" lon="2.15066">
        <ele>148.39999389648</ele>
        <time>2015-12-10T10:38:18.000Z</time>
      </trkpt>
      <trkpt lat="47.76138" lon="2.15102">
        <ele>148.39999389648</ele>
        <time>2015-12-10T10:38:25.000Z</time>
      </trkpt>
      <trkpt lat="47.76152" lon="2.15137">
        <ele>148.39999389648</ele>
        <time>2015-12-10T10:38:31.000Z</time>
      </trkpt>
      <trkpt lat="47.76164" lon="2.15166">
        <ele>147.80000305176</ele>
        <time>2015-12-10T10:38:36.000Z</time>
      </trkpt>
      <trkpt lat="47.76175" lon="2.15194">
        <ele>146.80000305176</ele>
        <time>2015-12-10T10:38:41.000Z</time>
      </trkpt>
      <trkpt lat="47.762" lon="2.15271">
        <ele>143.39999389648</ele>
        <time>2015-12-10T10:38:53.000Z</time>
      </trkpt>
      <trkpt lat="47.76203" lon="2.15353">
        <ele>141.80000305176</ele>
        <time>2015-12-10T10:39:04.000Z</time>
      </trkpt>
      <trkpt lat="47.76198" lon="2.15439">
        <ele>142.60000610352</ele>
        <time>2015-12-10T10:39:16.000Z</time>
      </trkpt>
      <trkpt lat="47.76195" lon="2.15519">
        <ele>143.80000305176</ele>
        <time>2015-12-10T10:39:27.000Z</time>
      </trkpt>
      <trkpt lat="47.76193" lon="2.15601">
        <ele>144.80000305176</ele>
        <time>2015-12-10T10:39:38.000Z</time>
      </trkpt>
      <trkpt lat="47.7619" lon="2.15686">
        <ele>146</ele>
        <time>2015-12-10T10:39:49.000Z</time>
      </trkpt>
      <trkpt lat="47.762" lon="2.15771">
        <ele>146.60000610352</ele>
        <time>2015-12-10T10:40:00.000Z</time>
      </trkpt>
      <trkpt lat="47.76224" lon="2.1585">
        <ele>145</ele>
        <time>2015-12-10T10:40:11.000Z</time>
      </trkpt>
      <trkpt lat="47.76249" lon="2.15929">
        <ele>143.80000305176</ele>
        <time>2015-12-10T10:40:22.000Z</time>
      </trkpt>
      <trkpt lat="47.76265" lon="2.15983">
        <ele>143.19999694824</ele>
        <time>2015-12-10T10:40:29.000Z</time>
      </trkpt>
      <trkpt lat="47.76287" lon="2.1606">
        <ele>143</ele>
        <time>2015-12-10T10:40:39.000Z</time>
      </trkpt>
      <trkpt lat="47.7631" lon="2.16139">
        <ele>143</ele>
        <time>2015-12-10T10:40:50.000Z</time>
      </trkpt>
      <trkpt lat="47.76337" lon="2.16213">
        <ele>144.80000305176</ele>
        <time>2015-12-10T10:41:01.000Z</time>
      </trkpt>
      <trkpt lat="47.76343" lon="2.16226">
        <ele>145.19999694824</ele>
        <time>2015-12-10T10:41:03.000Z</time>
      </trkpt>
      <trkpt lat="47.76351" lon="2.16246">
        <ele>145.60000610352</ele>
        <time>2015-12-10T10:41:06.000Z</time>
      </trkpt>
      <trkpt lat="47.76364" lon="2.1628">
        <ele>145.60000610352</ele>
        <time>2015-12-10T10:41:11.000Z</time>
      </trkpt>
      <trkpt lat="47.76395" lon="2.16352">
        <ele>145.80000305176</ele>
        <time>2015-12-10T10:41:22.000Z</time>
      </trkpt>
      <trkpt lat="47.76427" lon="2.16426">
        <ele>146.19999694824</ele>
        <time>2015-12-10T10:41:33.000Z</time>
      </trkpt>
      <trkpt lat="47.76458" lon="2.16498">
        <ele>146.60000610352</ele>
        <time>2015-12-10T10:41:44.000Z</time>
      </trkpt>
      <trkpt lat="47.7648" lon="2.16551">
        <ele>146.19999694824</ele>
        <time>2015-12-10T10:41:52.000Z</time>
      </trkpt>
      <trkpt lat="47.7649" lon="2.16578">
        <ele>146.39999389648</ele>
        <time>2015-12-10T10:41:56.000Z</time>
      </trkpt>
      <trkpt lat="47.76511" lon="2.16628">
        <ele>147</ele>
        <time>2015-12-10T10:42:03.000Z</time>
      </trkpt>
      <trkpt lat="47.76541" lon="2.16701">
        <ele>147.19999694824</ele>
        <time>2015-12-10T10:42:14.000Z</time>
      </trkpt>
      <trkpt lat="47.76571" lon="2.16769">
        <ele>146.39999389648</ele>
        <time>2015-12-10T10:42:24.000Z</time>
      </trkpt>
      <trkpt lat="47.76601" lon="2.16842">
        <ele>145.60000610352</ele>
        <time>2015-12-10T10:42:35.000Z</time>
      </trkpt>
      <trkpt lat="47.76632" lon="2.16914">
        <ele>145</ele>
        <time>2015-12-10T10:42:46.000Z</time>
      </trkpt>
      <trkpt lat="47.76663" lon="2.16988">
        <ele>146</ele>
        <time>2015-12-10T10:42:57.000Z</time>
      </trkpt>
      <trkpt lat="47.76677" lon="2.17019">
        <ele>146.80000305176</ele>
        <time>2015-12-10T10:43:02.000Z</time>
      </trkpt>
      <trkpt lat="47.76687" lon="2.1704">
        <ele>147.19999694824</ele>
        <time>2015-12-10T10:43:06.000Z</time>
      </trkpt>
      <trkpt lat="47.76692" lon="2.1705">
        <ele>147.39999389648</ele>
        <time>2015-12-10T10:43:08.000Z</time>
      </trkpt>
      <trkpt lat="47.76739" lon="2.17104">
        <ele>146.80000305176</ele>
        <time>2015-12-10T10:43:20.000Z</time>
      </trkpt>
      <trkpt lat="47.76783" lon="2.17156">
        <ele>144.19999694824</ele>
        <time>2015-12-10T10:43:30.000Z</time>
      </trkpt>
      <trkpt lat="47.76829" lon="2.17207">
        <ele>142.39999389648</ele>
        <time>2015-12-10T10:43:40.000Z</time>
      </trkpt>
      <trkpt lat="47.76863" lon="2.17249">
        <ele>142.39999389648</ele>
        <time>2015-12-10T10:43:48.000Z</time>
      </trkpt>
      <trkpt lat="47.7691" lon="2.173">
        <ele>142.80000305176</ele>
        <time>2015-12-10T10:43:58.000Z</time>
      </trkpt>
      <trkpt lat="47.76938" lon="2.17329">
        <ele>143.19999694824</ele>
        <time>2015-12-10T10:44:04.000Z</time>
      </trkpt>
      <trkpt lat="47.76983" lon="2.17382">
        <ele>143.80000305176</ele>
        <time>2015-12-10T10:44:14.000Z</time>
      </trkpt>
      <trkpt lat="47.77019" lon="2.17435">
        <ele>144.39999389648</ele>
        <time>2015-12-10T10:44:23.000Z</time>
      </trkpt>
      <trkpt lat="47.77052" lon="2.17503">
        <ele>145.60000610352</ele>
        <time>2015-12-10T10:44:33.000Z</time>
      </trkpt>
      <trkpt lat="47.77076" lon="2.17577">
        <ele>146.19999694824</ele>
        <time>2015-12-10T10:44:43.000Z</time>
      </trkpt>
      <trkpt lat="47.77093" lon="2.1764">
        <ele>146.60000610352</ele>
        <time>2015-12-10T10:44:51.000Z</time>
      </trkpt>
      <trkpt lat="47.77118" lon="2.17718">
        <ele>145</ele>
        <time>2015-12-10T10:45:02.000Z</time>
      </trkpt>
      <trkpt lat="47.77128" lon="2.17737">
        <ele>144.19999694824</ele>
        <time>2015-12-10T10:45:05.000Z</time>
      </trkpt>
      <trkpt lat="47.77164" lon="2.1776">
        <ele>143.39999389648</ele>
        <time>2015-12-10T10:45:12.000Z</time>
      </trkpt>
      <trkpt lat="47.77202" lon="2.17774">
        <ele>142.60000610352</ele>
        <time>2015-12-10T10:45:19.000Z</time>
      </trkpt>
      <trkpt lat="47.77258" lon="2.17794">
        <ele>142</ele>
        <time>2015-12-10T10:45:29.000Z</time>
      </trkpt>
      <trkpt lat="47.77315" lon="2.17814">
        <ele>141.19999694824</ele>
        <time>2015-12-10T10:45:39.000Z</time>
      </trkpt>
      <trkpt lat="47.7737" lon="2.17833">
        <ele>141</ele>
        <time>2015-12-10T10:45:48.000Z</time>
      </trkpt>
      <trkpt lat="47.77428" lon="2.17853">
        <ele>140.80000305176</ele>
        <time>2015-12-10T10:45:57.000Z</time>
      </trkpt>
      <trkpt lat="47.77483" lon="2.17875">
        <ele>142</ele>
        <time>2015-12-10T10:46:06.000Z</time>
      </trkpt>
      <trkpt lat="47.77533" lon="2.1791">
        <ele>142.39999389648</ele>
        <time>2015-12-10T10:46:15.000Z</time>
      </trkpt>
      <trkpt lat="47.77581" lon="2.17948">
        <ele>142.39999389648</ele>
        <time>2015-12-10T10:46:24.000Z</time>
      </trkpt>
      <trkpt lat="47.77586" lon="2.17953">
        <ele>142.39999389648</ele>
        <time>2015-12-10T10:46:25.000Z</time>
      </trkpt>
      <trkpt lat="47.77634" lon="2.18002">
        <ele>142</ele>
        <time>2015-12-10T10:46:34.000Z</time>
      </trkpt>
      <trkpt lat="47.77676" lon="2.18062">
        <ele>141</ele>
        <time>2015-12-10T10:46:43.000Z</time>
      </trkpt>
      <trkpt lat="47.77713" lon="2.18131">
        <ele>139.19999694824</ele>
        <time>2015-12-10T10:46:53.000Z</time>
      </trkpt>
      <trkpt lat="47.77746" lon="2.18199">
        <ele>139.19999694824</ele>
        <time>2015-12-10T10:47:02.000Z</time>
      </trkpt>
      <trkpt lat="47.7778" lon="2.18264">
        <ele>140</ele>
        <time>2015-12-10T10:47:11.000Z</time>
      </trkpt>
      <trkpt lat="47.77784" lon="2.1827">
        <ele>140</ele>
        <time>2015-12-10T10:47:12.000Z</time>
      </trkpt>
      <trkpt lat="47.77798" lon="2.18284">
        <ele>140</ele>
        <time>2015-12-10T10:47:15.000Z</time>
      </trkpt>
      <trkpt lat="47.77841" lon="2.18315">
        <ele>139.80000305176</ele>
        <time>2015-12-10T10:47:23.000Z</time>
      </trkpt>
      <trkpt lat="47.77891" lon="2.18361">
        <ele>139.60000610352</ele>
        <time>2015-12-10T10:47:33.000Z</time>
      </trkpt>
      <trkpt lat="47.77905" lon="2.18374">
        <ele>139.39999389648</ele>
        <time>2015-12-10T10:47:36.000Z</time>
      </trkpt>
      <trkpt lat="47.77949" lon="2.18421">
        <ele>139.60000610352</ele>
        <time>2015-12-10T10:47:46.000Z</time>
      </trkpt>
      <trkpt lat="47.77993" lon="2.1847">
        <ele>139.60000610352</ele>
        <time>2015-12-10T10:47:56.000Z</time>
      </trkpt>
      <trkpt lat="47.7802" lon="2.18497">
        <ele>139.39999389648</ele>
        <time>2015-12-10T10:48:02.000Z</time>
      </trkpt>
      <trkpt lat="47.78064" lon="2.1854">
        <ele>138.39999389648</ele>
        <time>2015-12-10T10:48:11.000Z</time>
      </trkpt>
      <trkpt lat="47.78114" lon="2.1859">
        <ele>137.39999389648</ele>
        <time>2015-12-10T10:48:20.000Z</time>
      </trkpt>
      <trkpt lat="47.78161" lon="2.18631">
        <ele>135.80000305176</ele>
        <time>2015-12-10T10:48:27.000Z</time>
      </trkpt>
      <trkpt lat="47.78212" lon="2.1868">
        <ele>132.80000305176</ele>
        <time>2015-12-10T10:48:34.000Z</time>
      </trkpt>
      <trkpt lat="47.78255" lon="2.18745">
        <ele>130</ele>
        <time>2015-12-10T10:48:41.000Z</time>
      </trkpt>
      <trkpt lat="47.78277" lon="2.18808">
        <ele>128.39999389648</ele>
        <time>2015-12-10T10:48:47.000Z</time>
      </trkpt>
      <trkpt lat="47.78291" lon="2.18849">
        <ele>127</ele>
        <time>2015-12-10T10:48:51.000Z</time>
      </trkpt>
      <trkpt lat="47.78307" lon="2.18887">
        <ele>125.19999694824</ele>
        <time>2015-12-10T10:48:55.000Z</time>
      </trkpt>
      <trkpt lat="47.78321" lon="2.18912">
        <ele>124</ele>
        <time>2015-12-10T10:48:58.000Z</time>
      </trkpt>
      <trkpt lat="47.7834" lon="2.18943">
        <ele>122.59999847412</ele>
        <time>2015-12-10T10:49:04.000Z</time>
      </trkpt>
      <trkpt lat="47.78331" lon="2.18958">
        <ele>121.80000305176</ele>
        <time>2015-12-10T10:49:09.000Z</time>
      </trkpt>
      <trkpt lat="47.78324" lon="2.18966">
        <ele>121.40000152588</ele>
        <time>2015-12-10T10:49:11.000Z</time>
      </trkpt>
      <trkpt lat="47.78281" lon="2.19024">
        <ele>119.19999694824</ele>
        <time>2015-12-10T10:49:22.000Z</time>
      </trkpt>
      <trkpt lat="47.78286" lon="2.19075">
        <ele>118</ele>
        <time>2015-12-10T10:49:28.000Z</time>
      </trkpt>
      <trkpt lat="47.78317" lon="2.19145">
        <ele>118</ele>
        <time>2015-12-10T10:49:37.000Z</time>
      </trkpt>
      <trkpt lat="47.78351" lon="2.19209">
        <ele>118.19999694824</ele>
        <time>2015-12-10T10:49:46.000Z</time>
      </trkpt>
      <trkpt lat="47.78355" lon="2.19216">
        <ele>118.19999694824</ele>
        <time>2015-12-10T10:49:47.000Z</time>
      </trkpt>
      <trkpt lat="47.78391" lon="2.19279">
        <ele>118.19999694824</ele>
        <time>2015-12-10T10:49:56.000Z</time>
      </trkpt>
      <trkpt lat="47.78421" lon="2.19332">
        <ele>118</ele>
        <time>2015-12-10T10:50:03.000Z</time>
      </trkpt>
      <trkpt lat="47.78418" lon="2.19391">
        <ele>117.19999694824</ele>
        <time>2015-12-10T10:50:10.000Z</time>
      </trkpt>
      <trkpt lat="47.78414" lon="2.19473">
        <ele>117</ele>
        <time>2015-12-10T10:50:20.000Z</time>
      </trkpt>
      <trkpt lat="47.7841" lon="2.19556">
        <ele>116.19999694824</ele>
        <time>2015-12-10T10:50:31.000Z</time>
      </trkpt>
      <trkpt lat="47.78403" lon="2.19637">
        <ele>117.59999847412</ele>
        <time>2015-12-10T10:50:41.000Z</time>
      </trkpt>
      <trkpt lat="47.78403" lon="2.19645">
        <ele>117.80000305176</ele>
        <time>2015-12-10T10:50:42.000Z</time>
      </trkpt>
      <trkpt lat="47.78404" lon="2.19673">
        <ele>118.80000305176</ele>
        <time>2015-12-10T10:50:46.000Z</time>
      </trkpt>
      <trkpt lat="47.78404" lon="2.19692">
        <ele>119.59999847412</ele>
        <time>2015-12-10T10:50:49.000Z</time>
      </trkpt>
      <trkpt lat="47.78403" lon="2.19712">
        <ele>120.19999694824</ele>
        <time>2015-12-10T10:50:52.000Z</time>
      </trkpt>
      <trkpt lat="47.78397" lon="2.19786">
        <ele>119.80000305176</ele>
        <time>2015-12-10T10:51:03.000Z</time>
      </trkpt>
      <trkpt lat="47.78397" lon="2.1984">
        <ele>118.19999694824</ele>
        <time>2015-12-10T10:51:13.000Z</time>
      </trkpt>
      <trkpt lat="47.78412" lon="2.19851">
        <ele>118</ele>
        <time>2015-12-10T10:51:18.000Z</time>
      </trkpt>
      <trkpt lat="47.78417" lon="2.19852">
        <ele>118.19999694824</ele>
        <time>2015-12-10T10:51:19.000Z</time>
      </trkpt>
      <trkpt lat="47.78467" lon="2.1986">
        <ele>116.80000305176</ele>
        <time>2015-12-10T10:51:29.000Z</time>
      </trkpt>
      <trkpt lat="47.78523" lon="2.19868">
        <ele>115.59999847412</ele>
        <time>2015-12-10T10:51:40.000Z</time>
      </trkpt>
      <trkpt lat="47.78578" lon="2.19875">
        <ele>115</ele>
        <time>2015-12-10T10:51:51.000Z</time>
      </trkpt>
      <trkpt lat="47.78591" lon="2.19877">
        <ele>115</ele>
        <time>2015-12-10T10:51:54.000Z</time>
      </trkpt>
      <trkpt lat="47.78588" lon="2.19916">
        <ele>114</ele>
        <time>2015-12-10T10:52:02.000Z</time>
      </trkpt>
      <trkpt lat="47.78579" lon="2.19979">
        <ele>114</ele>
        <time>2015-12-10T10:52:11.000Z</time>
      </trkpt>
      <trkpt lat="47.78572" lon="2.2001">
        <ele>114</ele>
        <time>2015-12-10T10:52:16.000Z</time>
      </trkpt>
      <trkpt lat="47.78565" lon="2.2002">
        <ele>114</ele>
        <time>2015-12-10T10:52:19.000Z</time>
      </trkpt>
      <trkpt lat="47.78576" lon="2.20064">
        <ele>114</ele>
        <time>2015-12-10T10:52:26.000Z</time>
      </trkpt>
      <trkpt lat="47.78581" lon="2.20068">
        <ele>114</ele>
        <time>2015-12-10T10:52:27.000Z</time>
      </trkpt>
      <trkpt lat="47.78589" lon="2.20077">
        <ele>114</ele>
        <time>2015-12-10T10:52:29.000Z</time>
      </trkpt>
      <trkpt lat="47.78635" lon="2.20131">
        <ele>113.40000152588</ele>
        <time>2015-12-10T10:52:40.000Z</time>
      </trkpt>
      <trkpt lat="47.78645" lon="2.20148">
        <ele>113.40000152588</ele>
        <time>2015-12-10T10:52:43.000Z</time>
      </trkpt>
      <trkpt lat="47.78655" lon="2.20174">
        <ele>113.19999694824</ele>
        <time>2015-12-10T10:52:47.000Z</time>
      </trkpt>
      <trkpt lat="47.78667" lon="2.20198">
        <ele>113</ele>
        <time>2015-12-10T10:52:51.000Z</time>
      </trkpt>
      <trkpt lat="47.78704" lon="2.20261">
        <ele>113.40000152588</ele>
        <time>2015-12-10T10:53:02.000Z</time>
      </trkpt>
      <trkpt lat="47.78747" lon="2.20312">
        <ele>113.19999694824</ele>
        <time>2015-12-10T10:53:12.000Z</time>
      </trkpt>
      <trkpt lat="47.7876" lon="2.20326">
        <ele>113.19999694824</ele>
        <time>2015-12-10T10:53:15.000Z</time>
      </trkpt>
      <trkpt lat="47.78807" lon="2.20367">
        <ele>113.19999694824</ele>
        <time>2015-12-10T10:53:25.000Z</time>
      </trkpt>
      <trkpt lat="47.78837" lon="2.20389">
        <ele>113.19999694824</ele>
        <time>2015-12-10T10:53:31.000Z</time>
      </trkpt>
      <trkpt lat="47.78851" lon="2.204">
        <ele>113</ele>
        <time>2015-12-10T10:53:34.000Z</time>
      </trkpt>
      <trkpt lat="47.789" lon="2.20433">
        <ele>112.59999847412</ele>
        <time>2015-12-10T10:53:44.000Z</time>
      </trkpt>
      <trkpt lat="47.78926" lon="2.20447">
        <ele>112.40000152588</ele>
        <time>2015-12-10T10:53:49.000Z</time>
      </trkpt>
      <trkpt lat="47.78979" lon="2.20463">
        <ele>111.40000152588</ele>
        <time>2015-12-10T10:53:59.000Z</time>
      </trkpt>
      <trkpt lat="47.78983" lon="2.20468">
        <ele>111.40000152588</ele>
        <time>2015-12-10T10:54:00.000Z</time>
      </trkpt>
      <trkpt lat="47.78987" lon="2.20487">
        <ele>111.40000152588</ele>
        <time>2015-12-10T10:54:03.000Z</time>
      </trkpt>
      <trkpt lat="47.78975" lon="2.20537">
        <ele>110.19999694824</ele>
        <time>2015-12-10T10:54:10.000Z</time>
      </trkpt>
      <trkpt lat="47.78975" lon="2.20559">
        <ele>109.59999847412</ele>
        <time>2015-12-10T10:54:13.000Z</time>
      </trkpt>
      <trkpt lat="47.78982" lon="2.20579">
        <ele>108.80000305176</ele>
        <time>2015-12-10T10:54:16.000Z</time>
      </trkpt>
      <trkpt lat="47.78979" lon="2.20605">
        <ele>109.19999694824</ele>
        <time>2015-12-10T10:54:20.000Z</time>
      </trkpt>
      <trkpt lat="47.78979" lon="2.20619">
        <ele>109.40000152588</ele>
        <time>2015-12-10T10:54:22.000Z</time>
      </trkpt>
      <trkpt lat="47.78979" lon="2.20634">
        <ele>109.59999847412</ele>
        <time>2015-12-10T10:54:24.000Z</time>
      </trkpt>
      <trkpt lat="47.78974" lon="2.20678">
        <ele>108.80000305176</ele>
        <time>2015-12-10T10:54:30.000Z</time>
      </trkpt>
      <trkpt lat="47.78973" lon="2.20722">
        <ele>108.40000152588</ele>
        <time>2015-12-10T10:54:38.000Z</time>
      </trkpt>
      <trkpt lat="47.78969" lon="2.20734">
        <ele>108.40000152588</ele>
        <time>2015-12-10T10:54:42.000Z</time>
      </trkpt>
      <trkpt lat="47.78968" lon="2.20738">
        <ele>108.40000152588</ele>
        <time>2015-12-10T10:54:45.000Z</time>
      </trkpt>
    </trkseg>
  </trk>
</gpx>